<?xml version="1.0" encoding="UTF-8" standalone="no" ?>
<gpx xmlns="http://www.topografix.com/GPX/1/1" xmlns:xsi="http://www.w3.org/2001/XMLSchema-instance" xsi:schemaLocation="http://www.topografix.com/GPX/1/1 http://www.topografix.com/GPX/1/1/gpx.xsd" version="1.1" creator="VisuGPX - https://www.visugpx.com">
  <metadata>
    <name>Voie Verte sud Chalon sur Saône</name>
    <desc><![CDATA[De Chalon à Chalon.
63 Km sur la voie verte sud.
Visite de Givry et de Buxy puis montée au château de Chenôve]]></desc>
  </metadata>
  <trk>
    <name><![CDATA[Voie Verte Chalon]]></name>
    <trkseg>
      <trkpt lat="46.78333" lon="4.85789">
        <ele>239.9862061</ele>
        <time>2009-07-20T08:21:43Z</time>
      </trkpt>
      <trkpt lat="46.78296" lon="4.85848">
        <ele>239.5054932</ele>
        <time>2009-07-20T08:22:01Z</time>
      </trkpt>
      <trkpt lat="46.78284" lon="4.85891">
        <ele>239.0249023</ele>
        <time>2009-07-20T08:22:14Z</time>
      </trkpt>
      <trkpt lat="46.78254" lon="4.85946">
        <ele>240.467041</ele>
        <time>2009-07-20T08:22:32Z</time>
      </trkpt>
      <trkpt lat="46.78225" lon="4.86013">
        <ele>239.5054932</ele>
        <time>2009-07-20T08:22:50Z</time>
      </trkpt>
      <trkpt lat="46.7818" lon="4.8606">
        <ele>238.5443115</ele>
        <time>2009-07-20T08:23:07Z</time>
      </trkpt>
      <trkpt lat="46.78158" lon="4.86077">
        <ele>238.0635986</ele>
        <time>2009-07-20T08:23:15Z</time>
      </trkpt>
      <trkpt lat="46.78151" lon="4.86071">
        <ele>237.5828857</ele>
        <time>2009-07-20T08:23:19Z</time>
      </trkpt>
      <trkpt lat="46.78144" lon="4.85977">
        <ele>237.1022949</ele>
        <time>2009-07-20T08:23:35Z</time>
      </trkpt>
      <trkpt lat="46.7814" lon="4.85962">
        <ele>232.7764893</ele>
        <time>2009-07-20T08:23:38Z</time>
      </trkpt>
      <trkpt lat="46.78137" lon="4.85951">
        <ele>228.4504395</ele>
        <time>2009-07-20T08:23:40Z</time>
      </trkpt>
      <trkpt lat="46.78133" lon="4.85941">
        <ele>224.6052246</ele>
        <time>2009-07-20T08:23:42Z</time>
      </trkpt>
      <trkpt lat="46.7813" lon="4.85927">
        <ele>219.798584</ele>
        <time>2009-07-20T08:23:45Z</time>
      </trkpt>
      <trkpt lat="46.78128" lon="4.8592">
        <ele>216.9146729</ele>
        <time>2009-07-20T08:23:47Z</time>
      </trkpt>
      <trkpt lat="46.78126" lon="4.85912">
        <ele>212.588623</ele>
        <time>2009-07-20T08:23:50Z</time>
      </trkpt>
      <trkpt lat="46.78124" lon="4.85905">
        <ele>208.7434082</ele>
        <time>2009-07-20T08:23:53Z</time>
      </trkpt>
      <trkpt lat="46.78122" lon="4.85898">
        <ele>205.3787842</ele>
        <time>2009-07-20T08:23:56Z</time>
      </trkpt>
      <trkpt lat="46.78121" lon="4.85889">
        <ele>202.0142822</ele>
        <time>2009-07-20T08:23:59Z</time>
      </trkpt>
      <trkpt lat="46.78121" lon="4.85875">
        <ele>198.6495361</ele>
        <time>2009-07-20T08:24:03Z</time>
      </trkpt>
      <trkpt lat="46.78115" lon="4.85857">
        <ele>194.8043213</ele>
        <time>2009-07-20T08:24:08Z</time>
      </trkpt>
      <trkpt lat="46.78111" lon="4.85839">
        <ele>191.4395752</ele>
        <time>2009-07-20T08:24:13Z</time>
      </trkpt>
      <trkpt lat="46.78105" lon="4.8582">
        <ele>188.0750732</ele>
        <time>2009-07-20T08:24:18Z</time>
      </trkpt>
      <trkpt lat="46.78094" lon="4.85792">
        <ele>184.2298584</ele>
        <time>2009-07-20T08:24:24Z</time>
      </trkpt>
      <trkpt lat="46.78091" lon="4.85786">
        <ele>183.7490234</ele>
        <time>2009-07-20T08:24:25Z</time>
      </trkpt>
      <trkpt lat="46.78082" lon="4.8577">
        <ele>180.8652344</ele>
        <time>2009-07-20T08:24:28Z</time>
      </trkpt>
      <trkpt lat="46.7807" lon="4.8575">
        <ele>179.4232178</ele>
        <time>2009-07-20T08:24:31Z</time>
      </trkpt>
      <trkpt lat="46.78044" lon="4.85689">
        <ele>179.4232178</ele>
        <time>2009-07-20T08:24:39Z</time>
      </trkpt>
      <trkpt lat="46.78018" lon="4.85618">
        <ele>178.942627</ele>
        <time>2009-07-20T08:24:51Z</time>
      </trkpt>
      <trkpt lat="46.7801" lon="4.85601">
        <ele>178.942627</ele>
        <time>2009-07-20T08:25:04Z</time>
      </trkpt>
      <trkpt lat="46.78" lon="4.85573">
        <ele>178.942627</ele>
        <time>2009-07-20T08:25:20Z</time>
      </trkpt>
      <trkpt lat="46.77996" lon="4.85555">
        <ele>178.4619141</ele>
        <time>2009-07-20T08:25:33Z</time>
      </trkpt>
      <trkpt lat="46.77992" lon="4.85537">
        <ele>178.942627</ele>
        <time>2009-07-20T08:25:45Z</time>
      </trkpt>
      <trkpt lat="46.77991" lon="4.85511">
        <ele>178.942627</ele>
        <time>2009-07-20T08:26:08Z</time>
      </trkpt>
      <trkpt lat="46.77995" lon="4.85504">
        <ele>178.942627</ele>
        <time>2009-07-20T08:33:59Z</time>
      </trkpt>
      <trkpt lat="46.78001" lon="4.85483">
        <ele>178.942627</ele>
        <time>2009-07-20T08:34:10Z</time>
      </trkpt>
      <trkpt lat="46.77984" lon="4.85484">
        <ele>179.4232178</ele>
        <time>2009-07-20T08:34:21Z</time>
      </trkpt>
      <trkpt lat="46.77983" lon="4.85483">
        <ele>178.942627</ele>
        <time>2009-07-20T08:34:39Z</time>
      </trkpt>
      <trkpt lat="46.77971" lon="4.85477">
        <ele>178.942627</ele>
        <time>2009-07-20T08:34:44Z</time>
      </trkpt>
      <trkpt lat="46.77952" lon="4.85425">
        <ele>178.4619141</ele>
        <time>2009-07-20T08:34:56Z</time>
      </trkpt>
      <trkpt lat="46.77944" lon="4.85411">
        <ele>178.4619141</ele>
        <time>2009-07-20T08:34:59Z</time>
      </trkpt>
      <trkpt lat="46.77936" lon="4.85393">
        <ele>178.4619141</ele>
        <time>2009-07-20T08:35:02Z</time>
      </trkpt>
      <trkpt lat="46.77927" lon="4.85377">
        <ele>178.4619141</ele>
        <time>2009-07-20T08:35:05Z</time>
      </trkpt>
      <trkpt lat="46.7792" lon="4.85354">
        <ele>178.4619141</ele>
        <time>2009-07-20T08:35:09Z</time>
      </trkpt>
      <trkpt lat="46.77887" lon="4.85262">
        <ele>178.4619141</ele>
        <time>2009-07-20T08:35:26Z</time>
      </trkpt>
      <trkpt lat="46.77877" lon="4.85223">
        <ele>180.3845215</ele>
        <time>2009-07-20T08:35:37Z</time>
      </trkpt>
      <trkpt lat="46.77865" lon="4.85182">
        <ele>180.8652344</ele>
        <time>2009-07-20T08:35:47Z</time>
      </trkpt>
      <trkpt lat="46.77847" lon="4.85126">
        <ele>181.3458252</ele>
        <time>2009-07-20T08:35:59Z</time>
      </trkpt>
      <trkpt lat="46.77855" lon="4.85069">
        <ele>181.3458252</ele>
        <time>2009-07-20T08:36:12Z</time>
      </trkpt>
      <trkpt lat="46.7788" lon="4.85046">
        <ele>180.8652344</ele>
        <time>2009-07-20T08:36:25Z</time>
      </trkpt>
      <trkpt lat="46.77882" lon="4.85044">
        <ele>180.8652344</ele>
        <time>2009-07-20T08:36:26Z</time>
      </trkpt>
      <trkpt lat="46.77889" lon="4.85036">
        <ele>180.8652344</ele>
        <time>2009-07-20T08:36:32Z</time>
      </trkpt>
      <trkpt lat="46.77904" lon="4.85025">
        <ele>180.8652344</ele>
        <time>2009-07-20T08:36:39Z</time>
      </trkpt>
      <trkpt lat="46.77898" lon="4.85004">
        <ele>180.3845215</ele>
        <time>2009-07-20T08:36:45Z</time>
      </trkpt>
      <trkpt lat="46.77893" lon="4.84982">
        <ele>179.9038086</ele>
        <time>2009-07-20T08:36:51Z</time>
      </trkpt>
      <trkpt lat="46.77891" lon="4.84972">
        <ele>179.4232178</ele>
        <time>2009-07-20T08:36:54Z</time>
      </trkpt>
      <trkpt lat="46.77885" lon="4.84964">
        <ele>179.9038086</ele>
        <time>2009-07-20T08:36:58Z</time>
      </trkpt>
      <trkpt lat="46.77884" lon="4.84955">
        <ele>179.9038086</ele>
        <time>2009-07-20T08:37:01Z</time>
      </trkpt>
      <trkpt lat="46.77884" lon="4.84936">
        <ele>179.9038086</ele>
        <time>2009-07-20T08:37:08Z</time>
      </trkpt>
      <trkpt lat="46.7788" lon="4.84907">
        <ele>179.9038086</ele>
        <time>2009-07-20T08:37:15Z</time>
      </trkpt>
      <trkpt lat="46.77872" lon="4.84869">
        <ele>179.4232178</ele>
        <time>2009-07-20T08:37:27Z</time>
      </trkpt>
      <trkpt lat="46.77869" lon="4.84866">
        <ele>179.4232178</ele>
        <time>2009-07-20T08:37:28Z</time>
      </trkpt>
      <trkpt lat="46.77857" lon="4.84826">
        <ele>179.4232178</ele>
        <time>2009-07-20T08:37:36Z</time>
      </trkpt>
      <trkpt lat="46.77853" lon="4.84808">
        <ele>179.4232178</ele>
        <time>2009-07-20T08:37:41Z</time>
      </trkpt>
      <trkpt lat="46.77847" lon="4.84782">
        <ele>179.4232178</ele>
        <time>2009-07-20T08:37:51Z</time>
      </trkpt>
      <trkpt lat="46.7784" lon="4.84768">
        <ele>179.4232178</ele>
        <time>2009-07-20T08:37:55Z</time>
      </trkpt>
      <trkpt lat="46.77838" lon="4.84763">
        <ele>179.4232178</ele>
        <time>2009-07-20T08:37:57Z</time>
      </trkpt>
      <trkpt lat="46.77831" lon="4.84737">
        <ele>178.942627</ele>
        <time>2009-07-20T08:38:07Z</time>
      </trkpt>
      <trkpt lat="46.77825" lon="4.84725">
        <ele>178.942627</ele>
        <time>2009-07-20T08:38:11Z</time>
      </trkpt>
      <trkpt lat="46.77816" lon="4.84702">
        <ele>178.942627</ele>
        <time>2009-07-20T08:38:16Z</time>
      </trkpt>
      <trkpt lat="46.77802" lon="4.84645">
        <ele>178.4619141</ele>
        <time>2009-07-20T08:38:27Z</time>
      </trkpt>
      <trkpt lat="46.77792" lon="4.84602">
        <ele>178.942627</ele>
        <time>2009-07-20T08:38:37Z</time>
      </trkpt>
      <trkpt lat="46.77773" lon="4.84555">
        <ele>179.4232178</ele>
        <time>2009-07-20T08:38:47Z</time>
      </trkpt>
      <trkpt lat="46.77737" lon="4.84494">
        <ele>181.3458252</ele>
        <time>2009-07-20T08:39:01Z</time>
      </trkpt>
      <trkpt lat="46.77702" lon="4.84474">
        <ele>183.2684326</ele>
        <time>2009-07-20T08:39:14Z</time>
      </trkpt>
      <trkpt lat="46.77682" lon="4.84467">
        <ele>184.7105713</ele>
        <time>2009-07-20T08:39:25Z</time>
      </trkpt>
      <trkpt lat="46.77665" lon="4.84463">
        <ele>183.7490234</ele>
        <time>2009-07-20T08:42:28Z</time>
      </trkpt>
      <trkpt lat="46.77631" lon="4.84432">
        <ele>184.7105713</ele>
        <time>2009-07-20T08:42:38Z</time>
      </trkpt>
      <trkpt lat="46.77607" lon="4.84362">
        <ele>185.1911621</ele>
        <time>2009-07-20T08:42:52Z</time>
      </trkpt>
      <trkpt lat="46.776" lon="4.84335">
        <ele>183.7490234</ele>
        <time>2009-07-20T08:42:56Z</time>
      </trkpt>
      <trkpt lat="46.77596" lon="4.84315">
        <ele>183.7490234</ele>
        <time>2009-07-20T08:42:59Z</time>
      </trkpt>
      <trkpt lat="46.77596" lon="4.84285">
        <ele>183.2684326</ele>
        <time>2009-07-20T08:43:03Z</time>
      </trkpt>
      <trkpt lat="46.77608" lon="4.84185">
        <ele>180.3845215</ele>
        <time>2009-07-20T08:43:14Z</time>
      </trkpt>
      <trkpt lat="46.77614" lon="4.84061">
        <ele>177.0200195</ele>
        <time>2009-07-20T08:43:25Z</time>
      </trkpt>
      <trkpt lat="46.77576" lon="4.83923">
        <ele>175.5778809</ele>
        <time>2009-07-20T08:43:40Z</time>
      </trkpt>
      <trkpt lat="46.77538" lon="4.83804">
        <ele>176.5393066</ele>
        <time>2009-07-20T08:43:57Z</time>
      </trkpt>
      <trkpt lat="46.77512" lon="4.83725">
        <ele>178.4619141</ele>
        <time>2009-07-20T08:44:11Z</time>
      </trkpt>
      <trkpt lat="46.77508" lon="4.83701">
        <ele>178.4619141</ele>
        <time>2009-07-20T08:44:19Z</time>
      </trkpt>
      <trkpt lat="46.77517" lon="4.8369">
        <ele>178.942627</ele>
        <time>2009-07-20T08:44:25Z</time>
      </trkpt>
      <trkpt lat="46.77519" lon="4.83684">
        <ele>178.942627</ele>
        <time>2009-07-20T08:44:41Z</time>
      </trkpt>
      <trkpt lat="46.77518" lon="4.83685">
        <ele>175.5778809</ele>
        <time>2009-07-20T08:44:54Z</time>
      </trkpt>
      <trkpt lat="46.77518" lon="4.83685">
        <ele>178.942627</ele>
        <time>2009-07-20T08:44:55Z</time>
      </trkpt>
      <trkpt lat="46.77518" lon="4.83685">
        <ele>178.4619141</ele>
        <time>2009-07-20T08:45:05Z</time>
      </trkpt>
      <trkpt lat="46.77512" lon="4.83675">
        <ele>178.942627</ele>
        <time>2009-07-20T08:45:11Z</time>
      </trkpt>
      <trkpt lat="46.77488" lon="4.83649">
        <ele>178.942627</ele>
        <time>2009-07-20T08:45:25Z</time>
      </trkpt>
      <trkpt lat="46.77467" lon="4.83592">
        <ele>178.4619141</ele>
        <time>2009-07-20T08:45:41Z</time>
      </trkpt>
      <trkpt lat="46.77435" lon="4.8352">
        <ele>177.5006104</ele>
        <time>2009-07-20T08:45:56Z</time>
      </trkpt>
      <trkpt lat="46.77428" lon="4.83499">
        <ele>177.0200195</ele>
        <time>2009-07-20T08:46:00Z</time>
      </trkpt>
      <trkpt lat="46.77413" lon="4.83469">
        <ele>177.0200195</ele>
        <time>2009-07-20T08:46:06Z</time>
      </trkpt>
      <trkpt lat="46.77396" lon="4.83437">
        <ele>177.0200195</ele>
        <time>2009-07-20T08:46:12Z</time>
      </trkpt>
      <trkpt lat="46.77371" lon="4.83363">
        <ele>176.5393066</ele>
        <time>2009-07-20T08:46:25Z</time>
      </trkpt>
      <trkpt lat="46.77378" lon="4.83315">
        <ele>176.5393066</ele>
        <time>2009-07-20T08:46:33Z</time>
      </trkpt>
      <trkpt lat="46.77399" lon="4.83292">
        <ele>176.0585938</ele>
        <time>2009-07-20T08:46:38Z</time>
      </trkpt>
      <trkpt lat="46.77406" lon="4.83282">
        <ele>176.0585938</ele>
        <time>2009-07-20T08:46:40Z</time>
      </trkpt>
      <trkpt lat="46.77417" lon="4.83256">
        <ele>175.5778809</ele>
        <time>2009-07-20T08:46:44Z</time>
      </trkpt>
      <trkpt lat="46.77431" lon="4.83196">
        <ele>176.0585938</ele>
        <time>2009-07-20T08:46:53Z</time>
      </trkpt>
      <trkpt lat="46.77435" lon="4.83184">
        <ele>176.0585938</ele>
        <time>2009-07-20T08:46:55Z</time>
      </trkpt>
      <trkpt lat="46.77477" lon="4.83103">
        <ele>177.0200195</ele>
        <time>2009-07-20T08:47:13Z</time>
      </trkpt>
      <trkpt lat="46.77509" lon="4.83057">
        <ele>177.0200195</ele>
        <time>2009-07-20T08:47:26Z</time>
      </trkpt>
      <trkpt lat="46.77522" lon="4.83043">
        <ele>177.0200195</ele>
        <time>2009-07-20T08:47:30Z</time>
      </trkpt>
      <trkpt lat="46.77575" lon="4.82998">
        <ele>177.0200195</ele>
        <time>2009-07-20T08:47:46Z</time>
      </trkpt>
      <trkpt lat="46.77621" lon="4.82974">
        <ele>178.4619141</ele>
        <time>2009-07-20T08:48:01Z</time>
      </trkpt>
      <trkpt lat="46.77648" lon="4.82946">
        <ele>178.4619141</ele>
        <time>2009-07-20T08:48:11Z</time>
      </trkpt>
      <trkpt lat="46.77649" lon="4.82932">
        <ele>178.4619141</ele>
        <time>2009-07-20T08:48:16Z</time>
      </trkpt>
      <trkpt lat="46.77641" lon="4.82934">
        <ele>178.4619141</ele>
        <time>2009-07-20T08:48:25Z</time>
      </trkpt>
      <trkpt lat="46.7764" lon="4.82941">
        <ele>178.4619141</ele>
        <time>2009-07-20T08:48:27Z</time>
      </trkpt>
      <trkpt lat="46.77633" lon="4.82939">
        <ele>178.942627</ele>
        <time>2009-07-20T08:48:36Z</time>
      </trkpt>
      <trkpt lat="46.77637" lon="4.82918">
        <ele>178.942627</ele>
        <time>2009-07-20T08:48:43Z</time>
      </trkpt>
      <trkpt lat="46.77641" lon="4.82891">
        <ele>178.942627</ele>
        <time>2009-07-20T08:48:51Z</time>
      </trkpt>
      <trkpt lat="46.77655" lon="4.82807">
        <ele>179.9038086</ele>
        <time>2009-07-20T08:49:07Z</time>
      </trkpt>
      <trkpt lat="46.77659" lon="4.82779">
        <ele>180.3845215</ele>
        <time>2009-07-20T08:49:18Z</time>
      </trkpt>
      <trkpt lat="46.77664" lon="4.82758">
        <ele>180.3845215</ele>
        <time>2009-07-20T08:50:17Z</time>
      </trkpt>
      <trkpt lat="46.77675" lon="4.82696">
        <ele>179.9038086</ele>
        <time>2009-07-20T08:50:31Z</time>
      </trkpt>
      <trkpt lat="46.77684" lon="4.82629">
        <ele>180.8652344</ele>
        <time>2009-07-20T08:50:44Z</time>
      </trkpt>
      <trkpt lat="46.77697" lon="4.82553">
        <ele>182.3071289</ele>
        <time>2009-07-20T08:50:58Z</time>
      </trkpt>
      <trkpt lat="46.77698" lon="4.82548">
        <ele>181.826416</ele>
        <time>2009-07-20T08:50:59Z</time>
      </trkpt>
      <trkpt lat="46.77705" lon="4.82518">
        <ele>182.3071289</ele>
        <time>2009-07-20T08:51:04Z</time>
      </trkpt>
      <trkpt lat="46.7771" lon="4.82484">
        <ele>182.7878418</ele>
        <time>2009-07-20T08:51:09Z</time>
      </trkpt>
      <trkpt lat="46.7772" lon="4.8242">
        <ele>183.2684326</ele>
        <time>2009-07-20T08:51:18Z</time>
      </trkpt>
      <trkpt lat="46.77731" lon="4.82355">
        <ele>183.7490234</ele>
        <time>2009-07-20T08:51:27Z</time>
      </trkpt>
      <trkpt lat="46.77748" lon="4.82249">
        <ele>185.1911621</ele>
        <time>2009-07-20T08:51:45Z</time>
      </trkpt>
      <trkpt lat="46.77763" lon="4.82158">
        <ele>185.6717529</ele>
        <time>2009-07-20T08:52:01Z</time>
      </trkpt>
      <trkpt lat="46.77772" lon="4.8211">
        <ele>187.5943604</ele>
        <time>2009-07-20T08:52:14Z</time>
      </trkpt>
      <trkpt lat="46.77778" lon="4.82068">
        <ele>187.5943604</ele>
        <time>2009-07-20T08:52:26Z</time>
      </trkpt>
      <trkpt lat="46.77789" lon="4.82">
        <ele>187.5943604</ele>
        <time>2009-07-20T08:52:41Z</time>
      </trkpt>
      <trkpt lat="46.778" lon="4.81923">
        <ele>188.0750732</ele>
        <time>2009-07-20T08:52:55Z</time>
      </trkpt>
      <trkpt lat="46.7782" lon="4.8181">
        <ele>189.5169678</ele>
        <time>2009-07-20T08:53:14Z</time>
      </trkpt>
      <trkpt lat="46.7784" lon="4.81692">
        <ele>191.4395752</ele>
        <time>2009-07-20T08:53:33Z</time>
      </trkpt>
      <trkpt lat="46.77862" lon="4.81565">
        <ele>192.401123</ele>
        <time>2009-07-20T08:53:53Z</time>
      </trkpt>
      <trkpt lat="46.77877" lon="4.81473">
        <ele>193.8430176</ele>
        <time>2009-07-20T08:54:07Z</time>
      </trkpt>
      <trkpt lat="46.77878" lon="4.81467">
        <ele>193.8430176</ele>
        <time>2009-07-20T08:54:08Z</time>
      </trkpt>
      <trkpt lat="46.77885" lon="4.81417">
        <ele>194.3237305</ele>
        <time>2009-07-20T08:54:16Z</time>
      </trkpt>
      <trkpt lat="46.77891" lon="4.81387">
        <ele>194.3237305</ele>
        <time>2009-07-20T08:54:21Z</time>
      </trkpt>
      <trkpt lat="46.77901" lon="4.81351">
        <ele>195.2849121</ele>
        <time>2009-07-20T08:54:27Z</time>
      </trkpt>
      <trkpt lat="46.77919" lon="4.81245">
        <ele>196.2463379</ele>
        <time>2009-07-20T08:54:43Z</time>
      </trkpt>
      <trkpt lat="46.77923" lon="4.81219">
        <ele>196.2463379</ele>
        <time>2009-07-20T08:54:47Z</time>
      </trkpt>
      <trkpt lat="46.77928" lon="4.81191">
        <ele>196.7269287</ele>
        <time>2009-07-20T08:54:51Z</time>
      </trkpt>
      <trkpt lat="46.7793" lon="4.81168">
        <ele>196.7269287</ele>
        <time>2009-07-20T08:54:54Z</time>
      </trkpt>
      <trkpt lat="46.77943" lon="4.81069">
        <ele>197.6882324</ele>
        <time>2009-07-20T08:55:09Z</time>
      </trkpt>
      <trkpt lat="46.77945" lon="4.81056">
        <ele>197.6882324</ele>
        <time>2009-07-20T08:55:11Z</time>
      </trkpt>
      <trkpt lat="46.7795" lon="4.81029">
        <ele>198.1689453</ele>
        <time>2009-07-20T08:55:15Z</time>
      </trkpt>
      <trkpt lat="46.77962" lon="4.80964">
        <ele>199.130127</ele>
        <time>2009-07-20T08:55:25Z</time>
      </trkpt>
      <trkpt lat="46.77967" lon="4.8093">
        <ele>199.130127</ele>
        <time>2009-07-20T08:55:30Z</time>
      </trkpt>
      <trkpt lat="46.77977" lon="4.80863">
        <ele>199.6108398</ele>
        <time>2009-07-20T08:55:40Z</time>
      </trkpt>
      <trkpt lat="46.77991" lon="4.80773">
        <ele>200.0916748</ele>
        <time>2009-07-20T08:55:53Z</time>
      </trkpt>
      <trkpt lat="46.78007" lon="4.80671">
        <ele>200.5722656</ele>
        <time>2009-07-20T08:56:07Z</time>
      </trkpt>
      <trkpt lat="46.78013" lon="4.80643">
        <ele>199.6108398</ele>
        <time>2009-07-20T08:56:11Z</time>
      </trkpt>
      <trkpt lat="46.78027" lon="4.80541">
        <ele>200.5722656</ele>
        <time>2009-07-20T08:56:27Z</time>
      </trkpt>
      <trkpt lat="46.78033" lon="4.80517">
        <ele>201.5335693</ele>
        <time>2009-07-20T08:56:38Z</time>
      </trkpt>
      <trkpt lat="46.7804" lon="4.80475">
        <ele>201.0528564</ele>
        <time>2009-07-20T08:56:50Z</time>
      </trkpt>
      <trkpt lat="46.78052" lon="4.80399">
        <ele>200.5722656</ele>
        <time>2009-07-20T08:57:05Z</time>
      </trkpt>
      <trkpt lat="46.78065" lon="4.80329">
        <ele>200.0916748</ele>
        <time>2009-07-20T08:57:17Z</time>
      </trkpt>
      <trkpt lat="46.78069" lon="4.80305">
        <ele>200.0916748</ele>
        <time>2009-07-20T08:57:21Z</time>
      </trkpt>
      <trkpt lat="46.78087" lon="4.80196">
        <ele>199.130127</ele>
        <time>2009-07-20T08:57:38Z</time>
      </trkpt>
      <trkpt lat="46.78088" lon="4.80189">
        <ele>202.9754639</ele>
        <time>2009-07-20T08:57:39Z</time>
      </trkpt>
      <trkpt lat="46.78088" lon="4.80182">
        <ele>199.6108398</ele>
        <time>2009-07-20T08:57:40Z</time>
      </trkpt>
      <trkpt lat="46.78091" lon="4.80168">
        <ele>198.6495361</ele>
        <time>2009-07-20T08:57:42Z</time>
      </trkpt>
      <trkpt lat="46.78106" lon="4.80079">
        <ele>198.1689453</ele>
        <time>2009-07-20T08:57:56Z</time>
      </trkpt>
      <trkpt lat="46.78125" lon="4.79975">
        <ele>198.1689453</ele>
        <time>2009-07-20T08:58:10Z</time>
      </trkpt>
      <trkpt lat="46.78144" lon="4.79851">
        <ele>198.1689453</ele>
        <time>2009-07-20T08:58:27Z</time>
      </trkpt>
      <trkpt lat="46.78156" lon="4.7977">
        <ele>198.6495361</ele>
        <time>2009-07-20T08:58:42Z</time>
      </trkpt>
      <trkpt lat="46.78161" lon="4.79733">
        <ele>198.1689453</ele>
        <time>2009-07-20T08:58:53Z</time>
      </trkpt>
      <trkpt lat="46.78172" lon="4.79662">
        <ele>197.2075195</ele>
        <time>2009-07-20T08:59:06Z</time>
      </trkpt>
      <trkpt lat="46.78195" lon="4.7953">
        <ele>196.7269287</ele>
        <time>2009-07-20T08:59:25Z</time>
      </trkpt>
      <trkpt lat="46.78201" lon="4.79501">
        <ele>196.7269287</ele>
        <time>2009-07-20T08:59:29Z</time>
      </trkpt>
      <trkpt lat="46.78225" lon="4.79357">
        <ele>196.2463379</ele>
        <time>2009-07-20T08:59:48Z</time>
      </trkpt>
      <trkpt lat="46.78245" lon="4.79239">
        <ele>195.2849121</ele>
        <time>2009-07-20T09:00:03Z</time>
      </trkpt>
      <trkpt lat="46.78246" lon="4.79232">
        <ele>195.2849121</ele>
        <time>2009-07-20T09:00:04Z</time>
      </trkpt>
      <trkpt lat="46.78247" lon="4.79218">
        <ele>195.2849121</ele>
        <time>2009-07-20T09:00:06Z</time>
      </trkpt>
      <trkpt lat="46.78249" lon="4.79191">
        <ele>195.2849121</ele>
        <time>2009-07-20T09:00:10Z</time>
      </trkpt>
      <trkpt lat="46.78253" lon="4.79147">
        <ele>194.8043213</ele>
        <time>2009-07-20T09:00:15Z</time>
      </trkpt>
      <trkpt lat="46.78258" lon="4.79105">
        <ele>194.3237305</ele>
        <time>2009-07-20T09:00:20Z</time>
      </trkpt>
      <trkpt lat="46.78258" lon="4.7907">
        <ele>193.8430176</ele>
        <time>2009-07-20T09:00:24Z</time>
      </trkpt>
      <trkpt lat="46.78265" lon="4.79013">
        <ele>193.3623047</ele>
        <time>2009-07-20T09:00:30Z</time>
      </trkpt>
      <trkpt lat="46.78274" lon="4.7891">
        <ele>191.9202881</ele>
        <time>2009-07-20T09:00:41Z</time>
      </trkpt>
      <trkpt lat="46.7829" lon="4.7884">
        <ele>191.4395752</ele>
        <time>2009-07-20T09:00:48Z</time>
      </trkpt>
      <trkpt lat="46.78303" lon="4.78803">
        <ele>190.9589844</ele>
        <time>2009-07-20T09:00:52Z</time>
      </trkpt>
      <trkpt lat="46.7832" lon="4.7869">
        <ele>189.5169678</ele>
        <time>2009-07-20T09:01:03Z</time>
      </trkpt>
      <trkpt lat="46.7833" lon="4.7863">
        <ele>189.036377</ele>
        <time>2009-07-20T09:01:08Z</time>
      </trkpt>
      <trkpt lat="46.78331" lon="4.7861">
        <ele>188.5557861</ele>
        <time>2009-07-20T09:01:10Z</time>
      </trkpt>
      <trkpt lat="46.78337" lon="4.78553">
        <ele>188.0750732</ele>
        <time>2009-07-20T09:01:16Z</time>
      </trkpt>
      <trkpt lat="46.78351" lon="4.78452">
        <ele>186.1524658</ele>
        <time>2009-07-20T09:01:27Z</time>
      </trkpt>
      <trkpt lat="46.78369" lon="4.78314">
        <ele>185.1911621</ele>
        <time>2009-07-20T09:01:41Z</time>
      </trkpt>
      <trkpt lat="46.78373" lon="4.78277">
        <ele>185.1911621</ele>
        <time>2009-07-20T09:01:45Z</time>
      </trkpt>
      <trkpt lat="46.78388" lon="4.78161">
        <ele>185.1911621</ele>
        <time>2009-07-20T09:01:59Z</time>
      </trkpt>
      <trkpt lat="46.78393" lon="4.78131">
        <ele>185.6717529</ele>
        <time>2009-07-20T09:02:07Z</time>
      </trkpt>
      <trkpt lat="46.78394" lon="4.7812">
        <ele>185.6717529</ele>
        <time>2009-07-20T09:02:24Z</time>
      </trkpt>
      <trkpt lat="46.78398" lon="4.78092">
        <ele>185.6717529</ele>
        <time>2009-07-20T09:03:24Z</time>
      </trkpt>
      <trkpt lat="46.78407" lon="4.78025">
        <ele>186.1524658</ele>
        <time>2009-07-20T09:03:39Z</time>
      </trkpt>
      <trkpt lat="46.78416" lon="4.77947">
        <ele>187.1137695</ele>
        <time>2009-07-20T09:03:55Z</time>
      </trkpt>
      <trkpt lat="46.78422" lon="4.77911">
        <ele>187.5943604</ele>
        <time>2009-07-20T09:04:07Z</time>
      </trkpt>
      <trkpt lat="46.7843" lon="4.77857">
        <ele>188.0750732</ele>
        <time>2009-07-20T09:04:20Z</time>
      </trkpt>
      <trkpt lat="46.7844" lon="4.77787">
        <ele>188.5557861</ele>
        <time>2009-07-20T09:04:32Z</time>
      </trkpt>
      <trkpt lat="46.78444" lon="4.77758">
        <ele>188.5557861</ele>
        <time>2009-07-20T09:04:36Z</time>
      </trkpt>
      <trkpt lat="46.78454" lon="4.77682">
        <ele>189.9976807</ele>
        <time>2009-07-20T09:04:49Z</time>
      </trkpt>
      <trkpt lat="46.78468" lon="4.77586">
        <ele>190.4783936</ele>
        <time>2009-07-20T09:05:06Z</time>
      </trkpt>
      <trkpt lat="46.78475" lon="4.77523">
        <ele>191.4395752</ele>
        <time>2009-07-20T09:05:18Z</time>
      </trkpt>
      <trkpt lat="46.78482" lon="4.7746">
        <ele>192.401123</ele>
        <time>2009-07-20T09:05:30Z</time>
      </trkpt>
      <trkpt lat="46.7849" lon="4.77403">
        <ele>193.3623047</ele>
        <time>2009-07-20T09:05:41Z</time>
      </trkpt>
      <trkpt lat="46.78498" lon="4.77341">
        <ele>193.8430176</ele>
        <time>2009-07-20T09:05:50Z</time>
      </trkpt>
      <trkpt lat="46.78502" lon="4.77268">
        <ele>194.3237305</ele>
        <time>2009-07-20T09:06:01Z</time>
      </trkpt>
      <trkpt lat="46.78503" lon="4.77197">
        <ele>194.8043213</ele>
        <time>2009-07-20T09:06:12Z</time>
      </trkpt>
      <trkpt lat="46.78498" lon="4.77089">
        <ele>195.765625</ele>
        <time>2009-07-20T09:06:28Z</time>
      </trkpt>
      <trkpt lat="46.78481" lon="4.76959">
        <ele>196.7269287</ele>
        <time>2009-07-20T09:06:47Z</time>
      </trkpt>
      <trkpt lat="46.78472" lon="4.76871">
        <ele>197.2075195</ele>
        <time>2009-07-20T09:07:00Z</time>
      </trkpt>
      <trkpt lat="46.78469" lon="4.76844">
        <ele>197.2075195</ele>
        <time>2009-07-20T09:07:04Z</time>
      </trkpt>
      <trkpt lat="46.78455" lon="4.76736">
        <ele>196.7269287</ele>
        <time>2009-07-20T09:07:20Z</time>
      </trkpt>
      <trkpt lat="46.78443" lon="4.76638">
        <ele>197.2075195</ele>
        <time>2009-07-20T09:07:36Z</time>
      </trkpt>
      <trkpt lat="46.78437" lon="4.7658">
        <ele>198.1689453</ele>
        <time>2009-07-20T09:07:50Z</time>
      </trkpt>
      <trkpt lat="46.78433" lon="4.76524">
        <ele>197.6882324</ele>
        <time>2009-07-20T09:08:02Z</time>
      </trkpt>
      <trkpt lat="46.78421" lon="4.76427">
        <ele>199.130127</ele>
        <time>2009-07-20T09:08:19Z</time>
      </trkpt>
      <trkpt lat="46.78419" lon="4.76409">
        <ele>198.6495361</ele>
        <time>2009-07-20T09:08:22Z</time>
      </trkpt>
      <trkpt lat="46.7841" lon="4.76325">
        <ele>198.6495361</ele>
        <time>2009-07-20T09:08:36Z</time>
      </trkpt>
      <trkpt lat="46.784" lon="4.76251">
        <ele>198.6495361</ele>
        <time>2009-07-20T09:08:48Z</time>
      </trkpt>
      <trkpt lat="46.7839" lon="4.76159">
        <ele>199.6108398</ele>
        <time>2009-07-20T09:09:03Z</time>
      </trkpt>
      <trkpt lat="46.78375" lon="4.76038">
        <ele>199.130127</ele>
        <time>2009-07-20T09:09:22Z</time>
      </trkpt>
      <trkpt lat="46.78361" lon="4.75912">
        <ele>201.0528564</ele>
        <time>2009-07-20T09:09:42Z</time>
      </trkpt>
      <trkpt lat="46.78347" lon="4.75792">
        <ele>201.5335693</ele>
        <time>2009-07-20T09:10:01Z</time>
      </trkpt>
      <trkpt lat="46.78342" lon="4.75749">
        <ele>201.5335693</ele>
        <time>2009-07-20T09:10:08Z</time>
      </trkpt>
      <trkpt lat="46.78334" lon="4.75674">
        <ele>202.494873</ele>
        <time>2009-07-20T09:10:24Z</time>
      </trkpt>
      <trkpt lat="46.78325" lon="4.75602">
        <ele>203.9368896</ele>
        <time>2009-07-20T09:10:39Z</time>
      </trkpt>
      <trkpt lat="46.78316" lon="4.75502">
        <ele>203.9368896</ele>
        <time>2009-07-20T09:10:56Z</time>
      </trkpt>
      <trkpt lat="46.78313" lon="4.75479">
        <ele>204.4174805</ele>
        <time>2009-07-20T09:11:00Z</time>
      </trkpt>
      <trkpt lat="46.78302" lon="4.75389">
        <ele>205.3787842</ele>
        <time>2009-07-20T09:11:15Z</time>
      </trkpt>
      <trkpt lat="46.78301" lon="4.75376">
        <ele>205.3787842</ele>
        <time>2009-07-20T09:11:17Z</time>
      </trkpt>
      <trkpt lat="46.7829" lon="4.75271">
        <ele>205.3787842</ele>
        <time>2009-07-20T09:11:33Z</time>
      </trkpt>
      <trkpt lat="46.78289" lon="4.75264">
        <ele>205.3787842</ele>
        <time>2009-07-20T09:11:34Z</time>
      </trkpt>
      <trkpt lat="46.78281" lon="4.75232">
        <ele>205.3787842</ele>
        <time>2009-07-20T09:11:39Z</time>
      </trkpt>
      <trkpt lat="46.78273" lon="4.75194">
        <ele>204.8980713</ele>
        <time>2009-07-20T09:11:45Z</time>
      </trkpt>
      <trkpt lat="46.78266" lon="4.75161">
        <ele>204.8980713</ele>
        <time>2009-07-20T09:11:50Z</time>
      </trkpt>
      <trkpt lat="46.78245" lon="4.75112">
        <ele>205.3787842</ele>
        <time>2009-07-20T09:11:58Z</time>
      </trkpt>
      <trkpt lat="46.78198" lon="4.75032">
        <ele>204.4174805</ele>
        <time>2009-07-20T09:12:13Z</time>
      </trkpt>
      <trkpt lat="46.78157" lon="4.74988">
        <ele>205.8594971</ele>
        <time>2009-07-20T09:12:28Z</time>
      </trkpt>
      <trkpt lat="46.78149" lon="4.74954">
        <ele>206.3400879</ele>
        <time>2009-07-20T09:12:38Z</time>
      </trkpt>
      <trkpt lat="46.78157" lon="4.74913">
        <ele>207.3013916</ele>
        <time>2009-07-20T09:12:50Z</time>
      </trkpt>
      <trkpt lat="46.78168" lon="4.74854">
        <ele>208.2628174</ele>
        <time>2009-07-20T09:13:05Z</time>
      </trkpt>
      <trkpt lat="46.78175" lon="4.74796">
        <ele>209.2241211</ele>
        <time>2009-07-20T09:13:18Z</time>
      </trkpt>
      <trkpt lat="46.78187" lon="4.74731">
        <ele>211.1467285</ele>
        <time>2009-07-20T09:13:34Z</time>
      </trkpt>
      <trkpt lat="46.78196" lon="4.74673">
        <ele>212.588623</ele>
        <time>2009-07-20T09:13:50Z</time>
      </trkpt>
      <trkpt lat="46.78205" lon="4.7462">
        <ele>214.0306396</ele>
        <time>2009-07-20T09:14:03Z</time>
      </trkpt>
      <trkpt lat="46.78217" lon="4.74594">
        <ele>214.5112305</ele>
        <time>2009-07-20T09:14:13Z</time>
      </trkpt>
      <trkpt lat="46.78233" lon="4.74553">
        <ele>214.9919434</ele>
        <time>2009-07-20T09:14:27Z</time>
      </trkpt>
      <trkpt lat="46.78244" lon="4.74528">
        <ele>215.4726563</ele>
        <time>2009-07-20T09:14:39Z</time>
      </trkpt>
      <trkpt lat="46.78245" lon="4.7452">
        <ele>215.4726563</ele>
        <time>2009-07-20T09:14:43Z</time>
      </trkpt>
      <trkpt lat="46.78251" lon="4.74513">
        <ele>215.4726563</ele>
        <time>2009-07-20T09:14:48Z</time>
      </trkpt>
      <trkpt lat="46.78272" lon="4.74487">
        <ele>215.9532471</ele>
        <time>2009-07-20T09:15:02Z</time>
      </trkpt>
      <trkpt lat="46.78271" lon="4.74485">
        <ele>215.9532471</ele>
        <time>2009-07-20T09:15:28Z</time>
      </trkpt>
      <trkpt lat="46.78271" lon="4.74464">
        <ele>215.9532471</ele>
        <time>2009-07-20T09:15:37Z</time>
      </trkpt>
      <trkpt lat="46.7828" lon="4.74435">
        <ele>216.9146729</ele>
        <time>2009-07-20T09:15:48Z</time>
      </trkpt>
      <trkpt lat="46.78284" lon="4.74428">
        <ele>216.9146729</ele>
        <time>2009-07-20T09:15:51Z</time>
      </trkpt>
      <trkpt lat="46.78292" lon="4.74394">
        <ele>216.9146729</ele>
        <time>2009-07-20T09:16:02Z</time>
      </trkpt>
      <trkpt lat="46.78295" lon="4.74381">
        <ele>217.3953857</ele>
        <time>2009-07-20T09:16:06Z</time>
      </trkpt>
      <trkpt lat="46.78313" lon="4.74337">
        <ele>218.3565674</ele>
        <time>2009-07-20T09:16:22Z</time>
      </trkpt>
      <trkpt lat="46.78314" lon="4.74336">
        <ele>218.3565674</ele>
        <time>2009-07-20T09:16:23Z</time>
      </trkpt>
      <trkpt lat="46.78314" lon="4.74329">
        <ele>218.3565674</ele>
        <time>2009-07-20T09:16:42Z</time>
      </trkpt>
      <trkpt lat="46.78306" lon="4.74324">
        <ele>217.8759766</ele>
        <time>2009-07-20T09:16:50Z</time>
      </trkpt>
      <trkpt lat="46.78268" lon="4.74299">
        <ele>217.3953857</ele>
        <time>2009-07-20T09:17:01Z</time>
      </trkpt>
      <trkpt lat="46.78234" lon="4.74278">
        <ele>216.9146729</ele>
        <time>2009-07-20T09:17:13Z</time>
      </trkpt>
      <trkpt lat="46.78191" lon="4.74259">
        <ele>216.43396</ele>
        <time>2009-07-20T09:17:25Z</time>
      </trkpt>
      <trkpt lat="46.78179" lon="4.74247">
        <ele>216.43396</ele>
        <time>2009-07-20T09:17:29Z</time>
      </trkpt>
      <trkpt lat="46.78163" lon="4.7426">
        <ele>215.9532471</ele>
        <time>2009-07-20T09:17:34Z</time>
      </trkpt>
      <trkpt lat="46.78136" lon="4.74324">
        <ele>214.9919434</ele>
        <time>2009-07-20T09:17:45Z</time>
      </trkpt>
      <trkpt lat="46.78133" lon="4.74347">
        <ele>214.9919434</ele>
        <time>2009-07-20T09:17:49Z</time>
      </trkpt>
      <trkpt lat="46.78153" lon="4.7439">
        <ele>214.5112305</ele>
        <time>2009-07-20T09:17:58Z</time>
      </trkpt>
      <trkpt lat="46.78195" lon="4.74419">
        <ele>214.5112305</ele>
        <time>2009-07-20T09:18:11Z</time>
      </trkpt>
      <trkpt lat="46.78238" lon="4.74453">
        <ele>215.9532471</ele>
        <time>2009-07-20T09:18:27Z</time>
      </trkpt>
      <trkpt lat="46.78259" lon="4.74472">
        <ele>215.4726563</ele>
        <time>2009-07-20T09:18:36Z</time>
      </trkpt>
      <trkpt lat="46.78242" lon="4.74515">
        <ele>214.0306396</ele>
        <time>2009-07-20T09:18:47Z</time>
      </trkpt>
      <trkpt lat="46.78232" lon="4.74536">
        <ele>214.5112305</ele>
        <time>2009-07-20T09:18:53Z</time>
      </trkpt>
      <trkpt lat="46.78211" lon="4.74597">
        <ele>213.0693359</ele>
        <time>2009-07-20T09:19:06Z</time>
      </trkpt>
      <trkpt lat="46.78185" lon="4.7468">
        <ele>212.1080322</ele>
        <time>2009-07-20T09:19:21Z</time>
      </trkpt>
      <trkpt lat="46.78168" lon="4.74722">
        <ele>210.6660156</ele>
        <time>2009-07-20T09:19:34Z</time>
      </trkpt>
      <trkpt lat="46.78167" lon="4.74731">
        <ele>210.6660156</ele>
        <time>2009-07-20T09:19:48Z</time>
      </trkpt>
      <trkpt lat="46.78172" lon="4.74725">
        <ele>211.6274414</ele>
        <time>2009-07-20T09:34:36Z</time>
      </trkpt>
      <trkpt lat="46.78172" lon="4.74727">
        <ele>211.6274414</ele>
        <time>2009-07-20T09:35:40Z</time>
      </trkpt>
      <trkpt lat="46.78172" lon="4.74735">
        <ele>211.6274414</ele>
        <time>2009-07-20T09:35:43Z</time>
      </trkpt>
      <trkpt lat="46.78173" lon="4.74742">
        <ele>211.6274414</ele>
        <time>2009-07-20T09:35:46Z</time>
      </trkpt>
      <trkpt lat="46.78175" lon="4.74753">
        <ele>211.1467285</ele>
        <time>2009-07-20T09:35:51Z</time>
      </trkpt>
      <trkpt lat="46.7817" lon="4.74773">
        <ele>211.1467285</ele>
        <time>2009-07-20T09:36:03Z</time>
      </trkpt>
      <trkpt lat="46.7817" lon="4.74775">
        <ele>210.6660156</ele>
        <time>2009-07-20T09:36:15Z</time>
      </trkpt>
      <trkpt lat="46.78161" lon="4.74828">
        <ele>208.7434082</ele>
        <time>2009-07-20T09:36:29Z</time>
      </trkpt>
      <trkpt lat="46.78148" lon="4.74898">
        <ele>207.3013916</ele>
        <time>2009-07-20T09:36:42Z</time>
      </trkpt>
      <trkpt lat="46.78131" lon="4.74893">
        <ele>206.8206787</ele>
        <time>2009-07-20T09:36:52Z</time>
      </trkpt>
      <trkpt lat="46.78119" lon="4.74894">
        <ele>206.8206787</ele>
        <time>2009-07-20T09:36:59Z</time>
      </trkpt>
      <trkpt lat="46.7811" lon="4.74896">
        <ele>206.8206787</ele>
        <time>2009-07-20T09:37:04Z</time>
      </trkpt>
      <trkpt lat="46.78104" lon="4.74913">
        <ele>206.8206787</ele>
        <time>2009-07-20T09:37:10Z</time>
      </trkpt>
      <trkpt lat="46.78096" lon="4.74936">
        <ele>206.8206787</ele>
        <time>2009-07-20T09:37:21Z</time>
      </trkpt>
      <trkpt lat="46.7809" lon="4.74936">
        <ele>205.8594971</ele>
        <time>2009-07-20T09:37:23Z</time>
      </trkpt>
      <trkpt lat="46.78043" lon="4.7491">
        <ele>205.8594971</ele>
        <time>2009-07-20T09:37:38Z</time>
      </trkpt>
      <trkpt lat="46.77989" lon="4.74879">
        <ele>205.8594971</ele>
        <time>2009-07-20T09:37:54Z</time>
      </trkpt>
      <trkpt lat="46.77926" lon="4.74843">
        <ele>204.8980713</ele>
        <time>2009-07-20T09:38:12Z</time>
      </trkpt>
      <trkpt lat="46.77856" lon="4.74805">
        <ele>204.8980713</ele>
        <time>2009-07-20T09:38:29Z</time>
      </trkpt>
      <trkpt lat="46.77792" lon="4.74768">
        <ele>205.8594971</ele>
        <time>2009-07-20T09:38:46Z</time>
      </trkpt>
      <trkpt lat="46.7778" lon="4.74763">
        <ele>205.8594971</ele>
        <time>2009-07-20T09:38:51Z</time>
      </trkpt>
      <trkpt lat="46.77775" lon="4.74757">
        <ele>206.3400879</ele>
        <time>2009-07-20T09:38:55Z</time>
      </trkpt>
      <trkpt lat="46.77762" lon="4.74753">
        <ele>206.3400879</ele>
        <time>2009-07-20T09:39:02Z</time>
      </trkpt>
      <trkpt lat="46.77751" lon="4.74744">
        <ele>206.3400879</ele>
        <time>2009-07-20T09:39:07Z</time>
      </trkpt>
      <trkpt lat="46.77692" lon="4.74711">
        <ele>205.8594971</ele>
        <time>2009-07-20T09:39:24Z</time>
      </trkpt>
      <trkpt lat="46.77619" lon="4.74671">
        <ele>206.3400879</ele>
        <time>2009-07-20T09:39:42Z</time>
      </trkpt>
      <trkpt lat="46.77558" lon="4.74634">
        <ele>206.8206787</ele>
        <time>2009-07-20T09:39:58Z</time>
      </trkpt>
      <trkpt lat="46.77486" lon="4.74592">
        <ele>207.3013916</ele>
        <time>2009-07-20T09:40:16Z</time>
      </trkpt>
      <trkpt lat="46.77411" lon="4.74552">
        <ele>207.7821045</ele>
        <time>2009-07-20T09:40:33Z</time>
      </trkpt>
      <trkpt lat="46.77344" lon="4.74514">
        <ele>207.7821045</ele>
        <time>2009-07-20T09:40:49Z</time>
      </trkpt>
      <trkpt lat="46.77245" lon="4.74459">
        <ele>208.7434082</ele>
        <time>2009-07-20T09:41:10Z</time>
      </trkpt>
      <trkpt lat="46.77166" lon="4.74413">
        <ele>209.2241211</ele>
        <time>2009-07-20T09:41:27Z</time>
      </trkpt>
      <trkpt lat="46.77087" lon="4.74369">
        <ele>209.2241211</ele>
        <time>2009-07-20T09:41:44Z</time>
      </trkpt>
      <trkpt lat="46.76997" lon="4.74318">
        <ele>210.6660156</ele>
        <time>2009-07-20T09:42:04Z</time>
      </trkpt>
      <trkpt lat="46.7694" lon="4.74285">
        <ele>212.1080322</ele>
        <time>2009-07-20T09:42:20Z</time>
      </trkpt>
      <trkpt lat="46.76898" lon="4.74262">
        <ele>212.1080322</ele>
        <time>2009-07-20T09:42:31Z</time>
      </trkpt>
      <trkpt lat="46.76855" lon="4.74239">
        <ele>212.588623</ele>
        <time>2009-07-20T09:42:42Z</time>
      </trkpt>
      <trkpt lat="46.76796" lon="4.74205">
        <ele>214.0306396</ele>
        <time>2009-07-20T09:42:57Z</time>
      </trkpt>
      <trkpt lat="46.7673" lon="4.74169">
        <ele>214.9919434</ele>
        <time>2009-07-20T09:43:13Z</time>
      </trkpt>
      <trkpt lat="46.76664" lon="4.74133">
        <ele>215.9532471</ele>
        <time>2009-07-20T09:43:29Z</time>
      </trkpt>
      <trkpt lat="46.76598" lon="4.74094">
        <ele>216.9146729</ele>
        <time>2009-07-20T09:43:46Z</time>
      </trkpt>
      <trkpt lat="46.76578" lon="4.74085">
        <ele>217.8759766</ele>
        <time>2009-07-20T09:43:53Z</time>
      </trkpt>
      <trkpt lat="46.7656" lon="4.74074">
        <ele>217.8759766</ele>
        <time>2009-07-20T09:44:05Z</time>
      </trkpt>
      <trkpt lat="46.76555" lon="4.7407">
        <ele>217.8759766</ele>
        <time>2009-07-20T09:44:08Z</time>
      </trkpt>
      <trkpt lat="46.76515" lon="4.74047">
        <ele>218.3565674</ele>
        <time>2009-07-20T09:44:24Z</time>
      </trkpt>
      <trkpt lat="46.76478" lon="4.74025">
        <ele>218.8372803</ele>
        <time>2009-07-20T09:44:37Z</time>
      </trkpt>
      <trkpt lat="46.76419" lon="4.73989">
        <ele>219.798584</ele>
        <time>2009-07-20T09:44:55Z</time>
      </trkpt>
      <trkpt lat="46.76375" lon="4.73956">
        <ele>220.2791748</ele>
        <time>2009-07-20T09:45:08Z</time>
      </trkpt>
      <trkpt lat="46.76331" lon="4.73919">
        <ele>220.2791748</ele>
        <time>2009-07-20T09:45:20Z</time>
      </trkpt>
      <trkpt lat="46.76293" lon="4.73882">
        <ele>220.7598877</ele>
        <time>2009-07-20T09:45:29Z</time>
      </trkpt>
      <trkpt lat="46.76232" lon="4.73815">
        <ele>220.7598877</ele>
        <time>2009-07-20T09:45:45Z</time>
      </trkpt>
      <trkpt lat="46.76172" lon="4.73742">
        <ele>220.7598877</ele>
        <time>2009-07-20T09:46:02Z</time>
      </trkpt>
      <trkpt lat="46.7611" lon="4.73662">
        <ele>220.7598877</ele>
        <time>2009-07-20T09:46:19Z</time>
      </trkpt>
      <trkpt lat="46.76057" lon="4.73594">
        <ele>220.2791748</ele>
        <time>2009-07-20T09:46:33Z</time>
      </trkpt>
      <trkpt lat="46.7598" lon="4.73498">
        <ele>220.7598877</ele>
        <time>2009-07-20T09:46:52Z</time>
      </trkpt>
      <trkpt lat="46.75947" lon="4.73458">
        <ele>219.3179932</ele>
        <time>2009-07-20T09:47:00Z</time>
      </trkpt>
      <trkpt lat="46.75897" lon="4.73437">
        <ele>219.3179932</ele>
        <time>2009-07-20T09:47:10Z</time>
      </trkpt>
      <trkpt lat="46.75868" lon="4.73394">
        <ele>217.8759766</ele>
        <time>2009-07-20T09:47:18Z</time>
      </trkpt>
      <trkpt lat="46.75854" lon="4.73341">
        <ele>217.8759766</ele>
        <time>2009-07-20T09:47:25Z</time>
      </trkpt>
      <trkpt lat="46.75798" lon="4.73269">
        <ele>217.3953857</ele>
        <time>2009-07-20T09:47:38Z</time>
      </trkpt>
      <trkpt lat="46.7572" lon="4.7317">
        <ele>215.9532471</ele>
        <time>2009-07-20T09:47:57Z</time>
      </trkpt>
      <trkpt lat="46.75638" lon="4.73068">
        <ele>214.5112305</ele>
        <time>2009-07-20T09:48:16Z</time>
      </trkpt>
      <trkpt lat="46.75621" lon="4.73046">
        <ele>214.5112305</ele>
        <time>2009-07-20T09:48:20Z</time>
      </trkpt>
      <trkpt lat="46.75542" lon="4.72945">
        <ele>213.5500488</ele>
        <time>2009-07-20T09:48:38Z</time>
      </trkpt>
      <trkpt lat="46.75483" lon="4.72869">
        <ele>213.0693359</ele>
        <time>2009-07-20T09:48:52Z</time>
      </trkpt>
      <trkpt lat="46.7543" lon="4.72805">
        <ele>213.5500488</ele>
        <time>2009-07-20T09:49:04Z</time>
      </trkpt>
      <trkpt lat="46.75385" lon="4.72748">
        <ele>213.5500488</ele>
        <time>2009-07-20T09:49:14Z</time>
      </trkpt>
      <trkpt lat="46.75339" lon="4.72692">
        <ele>212.1080322</ele>
        <time>2009-07-20T09:49:25Z</time>
      </trkpt>
      <trkpt lat="46.75325" lon="4.72675">
        <ele>213.5500488</ele>
        <time>2009-07-20T09:49:28Z</time>
      </trkpt>
      <trkpt lat="46.75309" lon="4.72655">
        <ele>213.5500488</ele>
        <time>2009-07-20T09:49:31Z</time>
      </trkpt>
      <trkpt lat="46.75243" lon="4.7259">
        <ele>214.0306396</ele>
        <time>2009-07-20T09:49:47Z</time>
      </trkpt>
      <trkpt lat="46.75239" lon="4.72586">
        <ele>214.5112305</ele>
        <time>2009-07-20T09:49:49Z</time>
      </trkpt>
      <trkpt lat="46.75225" lon="4.7257">
        <ele>214.5112305</ele>
        <time>2009-07-20T09:50:00Z</time>
      </trkpt>
      <trkpt lat="46.75221" lon="4.72568">
        <ele>214.0306396</ele>
        <time>2009-07-20T09:50:02Z</time>
      </trkpt>
      <trkpt lat="46.75174" lon="4.72538">
        <ele>213.5500488</ele>
        <time>2009-07-20T09:50:17Z</time>
      </trkpt>
      <trkpt lat="46.75129" lon="4.72511">
        <ele>214.5112305</ele>
        <time>2009-07-20T09:50:29Z</time>
      </trkpt>
      <trkpt lat="46.75063" lon="4.72472">
        <ele>214.0306396</ele>
        <time>2009-07-20T09:50:45Z</time>
      </trkpt>
      <trkpt lat="46.75039" lon="4.72458">
        <ele>214.5112305</ele>
        <time>2009-07-20T09:50:51Z</time>
      </trkpt>
      <trkpt lat="46.74983" lon="4.72422">
        <ele>214.0306396</ele>
        <time>2009-07-20T09:51:06Z</time>
      </trkpt>
      <trkpt lat="46.74936" lon="4.72396">
        <ele>214.5112305</ele>
        <time>2009-07-20T09:51:18Z</time>
      </trkpt>
      <trkpt lat="46.74884" lon="4.72372">
        <ele>214.0306396</ele>
        <time>2009-07-20T09:51:30Z</time>
      </trkpt>
      <trkpt lat="46.74815" lon="4.72354">
        <ele>214.5112305</ele>
        <time>2009-07-20T09:51:43Z</time>
      </trkpt>
      <trkpt lat="46.74727" lon="4.72337">
        <ele>213.5500488</ele>
        <time>2009-07-20T09:52:01Z</time>
      </trkpt>
      <trkpt lat="46.74656" lon="4.72325">
        <ele>213.5500488</ele>
        <time>2009-07-20T09:52:17Z</time>
      </trkpt>
      <trkpt lat="46.74564" lon="4.72309">
        <ele>212.1080322</ele>
        <time>2009-07-20T09:52:34Z</time>
      </trkpt>
      <trkpt lat="46.74474" lon="4.72293">
        <ele>211.6274414</ele>
        <time>2009-07-20T09:52:51Z</time>
      </trkpt>
      <trkpt lat="46.74383" lon="4.72279">
        <ele>210.6660156</ele>
        <time>2009-07-20T09:53:07Z</time>
      </trkpt>
      <trkpt lat="46.74293" lon="4.72262">
        <ele>210.1854248</ele>
        <time>2009-07-20T09:53:22Z</time>
      </trkpt>
      <trkpt lat="46.74194" lon="4.72244">
        <ele>210.1854248</ele>
        <time>2009-07-20T09:53:37Z</time>
      </trkpt>
      <trkpt lat="46.74105" lon="4.72228">
        <ele>209.704834</ele>
        <time>2009-07-20T09:53:54Z</time>
      </trkpt>
      <trkpt lat="46.73987" lon="4.72207">
        <ele>208.7434082</ele>
        <time>2009-07-20T09:54:15Z</time>
      </trkpt>
      <trkpt lat="46.73924" lon="4.72196">
        <ele>210.6660156</ele>
        <time>2009-07-20T09:54:29Z</time>
      </trkpt>
      <trkpt lat="46.73901" lon="4.72191">
        <ele>210.1854248</ele>
        <time>2009-07-20T09:54:39Z</time>
      </trkpt>
      <trkpt lat="46.73847" lon="4.72183">
        <ele>209.704834</ele>
        <time>2009-07-20T09:54:53Z</time>
      </trkpt>
      <trkpt lat="46.7379" lon="4.72173">
        <ele>209.704834</ele>
        <time>2009-07-20T09:55:06Z</time>
      </trkpt>
      <trkpt lat="46.73736" lon="4.72163">
        <ele>210.6660156</ele>
        <time>2009-07-20T09:55:18Z</time>
      </trkpt>
      <trkpt lat="46.7366" lon="4.7215">
        <ele>211.6274414</ele>
        <time>2009-07-20T09:55:35Z</time>
      </trkpt>
      <trkpt lat="46.73604" lon="4.72139">
        <ele>212.588623</ele>
        <time>2009-07-20T09:55:48Z</time>
      </trkpt>
      <trkpt lat="46.73595" lon="4.72137">
        <ele>212.588623</ele>
        <time>2009-07-20T09:55:50Z</time>
      </trkpt>
      <trkpt lat="46.73524" lon="4.72126">
        <ele>213.5500488</ele>
        <time>2009-07-20T09:56:05Z</time>
      </trkpt>
      <trkpt lat="46.73455" lon="4.72113">
        <ele>214.0306396</ele>
        <time>2009-07-20T09:56:20Z</time>
      </trkpt>
      <trkpt lat="46.7338" lon="4.72097">
        <ele>214.9919434</ele>
        <time>2009-07-20T09:56:36Z</time>
      </trkpt>
      <trkpt lat="46.73316" lon="4.72073">
        <ele>215.4726563</ele>
        <time>2009-07-20T09:56:51Z</time>
      </trkpt>
      <trkpt lat="46.7328" lon="4.72057">
        <ele>216.43396</ele>
        <time>2009-07-20T09:57:00Z</time>
      </trkpt>
      <trkpt lat="46.73276" lon="4.72054">
        <ele>216.43396</ele>
        <time>2009-07-20T09:57:01Z</time>
      </trkpt>
      <trkpt lat="46.73221" lon="4.72021">
        <ele>217.3953857</ele>
        <time>2009-07-20T09:57:14Z</time>
      </trkpt>
      <trkpt lat="46.73172" lon="4.7199">
        <ele>217.8759766</ele>
        <time>2009-07-20T09:57:27Z</time>
      </trkpt>
      <trkpt lat="46.73121" lon="4.7196">
        <ele>218.8372803</ele>
        <time>2009-07-20T09:57:38Z</time>
      </trkpt>
      <trkpt lat="46.73096" lon="4.71943">
        <ele>218.8372803</ele>
        <time>2009-07-20T09:57:43Z</time>
      </trkpt>
      <trkpt lat="46.73046" lon="4.71913">
        <ele>219.3179932</ele>
        <time>2009-07-20T09:57:54Z</time>
      </trkpt>
      <trkpt lat="46.73029" lon="4.71903">
        <ele>219.798584</ele>
        <time>2009-07-20T09:57:58Z</time>
      </trkpt>
      <trkpt lat="46.7301" lon="4.71892">
        <ele>219.798584</ele>
        <time>2009-07-20T09:58:02Z</time>
      </trkpt>
      <trkpt lat="46.72986" lon="4.71879">
        <ele>220.2791748</ele>
        <time>2009-07-20T09:58:07Z</time>
      </trkpt>
      <trkpt lat="46.72915" lon="4.71829">
        <ele>221.2406006</ele>
        <time>2009-07-20T09:58:22Z</time>
      </trkpt>
      <trkpt lat="46.72869" lon="4.718">
        <ele>220.7598877</ele>
        <time>2009-07-20T09:58:33Z</time>
      </trkpt>
      <trkpt lat="46.72813" lon="4.71764">
        <ele>222.2017822</ele>
        <time>2009-07-20T09:58:46Z</time>
      </trkpt>
      <trkpt lat="46.72756" lon="4.71727">
        <ele>223.163208</ele>
        <time>2009-07-20T09:58:59Z</time>
      </trkpt>
      <trkpt lat="46.72688" lon="4.71686">
        <ele>223.163208</ele>
        <time>2009-07-20T09:59:13Z</time>
      </trkpt>
      <trkpt lat="46.7267" lon="4.71675">
        <ele>223.163208</ele>
        <time>2009-07-20T09:59:17Z</time>
      </trkpt>
      <trkpt lat="46.72603" lon="4.71632">
        <ele>224.1245117</ele>
        <time>2009-07-20T09:59:32Z</time>
      </trkpt>
      <trkpt lat="46.72549" lon="4.7159">
        <ele>224.6052246</ele>
        <time>2009-07-20T09:59:45Z</time>
      </trkpt>
      <trkpt lat="46.7249" lon="4.7153">
        <ele>225.5665283</ele>
        <time>2009-07-20T10:00:00Z</time>
      </trkpt>
      <trkpt lat="46.72475" lon="4.71514">
        <ele>226.0471191</ele>
        <time>2009-07-20T10:00:04Z</time>
      </trkpt>
      <trkpt lat="46.72437" lon="4.71475">
        <ele>226.527832</ele>
        <time>2009-07-20T10:00:15Z</time>
      </trkpt>
      <trkpt lat="46.72394" lon="4.7143">
        <ele>227.4891357</ele>
        <time>2009-07-20T10:00:27Z</time>
      </trkpt>
      <trkpt lat="46.72353" lon="4.71391">
        <ele>227.9697266</ele>
        <time>2009-07-20T10:00:38Z</time>
      </trkpt>
      <trkpt lat="46.72315" lon="4.71358">
        <ele>228.9311523</ele>
        <time>2009-07-20T10:00:49Z</time>
      </trkpt>
      <trkpt lat="46.72278" lon="4.71318">
        <ele>228.9311523</ele>
        <time>2009-07-20T10:00:59Z</time>
      </trkpt>
      <trkpt lat="46.72245" lon="4.71279">
        <ele>229.892334</ele>
        <time>2009-07-20T10:01:10Z</time>
      </trkpt>
      <trkpt lat="46.72226" lon="4.71257">
        <ele>230.3730469</ele>
        <time>2009-07-20T10:01:16Z</time>
      </trkpt>
      <trkpt lat="46.72206" lon="4.71238">
        <ele>230.3730469</ele>
        <time>2009-07-20T10:01:21Z</time>
      </trkpt>
      <trkpt lat="46.72143" lon="4.71171">
        <ele>231.8149414</ele>
        <time>2009-07-20T10:01:40Z</time>
      </trkpt>
      <trkpt lat="46.72089" lon="4.71116">
        <ele>232.2957764</ele>
        <time>2009-07-20T10:01:57Z</time>
      </trkpt>
      <trkpt lat="46.72043" lon="4.71066">
        <ele>233.2570801</ele>
        <time>2009-07-20T10:02:12Z</time>
      </trkpt>
      <trkpt lat="46.71994" lon="4.71016">
        <ele>234.6990967</ele>
        <time>2009-07-20T10:02:27Z</time>
      </trkpt>
      <trkpt lat="46.71932" lon="4.70949">
        <ele>235.1796875</ele>
        <time>2009-07-20T10:02:46Z</time>
      </trkpt>
      <trkpt lat="46.71874" lon="4.70889">
        <ele>236.1409912</ele>
        <time>2009-07-20T10:03:03Z</time>
      </trkpt>
      <trkpt lat="46.71817" lon="4.7083">
        <ele>234.6990967</ele>
        <time>2009-07-20T10:03:18Z</time>
      </trkpt>
      <trkpt lat="46.71748" lon="4.70758">
        <ele>235.6602783</ele>
        <time>2009-07-20T10:03:37Z</time>
      </trkpt>
      <trkpt lat="46.7168" lon="4.70689">
        <ele>236.1409912</ele>
        <time>2009-07-20T10:03:55Z</time>
      </trkpt>
      <trkpt lat="46.71628" lon="4.70638">
        <ele>235.6602783</ele>
        <time>2009-07-20T10:04:08Z</time>
      </trkpt>
      <trkpt lat="46.71568" lon="4.70577">
        <ele>235.6602783</ele>
        <time>2009-07-20T10:04:23Z</time>
      </trkpt>
      <trkpt lat="46.71498" lon="4.70505">
        <ele>236.6217041</ele>
        <time>2009-07-20T10:04:41Z</time>
      </trkpt>
      <trkpt lat="46.71444" lon="4.70448">
        <ele>237.1022949</ele>
        <time>2009-07-20T10:04:57Z</time>
      </trkpt>
      <trkpt lat="46.71401" lon="4.70404">
        <ele>236.1409912</ele>
        <time>2009-07-20T10:05:12Z</time>
      </trkpt>
      <trkpt lat="46.71383" lon="4.70381">
        <ele>237.1022949</ele>
        <time>2009-07-20T10:05:22Z</time>
      </trkpt>
      <trkpt lat="46.71364" lon="4.70341">
        <ele>236.6217041</ele>
        <time>2009-07-20T10:05:36Z</time>
      </trkpt>
      <trkpt lat="46.71355" lon="4.70312">
        <ele>238.0635986</ele>
        <time>2009-07-20T10:05:46Z</time>
      </trkpt>
      <trkpt lat="46.71354" lon="4.7031">
        <ele>238.0635986</ele>
        <time>2009-07-20T10:05:47Z</time>
      </trkpt>
      <trkpt lat="46.71354" lon="4.70282">
        <ele>238.0635986</ele>
        <time>2009-07-20T10:06:02Z</time>
      </trkpt>
      <trkpt lat="46.71353" lon="4.70288">
        <ele>238.5443115</ele>
        <time>2009-07-20T10:06:27Z</time>
      </trkpt>
      <trkpt lat="46.71356" lon="4.70327">
        <ele>238.0635986</ele>
        <time>2009-07-20T10:06:41Z</time>
      </trkpt>
      <trkpt lat="46.71359" lon="4.70334">
        <ele>237.5828857</ele>
        <time>2009-07-20T10:06:53Z</time>
      </trkpt>
      <trkpt lat="46.71356" lon="4.70327">
        <ele>238.0635986</ele>
        <time>2009-07-20T10:07:08Z</time>
      </trkpt>
      <trkpt lat="46.71358" lon="4.70321">
        <ele>238.0635986</ele>
        <time>2009-07-20T10:07:19Z</time>
      </trkpt>
      <trkpt lat="46.71353" lon="4.70282">
        <ele>238.0635986</ele>
        <time>2009-07-20T10:07:32Z</time>
      </trkpt>
      <trkpt lat="46.7135" lon="4.70276">
        <ele>237.5828857</ele>
        <time>2009-07-20T10:07:34Z</time>
      </trkpt>
      <trkpt lat="46.71324" lon="4.7025">
        <ele>237.5828857</ele>
        <time>2009-07-20T10:07:44Z</time>
      </trkpt>
      <trkpt lat="46.7132" lon="4.70191">
        <ele>239.0249023</ele>
        <time>2009-07-20T10:07:57Z</time>
      </trkpt>
      <trkpt lat="46.7132" lon="4.70137">
        <ele>239.9862061</ele>
        <time>2009-07-20T10:08:07Z</time>
      </trkpt>
      <trkpt lat="46.7132" lon="4.70053">
        <ele>239.5054932</ele>
        <time>2009-07-20T10:08:21Z</time>
      </trkpt>
      <trkpt lat="46.71319" lon="4.70019">
        <ele>239.0249023</ele>
        <time>2009-07-20T10:08:26Z</time>
      </trkpt>
      <trkpt lat="46.71318" lon="4.69901">
        <ele>238.0635986</ele>
        <time>2009-07-20T10:08:42Z</time>
      </trkpt>
      <trkpt lat="46.71318" lon="4.69896">
        <ele>238.0635986</ele>
        <time>2009-07-20T10:08:43Z</time>
      </trkpt>
      <trkpt lat="46.71316" lon="4.69874">
        <ele>237.5828857</ele>
        <time>2009-07-20T10:08:46Z</time>
      </trkpt>
      <trkpt lat="46.71316" lon="4.69761">
        <ele>237.1022949</ele>
        <time>2009-07-20T10:09:00Z</time>
      </trkpt>
      <trkpt lat="46.71314" lon="4.69703">
        <ele>239.0249023</ele>
        <time>2009-07-20T10:09:09Z</time>
      </trkpt>
      <trkpt lat="46.7131" lon="4.69632">
        <ele>241.9089355</ele>
        <time>2009-07-20T10:09:22Z</time>
      </trkpt>
      <trkpt lat="46.71292" lon="4.69565">
        <ele>243.831543</ele>
        <time>2009-07-20T10:09:35Z</time>
      </trkpt>
      <trkpt lat="46.71289" lon="4.69562">
        <ele>243.831543</ele>
        <time>2009-07-20T10:09:36Z</time>
      </trkpt>
      <trkpt lat="46.71289" lon="4.69526">
        <ele>245.2734375</ele>
        <time>2009-07-20T10:09:43Z</time>
      </trkpt>
      <trkpt lat="46.7128" lon="4.6947">
        <ele>247.1960449</ele>
        <time>2009-07-20T10:09:55Z</time>
      </trkpt>
      <trkpt lat="46.71278" lon="4.69444">
        <ele>248.6381836</ele>
        <time>2009-07-20T10:10:08Z</time>
      </trkpt>
      <trkpt lat="46.71276" lon="4.69432">
        <ele>249.1187744</ele>
        <time>2009-07-20T10:10:41Z</time>
      </trkpt>
      <trkpt lat="46.71274" lon="4.69419">
        <ele>249.5994873</ele>
        <time>2009-07-20T10:10:48Z</time>
      </trkpt>
      <trkpt lat="46.71279" lon="4.69417">
        <ele>250.0802002</ele>
        <time>2009-07-20T10:10:53Z</time>
      </trkpt>
      <trkpt lat="46.71284" lon="4.69415">
        <ele>250.560791</ele>
        <time>2009-07-20T10:10:57Z</time>
      </trkpt>
      <trkpt lat="46.71309" lon="4.69412">
        <ele>252.4833984</ele>
        <time>2009-07-20T10:11:09Z</time>
      </trkpt>
      <trkpt lat="46.71334" lon="4.69418">
        <ele>254.8865967</ele>
        <time>2009-07-20T10:11:21Z</time>
      </trkpt>
      <trkpt lat="46.71335" lon="4.69423">
        <ele>255.3673096</ele>
        <time>2009-07-20T10:11:44Z</time>
      </trkpt>
      <trkpt lat="46.71331" lon="4.69422">
        <ele>255.3673096</ele>
        <time>2009-07-20T10:11:55Z</time>
      </trkpt>
      <trkpt lat="46.71335" lon="4.69423">
        <ele>257.2900391</ele>
        <time>2009-07-20T10:13:27Z</time>
      </trkpt>
      <trkpt lat="46.71341" lon="4.69424">
        <ele>257.2900391</ele>
        <time>2009-07-20T10:13:30Z</time>
      </trkpt>
      <trkpt lat="46.71368" lon="4.69443">
        <ele>258.7319336</ele>
        <time>2009-07-20T10:13:45Z</time>
      </trkpt>
      <trkpt lat="46.71386" lon="4.69461">
        <ele>259.6933594</ele>
        <time>2009-07-20T10:13:57Z</time>
      </trkpt>
      <trkpt lat="46.71407" lon="4.6949">
        <ele>260.654541</ele>
        <time>2009-07-20T10:14:11Z</time>
      </trkpt>
      <trkpt lat="46.71415" lon="4.69534">
        <ele>261.6159668</ele>
        <time>2009-07-20T10:14:25Z</time>
      </trkpt>
      <trkpt lat="46.71409" lon="4.69569">
        <ele>261.6159668</ele>
        <time>2009-07-20T10:14:38Z</time>
      </trkpt>
      <trkpt lat="46.71409" lon="4.69571">
        <ele>261.6159668</ele>
        <time>2009-07-20T10:14:39Z</time>
      </trkpt>
      <trkpt lat="46.71391" lon="4.69579">
        <ele>261.6159668</ele>
        <time>2009-07-20T10:14:48Z</time>
      </trkpt>
      <trkpt lat="46.7137" lon="4.6957">
        <ele>260.654541</ele>
        <time>2009-07-20T10:14:59Z</time>
      </trkpt>
      <trkpt lat="46.7136" lon="4.69566">
        <ele>260.1739502</ele>
        <time>2009-07-20T10:15:11Z</time>
      </trkpt>
      <trkpt lat="46.71347" lon="4.69558">
        <ele>259.2126465</ele>
        <time>2009-07-20T10:15:40Z</time>
      </trkpt>
      <trkpt lat="46.71342" lon="4.69546">
        <ele>257.2900391</ele>
        <time>2009-07-20T10:15:58Z</time>
      </trkpt>
      <trkpt lat="46.71318" lon="4.69522">
        <ele>255.8480225</ele>
        <time>2009-07-20T10:16:09Z</time>
      </trkpt>
      <trkpt lat="46.71316" lon="4.69519">
        <ele>255.8480225</ele>
        <time>2009-07-20T10:16:12Z</time>
      </trkpt>
      <trkpt lat="46.71298" lon="4.69494">
        <ele>252.9639893</ele>
        <time>2009-07-20T10:16:24Z</time>
      </trkpt>
      <trkpt lat="46.71293" lon="4.69489">
        <ele>252.4833984</ele>
        <time>2009-07-20T10:16:27Z</time>
      </trkpt>
      <trkpt lat="46.7128" lon="4.69458">
        <ele>250.560791</ele>
        <time>2009-07-20T10:16:38Z</time>
      </trkpt>
      <trkpt lat="46.71258" lon="4.69451">
        <ele>250.0802002</ele>
        <time>2009-07-20T10:17:02Z</time>
      </trkpt>
      <trkpt lat="46.71225" lon="4.69467">
        <ele>248.6381836</ele>
        <time>2009-07-20T10:17:13Z</time>
      </trkpt>
      <trkpt lat="46.71219" lon="4.69473">
        <ele>248.6381836</ele>
        <time>2009-07-20T10:17:15Z</time>
      </trkpt>
      <trkpt lat="46.71192" lon="4.69482">
        <ele>247.6767578</ele>
        <time>2009-07-20T10:17:21Z</time>
      </trkpt>
      <trkpt lat="46.71165" lon="4.69473">
        <ele>248.1575928</ele>
        <time>2009-07-20T10:17:27Z</time>
      </trkpt>
      <trkpt lat="46.71154" lon="4.6947">
        <ele>247.6767578</ele>
        <time>2009-07-20T10:17:30Z</time>
      </trkpt>
      <trkpt lat="46.71146" lon="4.69463">
        <ele>247.1960449</ele>
        <time>2009-07-20T10:17:32Z</time>
      </trkpt>
      <trkpt lat="46.711" lon="4.69442">
        <ele>246.2348633</ele>
        <time>2009-07-20T10:17:44Z</time>
      </trkpt>
      <trkpt lat="46.71094" lon="4.69445">
        <ele>245.7541504</ele>
        <time>2009-07-20T10:17:46Z</time>
      </trkpt>
      <trkpt lat="46.71084" lon="4.69461">
        <ele>245.2734375</ele>
        <time>2009-07-20T10:17:50Z</time>
      </trkpt>
      <trkpt lat="46.71055" lon="4.69482">
        <ele>244.3122559</ele>
        <time>2009-07-20T10:17:57Z</time>
      </trkpt>
      <trkpt lat="46.71025" lon="4.69479">
        <ele>244.7928467</ele>
        <time>2009-07-20T10:18:04Z</time>
      </trkpt>
      <trkpt lat="46.70995" lon="4.6949">
        <ele>244.7928467</ele>
        <time>2009-07-20T10:18:11Z</time>
      </trkpt>
      <trkpt lat="46.70947" lon="4.69533">
        <ele>246.2348633</ele>
        <time>2009-07-20T10:18:26Z</time>
      </trkpt>
      <trkpt lat="46.70924" lon="4.69556">
        <ele>246.7154541</ele>
        <time>2009-07-20T10:18:34Z</time>
      </trkpt>
      <trkpt lat="46.70917" lon="4.69557">
        <ele>247.6767578</ele>
        <time>2009-07-20T10:18:37Z</time>
      </trkpt>
      <trkpt lat="46.70935" lon="4.69556">
        <ele>246.2348633</ele>
        <time>2009-07-20T10:18:45Z</time>
      </trkpt>
      <trkpt lat="46.70981" lon="4.69509">
        <ele>244.3122559</ele>
        <time>2009-07-20T10:18:57Z</time>
      </trkpt>
      <trkpt lat="46.71011" lon="4.6949">
        <ele>244.7928467</ele>
        <time>2009-07-20T10:19:04Z</time>
      </trkpt>
      <trkpt lat="46.71061" lon="4.69491">
        <ele>245.2734375</ele>
        <time>2009-07-20T10:19:16Z</time>
      </trkpt>
      <trkpt lat="46.71074" lon="4.69485">
        <ele>245.2734375</ele>
        <time>2009-07-20T10:19:19Z</time>
      </trkpt>
      <trkpt lat="46.71084" lon="4.69469">
        <ele>245.2734375</ele>
        <time>2009-07-20T10:19:24Z</time>
      </trkpt>
      <trkpt lat="46.71093" lon="4.69463">
        <ele>246.2348633</ele>
        <time>2009-07-20T10:19:37Z</time>
      </trkpt>
      <trkpt lat="46.71095" lon="4.69461">
        <ele>245.7541504</ele>
        <time>2009-07-20T10:20:01Z</time>
      </trkpt>
      <trkpt lat="46.71095" lon="4.69457">
        <ele>246.2348633</ele>
        <time>2009-07-20T10:20:20Z</time>
      </trkpt>
      <trkpt lat="46.71096" lon="4.69455">
        <ele>246.2348633</ele>
        <time>2009-07-20T10:21:10Z</time>
      </trkpt>
      <trkpt lat="46.71103" lon="4.69448">
        <ele>246.7154541</ele>
        <time>2009-07-20T10:21:15Z</time>
      </trkpt>
      <trkpt lat="46.71114" lon="4.69447">
        <ele>246.7154541</ele>
        <time>2009-07-20T10:21:22Z</time>
      </trkpt>
      <trkpt lat="46.7113" lon="4.69452">
        <ele>247.1960449</ele>
        <time>2009-07-20T10:21:30Z</time>
      </trkpt>
      <trkpt lat="46.71141" lon="4.6946">
        <ele>247.6767578</ele>
        <time>2009-07-20T10:21:34Z</time>
      </trkpt>
      <trkpt lat="46.71174" lon="4.69476">
        <ele>249.1187744</ele>
        <time>2009-07-20T10:21:45Z</time>
      </trkpt>
      <trkpt lat="46.71204" lon="4.6948">
        <ele>249.1187744</ele>
        <time>2009-07-20T10:21:57Z</time>
      </trkpt>
      <trkpt lat="46.71218" lon="4.69473">
        <ele>249.1187744</ele>
        <time>2009-07-20T10:22:10Z</time>
      </trkpt>
      <trkpt lat="46.71257" lon="4.69454">
        <ele>250.560791</ele>
        <time>2009-07-20T10:22:23Z</time>
      </trkpt>
      <trkpt lat="46.71269" lon="4.69448">
        <ele>251.0413818</ele>
        <time>2009-07-20T10:22:27Z</time>
      </trkpt>
      <trkpt lat="46.71274" lon="4.69415">
        <ele>252.9639893</ele>
        <time>2009-07-20T10:22:35Z</time>
      </trkpt>
      <trkpt lat="46.71281" lon="4.69409">
        <ele>252.9639893</ele>
        <time>2009-07-20T10:22:39Z</time>
      </trkpt>
      <trkpt lat="46.71311" lon="4.69408">
        <ele>255.3673096</ele>
        <time>2009-07-20T10:22:48Z</time>
      </trkpt>
      <trkpt lat="46.7134" lon="4.69424">
        <ele>258.2513428</ele>
        <time>2009-07-20T10:23:00Z</time>
      </trkpt>
      <trkpt lat="46.71333" lon="4.69425">
        <ele>257.2900391</ele>
        <time>2009-07-20T10:23:36Z</time>
      </trkpt>
      <trkpt lat="46.7133" lon="4.69429">
        <ele>257.2900391</ele>
        <time>2009-07-20T10:23:48Z</time>
      </trkpt>
      <trkpt lat="46.71325" lon="4.69427">
        <ele>260.654541</ele>
        <time>2009-07-20T10:31:06Z</time>
      </trkpt>
      <trkpt lat="46.71322" lon="4.69434">
        <ele>263.0578613</ele>
        <time>2009-07-20T10:34:06Z</time>
      </trkpt>
      <trkpt lat="46.71316" lon="4.69408">
        <ele>264.0192871</ele>
        <time>2009-07-20T10:35:10Z</time>
      </trkpt>
      <trkpt lat="46.7132" lon="4.69424">
        <ele>264.4998779</ele>
        <time>2009-07-20T10:35:52Z</time>
      </trkpt>
      <trkpt lat="46.71324" lon="4.69423">
        <ele>267.3839111</ele>
        <time>2009-07-20T11:08:43Z</time>
      </trkpt>
      <trkpt lat="46.71329" lon="4.69426">
        <ele>266.4224854</ele>
        <time>2009-07-20T11:22:00Z</time>
      </trkpt>
      <trkpt lat="46.71321" lon="4.69414">
        <ele>265.4613037</ele>
        <time>2009-07-20T11:22:45Z</time>
      </trkpt>
      <trkpt lat="46.71281" lon="4.69407">
        <ele>262.5771484</ele>
        <time>2009-07-20T11:22:57Z</time>
      </trkpt>
      <trkpt lat="46.71267" lon="4.69413">
        <ele>261.6159668</ele>
        <time>2009-07-20T11:23:05Z</time>
      </trkpt>
      <trkpt lat="46.7127" lon="4.69429">
        <ele>260.654541</ele>
        <time>2009-07-20T11:23:11Z</time>
      </trkpt>
      <trkpt lat="46.7127" lon="4.69437">
        <ele>260.654541</ele>
        <time>2009-07-20T11:23:13Z</time>
      </trkpt>
      <trkpt lat="46.71268" lon="4.69453">
        <ele>260.1739502</ele>
        <time>2009-07-20T11:23:18Z</time>
      </trkpt>
      <trkpt lat="46.71282" lon="4.69507">
        <ele>258.2513428</ele>
        <time>2009-07-20T11:23:27Z</time>
      </trkpt>
      <trkpt lat="46.71289" lon="4.69553">
        <ele>255.8480225</ele>
        <time>2009-07-20T11:23:32Z</time>
      </trkpt>
      <trkpt lat="46.71291" lon="4.69563">
        <ele>255.3673096</ele>
        <time>2009-07-20T11:23:33Z</time>
      </trkpt>
      <trkpt lat="46.71294" lon="4.69597">
        <ele>253.925415</ele>
        <time>2009-07-20T11:23:36Z</time>
      </trkpt>
      <trkpt lat="46.713" lon="4.69618">
        <ele>252.9639893</ele>
        <time>2009-07-20T11:23:38Z</time>
      </trkpt>
      <trkpt lat="46.71305" lon="4.69716">
        <ele>249.1187744</ele>
        <time>2009-07-20T11:23:46Z</time>
      </trkpt>
      <trkpt lat="46.71306" lon="4.69729">
        <ele>249.1187744</ele>
        <time>2009-07-20T11:23:47Z</time>
      </trkpt>
      <trkpt lat="46.71308" lon="4.69779">
        <ele>248.1575928</ele>
        <time>2009-07-20T11:23:51Z</time>
      </trkpt>
      <trkpt lat="46.7131" lon="4.69909">
        <ele>249.1187744</ele>
        <time>2009-07-20T11:24:03Z</time>
      </trkpt>
      <trkpt lat="46.7131" lon="4.69955">
        <ele>250.0802002</ele>
        <time>2009-07-20T11:24:09Z</time>
      </trkpt>
      <trkpt lat="46.71311" lon="4.70093">
        <ele>251.5220947</ele>
        <time>2009-07-20T11:24:28Z</time>
      </trkpt>
      <trkpt lat="46.71313" lon="4.70211">
        <ele>250.0802002</ele>
        <time>2009-07-20T11:24:44Z</time>
      </trkpt>
      <trkpt lat="46.71309" lon="4.70282">
        <ele>249.5994873</ele>
        <time>2009-07-20T11:24:56Z</time>
      </trkpt>
      <trkpt lat="46.71294" lon="4.70286">
        <ele>249.1187744</ele>
        <time>2009-07-20T11:25:06Z</time>
      </trkpt>
      <trkpt lat="46.71292" lon="4.70292">
        <ele>249.1187744</ele>
        <time>2009-07-20T11:25:09Z</time>
      </trkpt>
      <trkpt lat="46.71286" lon="4.70305">
        <ele>249.5994873</ele>
        <time>2009-07-20T11:25:17Z</time>
      </trkpt>
      <trkpt lat="46.71274" lon="4.70297">
        <ele>249.1187744</ele>
        <time>2009-07-20T11:25:28Z</time>
      </trkpt>
      <trkpt lat="46.71269" lon="4.70294">
        <ele>248.1575928</ele>
        <time>2009-07-20T11:25:35Z</time>
      </trkpt>
      <trkpt lat="46.71261" lon="4.70287">
        <ele>247.1960449</ele>
        <time>2009-07-20T11:25:43Z</time>
      </trkpt>
      <trkpt lat="46.71253" lon="4.70289">
        <ele>246.2348633</ele>
        <time>2009-07-20T11:25:48Z</time>
      </trkpt>
      <trkpt lat="46.71249" lon="4.70267">
        <ele>245.2734375</ele>
        <time>2009-07-20T11:25:55Z</time>
      </trkpt>
      <trkpt lat="46.71247" lon="4.70265">
        <ele>245.2734375</ele>
        <time>2009-07-20T11:25:56Z</time>
      </trkpt>
      <trkpt lat="46.71222" lon="4.70239">
        <ele>245.7541504</ele>
        <time>2009-07-20T11:26:12Z</time>
      </trkpt>
      <trkpt lat="46.71208" lon="4.70219">
        <ele>245.7541504</ele>
        <time>2009-07-20T11:26:25Z</time>
      </trkpt>
      <trkpt lat="46.71182" lon="4.70198">
        <ele>245.2734375</ele>
        <time>2009-07-20T11:26:39Z</time>
      </trkpt>
      <trkpt lat="46.71135" lon="4.70176">
        <ele>244.3122559</ele>
        <time>2009-07-20T11:26:55Z</time>
      </trkpt>
      <trkpt lat="46.71089" lon="4.70163">
        <ele>243.831543</ele>
        <time>2009-07-20T11:27:09Z</time>
      </trkpt>
      <trkpt lat="46.71039" lon="4.70157">
        <ele>242.8702393</ele>
        <time>2009-07-20T11:27:24Z</time>
      </trkpt>
      <trkpt lat="46.70978" lon="4.70159">
        <ele>241.9089355</ele>
        <time>2009-07-20T11:27:40Z</time>
      </trkpt>
      <trkpt lat="46.70925" lon="4.70173">
        <ele>241.9089355</ele>
        <time>2009-07-20T11:27:53Z</time>
      </trkpt>
      <trkpt lat="46.70878" lon="4.70195">
        <ele>240.467041</ele>
        <time>2009-07-20T11:28:06Z</time>
      </trkpt>
      <trkpt lat="46.70827" lon="4.70218">
        <ele>239.9862061</ele>
        <time>2009-07-20T11:28:19Z</time>
      </trkpt>
      <trkpt lat="46.70767" lon="4.70248">
        <ele>239.0249023</ele>
        <time>2009-07-20T11:28:34Z</time>
      </trkpt>
      <trkpt lat="46.70733" lon="4.70262">
        <ele>238.5443115</ele>
        <time>2009-07-20T11:28:42Z</time>
      </trkpt>
      <trkpt lat="46.70705" lon="4.70278">
        <ele>238.0635986</ele>
        <time>2009-07-20T11:28:49Z</time>
      </trkpt>
      <trkpt lat="46.70687" lon="4.70286">
        <ele>238.5443115</ele>
        <time>2009-07-20T11:28:53Z</time>
      </trkpt>
      <trkpt lat="46.70674" lon="4.70292">
        <ele>238.0635986</ele>
        <time>2009-07-20T11:28:56Z</time>
      </trkpt>
      <trkpt lat="46.70606" lon="4.70323">
        <ele>236.6217041</ele>
        <time>2009-07-20T11:29:10Z</time>
      </trkpt>
      <trkpt lat="46.70572" lon="4.7034">
        <ele>236.1409912</ele>
        <time>2009-07-20T11:29:17Z</time>
      </trkpt>
      <trkpt lat="46.70496" lon="4.70377">
        <ele>235.6602783</ele>
        <time>2009-07-20T11:29:34Z</time>
      </trkpt>
      <trkpt lat="46.70412" lon="4.70418">
        <ele>234.6990967</ele>
        <time>2009-07-20T11:29:51Z</time>
      </trkpt>
      <trkpt lat="46.70369" lon="4.70439">
        <ele>234.2183838</ele>
        <time>2009-07-20T11:30:02Z</time>
      </trkpt>
      <trkpt lat="46.70311" lon="4.70468">
        <ele>233.7376709</ele>
        <time>2009-07-20T11:30:14Z</time>
      </trkpt>
      <trkpt lat="46.70269" lon="4.70487">
        <ele>233.7376709</ele>
        <time>2009-07-20T11:30:24Z</time>
      </trkpt>
      <trkpt lat="46.70246" lon="4.70498">
        <ele>233.2570801</ele>
        <time>2009-07-20T11:30:29Z</time>
      </trkpt>
      <trkpt lat="46.70191" lon="4.70525">
        <ele>232.7764893</ele>
        <time>2009-07-20T11:30:45Z</time>
      </trkpt>
      <trkpt lat="46.70181" lon="4.70532">
        <ele>233.7376709</ele>
        <time>2009-07-20T11:30:50Z</time>
      </trkpt>
      <trkpt lat="46.70162" lon="4.70541">
        <ele>233.2570801</ele>
        <time>2009-07-20T11:31:01Z</time>
      </trkpt>
      <trkpt lat="46.70148" lon="4.70545">
        <ele>233.2570801</ele>
        <time>2009-07-20T11:31:07Z</time>
      </trkpt>
      <trkpt lat="46.70094" lon="4.70572">
        <ele>233.2570801</ele>
        <time>2009-07-20T11:31:25Z</time>
      </trkpt>
      <trkpt lat="46.70056" lon="4.70592">
        <ele>233.2570801</ele>
        <time>2009-07-20T11:31:37Z</time>
      </trkpt>
      <trkpt lat="46.70026" lon="4.70608">
        <ele>234.2183838</ele>
        <time>2009-07-20T11:31:48Z</time>
      </trkpt>
      <trkpt lat="46.70024" lon="4.7061">
        <ele>234.2183838</ele>
        <time>2009-07-20T11:31:49Z</time>
      </trkpt>
      <trkpt lat="46.69997" lon="4.70624">
        <ele>235.1796875</ele>
        <time>2009-07-20T11:31:58Z</time>
      </trkpt>
      <trkpt lat="46.69994" lon="4.70625">
        <ele>235.1796875</ele>
        <time>2009-07-20T11:31:59Z</time>
      </trkpt>
      <trkpt lat="46.69946" lon="4.7064">
        <ele>235.6602783</ele>
        <time>2009-07-20T11:32:13Z</time>
      </trkpt>
      <trkpt lat="46.699" lon="4.70645">
        <ele>236.6217041</ele>
        <time>2009-07-20T11:32:25Z</time>
      </trkpt>
      <trkpt lat="46.6984" lon="4.70651">
        <ele>237.1022949</ele>
        <time>2009-07-20T11:32:39Z</time>
      </trkpt>
      <trkpt lat="46.69783" lon="4.70649">
        <ele>237.5828857</ele>
        <time>2009-07-20T11:32:54Z</time>
      </trkpt>
      <trkpt lat="46.69709" lon="4.70635">
        <ele>236.6217041</ele>
        <time>2009-07-20T11:33:11Z</time>
      </trkpt>
      <trkpt lat="46.69673" lon="4.70627">
        <ele>236.6217041</ele>
        <time>2009-07-20T11:33:19Z</time>
      </trkpt>
      <trkpt lat="46.69595" lon="4.70607">
        <ele>235.1796875</ele>
        <time>2009-07-20T11:33:36Z</time>
      </trkpt>
      <trkpt lat="46.69518" lon="4.70589">
        <ele>235.1796875</ele>
        <time>2009-07-20T11:33:54Z</time>
      </trkpt>
      <trkpt lat="46.69492" lon="4.70582">
        <ele>235.1796875</ele>
        <time>2009-07-20T11:34:04Z</time>
      </trkpt>
      <trkpt lat="46.69477" lon="4.7058">
        <ele>234.6990967</ele>
        <time>2009-07-20T11:34:11Z</time>
      </trkpt>
      <trkpt lat="46.69443" lon="4.7057">
        <ele>234.2183838</ele>
        <time>2009-07-20T11:34:22Z</time>
      </trkpt>
      <trkpt lat="46.69363" lon="4.70549">
        <ele>233.2570801</ele>
        <time>2009-07-20T11:34:39Z</time>
      </trkpt>
      <trkpt lat="46.69268" lon="4.70525">
        <ele>232.2957764</ele>
        <time>2009-07-20T11:34:58Z</time>
      </trkpt>
      <trkpt lat="46.69182" lon="4.70504">
        <ele>232.7764893</ele>
        <time>2009-07-20T11:35:15Z</time>
      </trkpt>
      <trkpt lat="46.69092" lon="4.70482">
        <ele>233.2570801</ele>
        <time>2009-07-20T11:35:34Z</time>
      </trkpt>
      <trkpt lat="46.69041" lon="4.70469">
        <ele>233.2570801</ele>
        <time>2009-07-20T11:35:46Z</time>
      </trkpt>
      <trkpt lat="46.68975" lon="4.70453">
        <ele>232.2957764</ele>
        <time>2009-07-20T11:36:01Z</time>
      </trkpt>
      <trkpt lat="46.6891" lon="4.70436">
        <ele>233.2570801</ele>
        <time>2009-07-20T11:36:17Z</time>
      </trkpt>
      <trkpt lat="46.68854" lon="4.70423">
        <ele>233.7376709</ele>
        <time>2009-07-20T11:36:31Z</time>
      </trkpt>
      <trkpt lat="46.6879" lon="4.70407">
        <ele>233.2570801</ele>
        <time>2009-07-20T11:36:46Z</time>
      </trkpt>
      <trkpt lat="46.68771" lon="4.70401">
        <ele>234.2183838</ele>
        <time>2009-07-20T11:36:51Z</time>
      </trkpt>
      <trkpt lat="46.68733" lon="4.7039">
        <ele>235.1796875</ele>
        <time>2009-07-20T11:37:00Z</time>
      </trkpt>
      <trkpt lat="46.68719" lon="4.70389">
        <ele>234.6990967</ele>
        <time>2009-07-20T11:37:03Z</time>
      </trkpt>
      <trkpt lat="46.68669" lon="4.7038">
        <ele>234.2183838</ele>
        <time>2009-07-20T11:37:15Z</time>
      </trkpt>
      <trkpt lat="46.68607" lon="4.70362">
        <ele>235.1796875</ele>
        <time>2009-07-20T11:37:30Z</time>
      </trkpt>
      <trkpt lat="46.68546" lon="4.70348">
        <ele>233.7376709</ele>
        <time>2009-07-20T11:37:44Z</time>
      </trkpt>
      <trkpt lat="46.68538" lon="4.70347">
        <ele>233.2570801</ele>
        <time>2009-07-20T11:37:46Z</time>
      </trkpt>
      <trkpt lat="46.68511" lon="4.7034">
        <ele>232.7764893</ele>
        <time>2009-07-20T11:37:52Z</time>
      </trkpt>
      <trkpt lat="46.68428" lon="4.70319">
        <ele>229.892334</ele>
        <time>2009-07-20T11:38:09Z</time>
      </trkpt>
      <trkpt lat="46.68347" lon="4.70298">
        <ele>228.9311523</ele>
        <time>2009-07-20T11:38:26Z</time>
      </trkpt>
      <trkpt lat="46.68277" lon="4.70281">
        <ele>229.4117432</ele>
        <time>2009-07-20T11:38:42Z</time>
      </trkpt>
      <trkpt lat="46.68202" lon="4.70262">
        <ele>229.892334</ele>
        <time>2009-07-20T11:38:59Z</time>
      </trkpt>
      <trkpt lat="46.68114" lon="4.70239">
        <ele>229.892334</ele>
        <time>2009-07-20T11:39:17Z</time>
      </trkpt>
      <trkpt lat="46.68024" lon="4.70217">
        <ele>229.892334</ele>
        <time>2009-07-20T11:39:35Z</time>
      </trkpt>
      <trkpt lat="46.67984" lon="4.70206">
        <ele>230.3730469</ele>
        <time>2009-07-20T11:39:44Z</time>
      </trkpt>
      <trkpt lat="46.67909" lon="4.70188">
        <ele>231.8149414</ele>
        <time>2009-07-20T11:40:01Z</time>
      </trkpt>
      <trkpt lat="46.67848" lon="4.70173">
        <ele>232.7764893</ele>
        <time>2009-07-20T11:40:15Z</time>
      </trkpt>
      <trkpt lat="46.67798" lon="4.70162">
        <ele>234.2183838</ele>
        <time>2009-07-20T11:40:28Z</time>
      </trkpt>
      <trkpt lat="46.67766" lon="4.70154">
        <ele>234.2183838</ele>
        <time>2009-07-20T11:40:37Z</time>
      </trkpt>
      <trkpt lat="46.67731" lon="4.70147">
        <ele>235.1796875</ele>
        <time>2009-07-20T11:40:47Z</time>
      </trkpt>
      <trkpt lat="46.67674" lon="4.70131">
        <ele>235.6602783</ele>
        <time>2009-07-20T11:40:58Z</time>
      </trkpt>
      <trkpt lat="46.67611" lon="4.70116">
        <ele>236.1409912</ele>
        <time>2009-07-20T11:41:13Z</time>
      </trkpt>
      <trkpt lat="46.67581" lon="4.70112">
        <ele>237.5828857</ele>
        <time>2009-07-20T11:41:20Z</time>
      </trkpt>
      <trkpt lat="46.67564" lon="4.7011">
        <ele>236.6217041</ele>
        <time>2009-07-20T11:41:24Z</time>
      </trkpt>
      <trkpt lat="46.67543" lon="4.70108">
        <ele>237.5828857</ele>
        <time>2009-07-20T11:41:29Z</time>
      </trkpt>
      <trkpt lat="46.67479" lon="4.70104">
        <ele>238.5443115</ele>
        <time>2009-07-20T11:41:44Z</time>
      </trkpt>
      <trkpt lat="46.67417" lon="4.70106">
        <ele>239.9862061</ele>
        <time>2009-07-20T11:41:59Z</time>
      </trkpt>
      <trkpt lat="46.67378" lon="4.70116">
        <ele>239.9862061</ele>
        <time>2009-07-20T11:42:09Z</time>
      </trkpt>
      <trkpt lat="46.6734" lon="4.70119">
        <ele>240.467041</ele>
        <time>2009-07-20T11:42:18Z</time>
      </trkpt>
      <trkpt lat="46.67309" lon="4.70128">
        <ele>240.467041</ele>
        <time>2009-07-20T11:42:26Z</time>
      </trkpt>
      <trkpt lat="46.67259" lon="4.70132">
        <ele>240.467041</ele>
        <time>2009-07-20T11:42:36Z</time>
      </trkpt>
      <trkpt lat="46.67248" lon="4.70132">
        <ele>240.467041</ele>
        <time>2009-07-20T11:42:38Z</time>
      </trkpt>
      <trkpt lat="46.67226" lon="4.70134">
        <ele>240.467041</ele>
        <time>2009-07-20T11:42:42Z</time>
      </trkpt>
      <trkpt lat="46.67174" lon="4.70137">
        <ele>240.9476318</ele>
        <time>2009-07-20T11:42:53Z</time>
      </trkpt>
      <trkpt lat="46.67132" lon="4.70134">
        <ele>240.9476318</ele>
        <time>2009-07-20T11:43:01Z</time>
      </trkpt>
      <trkpt lat="46.67096" lon="4.70126">
        <ele>241.4282227</ele>
        <time>2009-07-20T11:43:08Z</time>
      </trkpt>
      <trkpt lat="46.67047" lon="4.70108">
        <ele>241.4282227</ele>
        <time>2009-07-20T11:43:19Z</time>
      </trkpt>
      <trkpt lat="46.67012" lon="4.70091">
        <ele>240.9476318</ele>
        <time>2009-07-20T11:43:26Z</time>
      </trkpt>
      <trkpt lat="46.66988" lon="4.70076">
        <ele>240.467041</ele>
        <time>2009-07-20T11:43:32Z</time>
      </trkpt>
      <trkpt lat="46.6691" lon="4.70019">
        <ele>239.9862061</ele>
        <time>2009-07-20T11:43:46Z</time>
      </trkpt>
      <trkpt lat="46.66843" lon="4.69969">
        <ele>238.5443115</ele>
        <time>2009-07-20T11:44:02Z</time>
      </trkpt>
      <trkpt lat="46.6683" lon="4.69954">
        <ele>239.0249023</ele>
        <time>2009-07-20T11:44:08Z</time>
      </trkpt>
      <trkpt lat="46.66823" lon="4.69922">
        <ele>239.5054932</ele>
        <time>2009-07-20T11:44:15Z</time>
      </trkpt>
      <trkpt lat="46.66814" lon="4.69876">
        <ele>240.9476318</ele>
        <time>2009-07-20T11:44:22Z</time>
      </trkpt>
      <trkpt lat="46.66813" lon="4.69856">
        <ele>241.4282227</ele>
        <time>2009-07-20T11:44:25Z</time>
      </trkpt>
      <trkpt lat="46.66811" lon="4.69787">
        <ele>245.2734375</ele>
        <time>2009-07-20T11:44:38Z</time>
      </trkpt>
      <trkpt lat="46.66806" lon="4.69713">
        <ele>247.1960449</ele>
        <time>2009-07-20T11:44:55Z</time>
      </trkpt>
      <trkpt lat="46.66805" lon="4.69653">
        <ele>248.6381836</ele>
        <time>2009-07-20T11:45:08Z</time>
      </trkpt>
      <trkpt lat="46.66816" lon="4.69582">
        <ele>250.0802002</ele>
        <time>2009-07-20T11:45:23Z</time>
      </trkpt>
      <trkpt lat="46.6683" lon="4.69534">
        <ele>252.4833984</ele>
        <time>2009-07-20T11:45:36Z</time>
      </trkpt>
      <trkpt lat="46.66847" lon="4.69484">
        <ele>254.4060059</ele>
        <time>2009-07-20T11:45:50Z</time>
      </trkpt>
      <trkpt lat="46.66872" lon="4.69421">
        <ele>256.8093262</ele>
        <time>2009-07-20T11:46:06Z</time>
      </trkpt>
      <trkpt lat="46.66883" lon="4.69399">
        <ele>259.2126465</ele>
        <time>2009-07-20T11:46:12Z</time>
      </trkpt>
      <trkpt lat="46.66887" lon="4.69394">
        <ele>258.2513428</ele>
        <time>2009-07-20T11:46:14Z</time>
      </trkpt>
      <trkpt lat="46.66913" lon="4.6935">
        <ele>259.6933594</ele>
        <time>2009-07-20T11:46:27Z</time>
      </trkpt>
      <trkpt lat="46.66952" lon="4.6929">
        <ele>260.654541</ele>
        <time>2009-07-20T11:46:42Z</time>
      </trkpt>
      <trkpt lat="46.66992" lon="4.6925">
        <ele>262.0965576</ele>
        <time>2009-07-20T11:46:56Z</time>
      </trkpt>
      <trkpt lat="46.67029" lon="4.69186">
        <ele>263.5385742</ele>
        <time>2009-07-20T11:47:13Z</time>
      </trkpt>
      <trkpt lat="46.67053" lon="4.69114">
        <ele>266.9031982</ele>
        <time>2009-07-20T11:47:31Z</time>
      </trkpt>
      <trkpt lat="46.67057" lon="4.69062">
        <ele>270.2677002</ele>
        <time>2009-07-20T11:47:46Z</time>
      </trkpt>
      <trkpt lat="46.67065" lon="4.69007">
        <ele>272.6711426</ele>
        <time>2009-07-20T11:48:00Z</time>
      </trkpt>
      <trkpt lat="46.67078" lon="4.68947">
        <ele>275.0744629</ele>
        <time>2009-07-20T11:48:16Z</time>
      </trkpt>
      <trkpt lat="46.67068" lon="4.68881">
        <ele>276.9970703</ele>
        <time>2009-07-20T11:48:33Z</time>
      </trkpt>
      <trkpt lat="46.67052" lon="4.68816">
        <ele>278.4389648</ele>
        <time>2009-07-20T11:48:50Z</time>
      </trkpt>
      <trkpt lat="46.67032" lon="4.68755">
        <ele>278.9196777</ele>
        <time>2009-07-20T11:49:05Z</time>
      </trkpt>
      <trkpt lat="46.66986" lon="4.68714">
        <ele>279.8808594</ele>
        <time>2009-07-20T11:49:20Z</time>
      </trkpt>
      <trkpt lat="46.66921" lon="4.68677">
        <ele>278.4389648</ele>
        <time>2009-07-20T11:49:38Z</time>
      </trkpt>
      <trkpt lat="46.66901" lon="4.68669">
        <ele>277.958252</ele>
        <time>2009-07-20T11:49:43Z</time>
      </trkpt>
      <trkpt lat="46.66887" lon="4.68666">
        <ele>277.958252</ele>
        <time>2009-07-20T11:49:46Z</time>
      </trkpt>
      <trkpt lat="46.66869" lon="4.68661">
        <ele>276.5163574</ele>
        <time>2009-07-20T11:49:50Z</time>
      </trkpt>
      <trkpt lat="46.6685" lon="4.68625">
        <ele>276.5163574</ele>
        <time>2009-07-20T11:49:57Z</time>
      </trkpt>
      <trkpt lat="46.66878" lon="4.68516">
        <ele>276.5163574</ele>
        <time>2009-07-20T11:50:14Z</time>
      </trkpt>
      <trkpt lat="46.66887" lon="4.6848">
        <ele>275.0744629</ele>
        <time>2009-07-20T11:50:20Z</time>
      </trkpt>
      <trkpt lat="46.66897" lon="4.68413">
        <ele>275.0744629</ele>
        <time>2009-07-20T11:50:34Z</time>
      </trkpt>
      <trkpt lat="46.66903" lon="4.68369">
        <ele>275.0744629</ele>
        <time>2009-07-20T11:50:46Z</time>
      </trkpt>
      <trkpt lat="46.66916" lon="4.68291">
        <ele>275.0744629</ele>
        <time>2009-07-20T11:51:02Z</time>
      </trkpt>
      <trkpt lat="46.66931" lon="4.68217">
        <ele>276.0356445</ele>
        <time>2009-07-20T11:51:18Z</time>
      </trkpt>
      <trkpt lat="46.66945" lon="4.68142">
        <ele>277.4776611</ele>
        <time>2009-07-20T11:51:35Z</time>
      </trkpt>
      <trkpt lat="46.66957" lon="4.68072">
        <ele>278.9196777</ele>
        <time>2009-07-20T11:51:50Z</time>
      </trkpt>
      <trkpt lat="46.6697" lon="4.68001">
        <ele>280.8424072</ele>
        <time>2009-07-20T11:52:07Z</time>
      </trkpt>
      <trkpt lat="46.66982" lon="4.67926">
        <ele>280.3616943</ele>
        <time>2009-07-20T11:52:24Z</time>
      </trkpt>
      <trkpt lat="46.66998" lon="4.67868">
        <ele>282.2843018</ele>
        <time>2009-07-20T11:52:37Z</time>
      </trkpt>
      <trkpt lat="46.67013" lon="4.67808">
        <ele>283.2456055</ele>
        <time>2009-07-20T11:52:51Z</time>
      </trkpt>
      <trkpt lat="46.67018" lon="4.67745">
        <ele>285.1682129</ele>
        <time>2009-07-20T11:53:06Z</time>
      </trkpt>
      <trkpt lat="46.67013" lon="4.67688">
        <ele>287.5714111</ele>
        <time>2009-07-20T11:53:21Z</time>
      </trkpt>
      <trkpt lat="46.67011" lon="4.67633">
        <ele>290.9361572</ele>
        <time>2009-07-20T11:53:37Z</time>
      </trkpt>
      <trkpt lat="46.67023" lon="4.67582">
        <ele>293.8200684</ele>
        <time>2009-07-20T11:53:53Z</time>
      </trkpt>
      <trkpt lat="46.67032" lon="4.67526">
        <ele>296.7041016</ele>
        <time>2009-07-20T11:54:11Z</time>
      </trkpt>
      <trkpt lat="46.67032" lon="4.67489">
        <ele>300.0687256</ele>
        <time>2009-07-20T11:54:24Z</time>
      </trkpt>
      <trkpt lat="46.67026" lon="4.67445">
        <ele>302.4719238</ele>
        <time>2009-07-20T11:54:38Z</time>
      </trkpt>
      <trkpt lat="46.67029" lon="4.67401">
        <ele>305.8366699</ele>
        <time>2009-07-20T11:54:52Z</time>
      </trkpt>
      <trkpt lat="46.67043" lon="4.67351">
        <ele>308.2398682</ele>
        <time>2009-07-20T11:55:08Z</time>
      </trkpt>
      <trkpt lat="46.67055" lon="4.67301">
        <ele>310.6430664</ele>
        <time>2009-07-20T11:55:23Z</time>
      </trkpt>
      <trkpt lat="46.67061" lon="4.67254">
        <ele>312.5657959</ele>
        <time>2009-07-20T11:55:36Z</time>
      </trkpt>
      <trkpt lat="46.67078" lon="4.67211">
        <ele>314.4884033</ele>
        <time>2009-07-20T11:55:49Z</time>
      </trkpt>
      <trkpt lat="46.67105" lon="4.67205">
        <ele>315.9304199</ele>
        <time>2009-07-20T11:56:00Z</time>
      </trkpt>
      <trkpt lat="46.67117" lon="4.67176">
        <ele>316.8917236</ele>
        <time>2009-07-20T11:56:11Z</time>
      </trkpt>
      <trkpt lat="46.67117" lon="4.6716">
        <ele>317.8530273</ele>
        <time>2009-07-20T11:56:16Z</time>
      </trkpt>
      <trkpt lat="46.6712" lon="4.67149">
        <ele>318.3336182</ele>
        <time>2009-07-20T11:56:20Z</time>
      </trkpt>
      <trkpt lat="46.67141" lon="4.67101">
        <ele>320.7370605</ele>
        <time>2009-07-20T11:56:36Z</time>
      </trkpt>
      <trkpt lat="46.67152" lon="4.67052">
        <ele>324.1015625</ele>
        <time>2009-07-20T11:56:52Z</time>
      </trkpt>
      <trkpt lat="46.67158" lon="4.67008">
        <ele>326.9855957</ele>
        <time>2009-07-20T11:57:05Z</time>
      </trkpt>
      <trkpt lat="46.67164" lon="4.66969">
        <ele>329.8695068</ele>
        <time>2009-07-20T11:57:17Z</time>
      </trkpt>
      <trkpt lat="46.67165" lon="4.66954">
        <ele>331.3115234</ele>
        <time>2009-07-20T11:57:29Z</time>
      </trkpt>
      <trkpt lat="46.67165" lon="4.66944">
        <ele>331.7921143</ele>
        <time>2009-07-20T11:57:40Z</time>
      </trkpt>
      <trkpt lat="46.6717" lon="4.66936">
        <ele>333.2341309</ele>
        <time>2009-07-20T11:57:59Z</time>
      </trkpt>
      <trkpt lat="46.67168" lon="4.66937">
        <ele>332.2728271</ele>
        <time>2009-07-20T11:58:19Z</time>
      </trkpt>
      <trkpt lat="46.67167" lon="4.66941">
        <ele>332.2728271</ele>
        <time>2009-07-20T11:58:23Z</time>
      </trkpt>
      <trkpt lat="46.67169" lon="4.66954">
        <ele>331.3115234</ele>
        <time>2009-07-20T11:58:37Z</time>
      </trkpt>
      <trkpt lat="46.67166" lon="4.66964">
        <ele>330.8309326</ele>
        <time>2009-07-20T11:59:57Z</time>
      </trkpt>
      <trkpt lat="46.67162" lon="4.66988">
        <ele>327.4661865</ele>
        <time>2009-07-20T12:03:53Z</time>
      </trkpt>
      <trkpt lat="46.67161" lon="4.66999">
        <ele>326.9855957</ele>
        <time>2009-07-20T12:03:55Z</time>
      </trkpt>
      <trkpt lat="46.67153" lon="4.67039">
        <ele>323.1403809</ele>
        <time>2009-07-20T12:04:00Z</time>
      </trkpt>
      <trkpt lat="46.6715" lon="4.67061">
        <ele>321.2177734</ele>
        <time>2009-07-20T12:04:02Z</time>
      </trkpt>
      <trkpt lat="46.67128" lon="4.67123">
        <ele>317.8530273</ele>
        <time>2009-07-20T12:04:08Z</time>
      </trkpt>
      <trkpt lat="46.67111" lon="4.67178">
        <ele>315.9304199</ele>
        <time>2009-07-20T12:04:16Z</time>
      </trkpt>
      <trkpt lat="46.6711" lon="4.67189">
        <ele>315.4498291</ele>
        <time>2009-07-20T12:04:20Z</time>
      </trkpt>
      <trkpt lat="46.6711" lon="4.67201">
        <ele>314.9691162</ele>
        <time>2009-07-20T12:04:30Z</time>
      </trkpt>
      <trkpt lat="46.67119" lon="4.67201">
        <ele>314.9691162</ele>
        <time>2009-07-20T12:04:36Z</time>
      </trkpt>
      <trkpt lat="46.67103" lon="4.67203">
        <ele>314.4884033</ele>
        <time>2009-07-20T12:04:46Z</time>
      </trkpt>
      <trkpt lat="46.6707" lon="4.67209">
        <ele>313.0465088</ele>
        <time>2009-07-20T12:05:00Z</time>
      </trkpt>
      <trkpt lat="46.67065" lon="4.67225">
        <ele>312.0852051</ele>
        <time>2009-07-20T12:05:04Z</time>
      </trkpt>
      <trkpt lat="46.67047" lon="4.67298">
        <ele>308.720459</ele>
        <time>2009-07-20T12:05:15Z</time>
      </trkpt>
      <trkpt lat="46.6704" lon="4.67332">
        <ele>306.7978516</ele>
        <time>2009-07-20T12:05:19Z</time>
      </trkpt>
      <trkpt lat="46.67035" lon="4.6735">
        <ele>305.8366699</ele>
        <time>2009-07-20T12:05:21Z</time>
      </trkpt>
      <trkpt lat="46.67026" lon="4.67374">
        <ele>304.8752441</ele>
        <time>2009-07-20T12:05:24Z</time>
      </trkpt>
      <trkpt lat="46.67018" lon="4.67414">
        <ele>302.9525146</ele>
        <time>2009-07-20T12:05:29Z</time>
      </trkpt>
      <trkpt lat="46.67018" lon="4.67432">
        <ele>301.991333</ele>
        <time>2009-07-20T12:05:31Z</time>
      </trkpt>
      <trkpt lat="46.67023" lon="4.67475">
        <ele>297.6654053</ele>
        <time>2009-07-20T12:05:35Z</time>
      </trkpt>
      <trkpt lat="46.67029" lon="4.67515">
        <ele>294.7813721</ele>
        <time>2009-07-20T12:05:38Z</time>
      </trkpt>
      <trkpt lat="46.67015" lon="4.67601">
        <ele>289.9748535</ele>
        <time>2009-07-20T12:05:44Z</time>
      </trkpt>
      <trkpt lat="46.67009" lon="4.67627">
        <ele>288.0522461</ele>
        <time>2009-07-20T12:05:46Z</time>
      </trkpt>
      <trkpt lat="46.67008" lon="4.67671">
        <ele>285.6488037</ele>
        <time>2009-07-20T12:05:49Z</time>
      </trkpt>
      <trkpt lat="46.67016" lon="4.67725">
        <ele>284.2069092</ele>
        <time>2009-07-20T12:05:53Z</time>
      </trkpt>
      <trkpt lat="46.67007" lon="4.67821">
        <ele>280.8424072</ele>
        <time>2009-07-20T12:06:01Z</time>
      </trkpt>
      <trkpt lat="46.67004" lon="4.67833">
        <ele>280.8424072</ele>
        <time>2009-07-20T12:06:02Z</time>
      </trkpt>
      <trkpt lat="46.66969" lon="4.68">
        <ele>278.4389648</ele>
        <time>2009-07-20T12:06:16Z</time>
      </trkpt>
      <trkpt lat="46.66947" lon="4.68113">
        <ele>275.5550537</ele>
        <time>2009-07-20T12:06:26Z</time>
      </trkpt>
      <trkpt lat="46.66914" lon="4.68288">
        <ele>272.6711426</ele>
        <time>2009-07-20T12:06:42Z</time>
      </trkpt>
      <trkpt lat="46.66897" lon="4.68384">
        <ele>273.6324463</ele>
        <time>2009-07-20T12:06:54Z</time>
      </trkpt>
      <trkpt lat="46.66894" lon="4.68392">
        <ele>274.1130371</ele>
        <time>2009-07-20T12:07:08Z</time>
      </trkpt>
      <trkpt lat="46.66892" lon="4.68414">
        <ele>273.6324463</ele>
        <time>2009-07-20T12:07:45Z</time>
      </trkpt>
      <trkpt lat="46.66886" lon="4.68455">
        <ele>274.1130371</ele>
        <time>2009-07-20T12:07:58Z</time>
      </trkpt>
      <trkpt lat="46.66877" lon="4.68505">
        <ele>274.59375</ele>
        <time>2009-07-20T12:08:11Z</time>
      </trkpt>
      <trkpt lat="46.66861" lon="4.68571">
        <ele>274.59375</ele>
        <time>2009-07-20T12:08:26Z</time>
      </trkpt>
      <trkpt lat="46.66852" lon="4.68653">
        <ele>275.0744629</ele>
        <time>2009-07-20T12:08:41Z</time>
      </trkpt>
      <trkpt lat="46.66864" lon="4.68665">
        <ele>275.0744629</ele>
        <time>2009-07-20T12:08:45Z</time>
      </trkpt>
      <trkpt lat="46.6693" lon="4.68687">
        <ele>276.5163574</ele>
        <time>2009-07-20T12:09:01Z</time>
      </trkpt>
      <trkpt lat="46.66995" lon="4.68726">
        <ele>276.9970703</ele>
        <time>2009-07-20T12:09:18Z</time>
      </trkpt>
      <trkpt lat="46.67004" lon="4.68731">
        <ele>276.5163574</ele>
        <time>2009-07-20T12:09:20Z</time>
      </trkpt>
      <trkpt lat="46.67024" lon="4.68753">
        <ele>276.0356445</ele>
        <time>2009-07-20T12:09:25Z</time>
      </trkpt>
      <trkpt lat="46.6703" lon="4.68764">
        <ele>276.0356445</ele>
        <time>2009-07-20T12:09:27Z</time>
      </trkpt>
      <trkpt lat="46.6706" lon="4.68874">
        <ele>273.6324463</ele>
        <time>2009-07-20T12:09:42Z</time>
      </trkpt>
      <trkpt lat="46.6707" lon="4.6891">
        <ele>272.1904297</ele>
        <time>2009-07-20T12:09:46Z</time>
      </trkpt>
      <trkpt lat="46.6707" lon="4.68975">
        <ele>270.2677002</ele>
        <time>2009-07-20T12:09:52Z</time>
      </trkpt>
      <trkpt lat="46.67057" lon="4.69034">
        <ele>266.4224854</ele>
        <time>2009-07-20T12:09:57Z</time>
      </trkpt>
      <trkpt lat="46.67052" lon="4.69089">
        <ele>262.5771484</ele>
        <time>2009-07-20T12:10:01Z</time>
      </trkpt>
      <trkpt lat="46.67044" lon="4.69134">
        <ele>259.6933594</ele>
        <time>2009-07-20T12:10:04Z</time>
      </trkpt>
      <trkpt lat="46.67031" lon="4.69178">
        <ele>257.770752</ele>
        <time>2009-07-20T12:10:07Z</time>
      </trkpt>
      <trkpt lat="46.67015" lon="4.69219">
        <ele>256.8093262</ele>
        <time>2009-07-20T12:10:10Z</time>
      </trkpt>
      <trkpt lat="46.66983" lon="4.69257">
        <ele>255.3673096</ele>
        <time>2009-07-20T12:10:14Z</time>
      </trkpt>
      <trkpt lat="46.66957" lon="4.69279">
        <ele>253.925415</ele>
        <time>2009-07-20T12:10:17Z</time>
      </trkpt>
      <trkpt lat="46.66877" lon="4.69404">
        <ele>252.9639893</ele>
        <time>2009-07-20T12:10:31Z</time>
      </trkpt>
      <trkpt lat="46.66839" lon="4.69492">
        <ele>249.1187744</ele>
        <time>2009-07-20T12:10:39Z</time>
      </trkpt>
      <trkpt lat="46.66836" lon="4.69504">
        <ele>249.1187744</ele>
        <time>2009-07-20T12:10:40Z</time>
      </trkpt>
      <trkpt lat="46.66818" lon="4.69568">
        <ele>245.2734375</ele>
        <time>2009-07-20T12:10:45Z</time>
      </trkpt>
      <trkpt lat="46.66799" lon="4.69717">
        <ele>242.3896484</ele>
        <time>2009-07-20T12:10:56Z</time>
      </trkpt>
      <trkpt lat="46.66799" lon="4.69731">
        <ele>242.3896484</ele>
        <time>2009-07-20T12:10:57Z</time>
      </trkpt>
      <trkpt lat="46.66806" lon="4.69834">
        <ele>238.5443115</ele>
        <time>2009-07-20T12:11:06Z</time>
      </trkpt>
      <trkpt lat="46.66807" lon="4.69866">
        <ele>236.6217041</ele>
        <time>2009-07-20T12:11:09Z</time>
      </trkpt>
      <trkpt lat="46.66817" lon="4.69917">
        <ele>235.6602783</ele>
        <time>2009-07-20T12:11:14Z</time>
      </trkpt>
      <trkpt lat="46.66822" lon="4.69953">
        <ele>235.6602783</ele>
        <time>2009-07-20T12:11:21Z</time>
      </trkpt>
      <trkpt lat="46.66829" lon="4.69963">
        <ele>235.6602783</ele>
        <time>2009-07-20T12:11:25Z</time>
      </trkpt>
      <trkpt lat="46.66866" lon="4.6999">
        <ele>235.6602783</ele>
        <time>2009-07-20T12:11:40Z</time>
      </trkpt>
      <trkpt lat="46.66903" lon="4.70017">
        <ele>236.6217041</ele>
        <time>2009-07-20T12:11:53Z</time>
      </trkpt>
      <trkpt lat="46.66936" lon="4.70043">
        <ele>236.6217041</ele>
        <time>2009-07-20T12:12:05Z</time>
      </trkpt>
      <trkpt lat="46.66967" lon="4.70069">
        <ele>237.5828857</ele>
        <time>2009-07-20T12:12:16Z</time>
      </trkpt>
      <trkpt lat="46.66999" lon="4.70089">
        <ele>237.5828857</ele>
        <time>2009-07-20T12:12:26Z</time>
      </trkpt>
      <trkpt lat="46.67044" lon="4.70109">
        <ele>237.1022949</ele>
        <time>2009-07-20T12:12:36Z</time>
      </trkpt>
      <trkpt lat="46.67083" lon="4.70122">
        <ele>237.1022949</ele>
        <time>2009-07-20T12:12:45Z</time>
      </trkpt>
      <trkpt lat="46.67139" lon="4.70132">
        <ele>236.1409912</ele>
        <time>2009-07-20T12:12:57Z</time>
      </trkpt>
      <trkpt lat="46.67219" lon="4.70134">
        <ele>236.1409912</ele>
        <time>2009-07-20T12:13:11Z</time>
      </trkpt>
      <trkpt lat="46.6724" lon="4.70133">
        <ele>236.1409912</ele>
        <time>2009-07-20T12:13:15Z</time>
      </trkpt>
      <trkpt lat="46.67263" lon="4.70129">
        <ele>235.6602783</ele>
        <time>2009-07-20T12:13:20Z</time>
      </trkpt>
      <trkpt lat="46.67331" lon="4.70123">
        <ele>235.1796875</ele>
        <time>2009-07-20T12:13:32Z</time>
      </trkpt>
      <trkpt lat="46.67361" lon="4.7012">
        <ele>235.1796875</ele>
        <time>2009-07-20T12:13:38Z</time>
      </trkpt>
      <trkpt lat="46.67399" lon="4.70111">
        <ele>234.6990967</ele>
        <time>2009-07-20T12:13:47Z</time>
      </trkpt>
      <trkpt lat="46.67409" lon="4.70108">
        <ele>234.6990967</ele>
        <time>2009-07-20T12:13:49Z</time>
      </trkpt>
      <trkpt lat="46.67483" lon="4.7011">
        <ele>233.2570801</ele>
        <time>2009-07-20T12:14:01Z</time>
      </trkpt>
      <trkpt lat="46.67545" lon="4.70111">
        <ele>232.2957764</ele>
        <time>2009-07-20T12:14:11Z</time>
      </trkpt>
      <trkpt lat="46.67637" lon="4.70125">
        <ele>230.3730469</ele>
        <time>2009-07-20T12:14:27Z</time>
      </trkpt>
      <trkpt lat="46.67687" lon="4.70135">
        <ele>230.8537598</ele>
        <time>2009-07-20T12:14:39Z</time>
      </trkpt>
      <trkpt lat="46.67718" lon="4.70144">
        <ele>229.4117432</ele>
        <time>2009-07-20T12:14:51Z</time>
      </trkpt>
      <trkpt lat="46.67751" lon="4.70149">
        <ele>228.9311523</ele>
        <time>2009-07-20T12:15:03Z</time>
      </trkpt>
      <trkpt lat="46.67807" lon="4.7016">
        <ele>227.9697266</ele>
        <time>2009-07-20T12:15:16Z</time>
      </trkpt>
      <trkpt lat="46.67833" lon="4.70169">
        <ele>228.4504395</ele>
        <time>2009-07-20T12:15:28Z</time>
      </trkpt>
      <trkpt lat="46.67832" lon="4.70169">
        <ele>224.1245117</ele>
        <time>2009-07-20T12:15:46Z</time>
      </trkpt>
      <trkpt lat="46.67832" lon="4.70169">
        <ele>228.4504395</ele>
        <time>2009-07-20T12:15:47Z</time>
      </trkpt>
      <trkpt lat="46.67832" lon="4.70169">
        <ele>227.9697266</ele>
        <time>2009-07-20T12:15:48Z</time>
      </trkpt>
      <trkpt lat="46.67833" lon="4.7017">
        <ele>227.4891357</ele>
        <time>2009-07-20T12:17:36Z</time>
      </trkpt>
      <trkpt lat="46.67867" lon="4.70181">
        <ele>226.0471191</ele>
        <time>2009-07-20T12:17:48Z</time>
      </trkpt>
      <trkpt lat="46.67941" lon="4.70199">
        <ele>224.6052246</ele>
        <time>2009-07-20T12:18:04Z</time>
      </trkpt>
      <trkpt lat="46.68023" lon="4.70219">
        <ele>223.163208</ele>
        <time>2009-07-20T12:18:21Z</time>
      </trkpt>
      <trkpt lat="46.68084" lon="4.70234">
        <ele>223.163208</ele>
        <time>2009-07-20T12:18:33Z</time>
      </trkpt>
      <trkpt lat="46.6816" lon="4.70255">
        <ele>223.163208</ele>
        <time>2009-07-20T12:18:49Z</time>
      </trkpt>
      <trkpt lat="46.68245" lon="4.70275">
        <ele>223.6437988</ele>
        <time>2009-07-20T12:19:07Z</time>
      </trkpt>
      <trkpt lat="46.68339" lon="4.70298">
        <ele>223.6437988</ele>
        <time>2009-07-20T12:19:25Z</time>
      </trkpt>
      <trkpt lat="46.68398" lon="4.70313">
        <ele>223.6437988</ele>
        <time>2009-07-20T12:19:37Z</time>
      </trkpt>
      <trkpt lat="46.68493" lon="4.70336">
        <ele>224.1245117</ele>
        <time>2009-07-20T12:19:57Z</time>
      </trkpt>
      <trkpt lat="46.68572" lon="4.70357">
        <ele>227.0085449</ele>
        <time>2009-07-20T12:20:14Z</time>
      </trkpt>
      <trkpt lat="46.68645" lon="4.70373">
        <ele>227.0085449</ele>
        <time>2009-07-20T12:20:30Z</time>
      </trkpt>
      <trkpt lat="46.68688" lon="4.70383">
        <ele>226.527832</ele>
        <time>2009-07-20T12:20:39Z</time>
      </trkpt>
      <trkpt lat="46.68765" lon="4.70402">
        <ele>225.5665283</ele>
        <time>2009-07-20T12:20:54Z</time>
      </trkpt>
      <trkpt lat="46.68855" lon="4.70425">
        <ele>224.6052246</ele>
        <time>2009-07-20T12:21:07Z</time>
      </trkpt>
      <trkpt lat="46.68954" lon="4.70449">
        <ele>224.1245117</ele>
        <time>2009-07-20T12:21:22Z</time>
      </trkpt>
      <trkpt lat="46.69051" lon="4.70474">
        <ele>223.6437988</ele>
        <time>2009-07-20T12:21:38Z</time>
      </trkpt>
      <trkpt lat="46.69143" lon="4.70497">
        <ele>223.6437988</ele>
        <time>2009-07-20T12:21:54Z</time>
      </trkpt>
      <trkpt lat="46.69258" lon="4.70525">
        <ele>223.163208</ele>
        <time>2009-07-20T12:22:13Z</time>
      </trkpt>
      <trkpt lat="46.69371" lon="4.70553">
        <ele>223.6437988</ele>
        <time>2009-07-20T12:22:32Z</time>
      </trkpt>
      <trkpt lat="46.69459" lon="4.70572">
        <ele>225.0859375</ele>
        <time>2009-07-20T12:22:49Z</time>
      </trkpt>
      <trkpt lat="46.69474" lon="4.70578">
        <ele>225.5665283</ele>
        <time>2009-07-20T12:22:56Z</time>
      </trkpt>
      <trkpt lat="46.6949" lon="4.70581">
        <ele>226.0471191</ele>
        <time>2009-07-20T12:23:04Z</time>
      </trkpt>
      <trkpt lat="46.69498" lon="4.70586">
        <ele>225.5665283</ele>
        <time>2009-07-20T12:23:08Z</time>
      </trkpt>
      <trkpt lat="46.69581" lon="4.70605">
        <ele>226.0471191</ele>
        <time>2009-07-20T12:23:27Z</time>
      </trkpt>
      <trkpt lat="46.69669" lon="4.70627">
        <ele>227.4891357</ele>
        <time>2009-07-20T12:23:44Z</time>
      </trkpt>
      <trkpt lat="46.69741" lon="4.70642">
        <ele>227.0085449</ele>
        <time>2009-07-20T12:23:58Z</time>
      </trkpt>
      <trkpt lat="46.69754" lon="4.70645">
        <ele>227.0085449</ele>
        <time>2009-07-20T12:24:01Z</time>
      </trkpt>
      <trkpt lat="46.69777" lon="4.70649">
        <ele>226.527832</ele>
        <time>2009-07-20T12:24:05Z</time>
      </trkpt>
      <trkpt lat="46.69862" lon="4.70649">
        <ele>225.0859375</ele>
        <time>2009-07-20T12:24:19Z</time>
      </trkpt>
      <trkpt lat="46.69882" lon="4.70647">
        <ele>224.6052246</ele>
        <time>2009-07-20T12:24:22Z</time>
      </trkpt>
      <trkpt lat="46.6991" lon="4.70646">
        <ele>224.6052246</ele>
        <time>2009-07-20T12:24:26Z</time>
      </trkpt>
      <trkpt lat="46.69993" lon="4.70615">
        <ele>223.163208</ele>
        <time>2009-07-20T12:24:37Z</time>
      </trkpt>
      <trkpt lat="46.7011" lon="4.70563">
        <ele>221.7211914</ele>
        <time>2009-07-20T12:24:53Z</time>
      </trkpt>
      <trkpt lat="46.70157" lon="4.7054">
        <ele>222.6824951</ele>
        <time>2009-07-20T12:25:02Z</time>
      </trkpt>
      <trkpt lat="46.70167" lon="4.70537">
        <ele>222.6824951</ele>
        <time>2009-07-20T12:25:08Z</time>
      </trkpt>
      <trkpt lat="46.702" lon="4.70522">
        <ele>222.6824951</ele>
        <time>2009-07-20T12:25:18Z</time>
      </trkpt>
      <trkpt lat="46.70265" lon="4.70491">
        <ele>222.2017822</ele>
        <time>2009-07-20T12:25:31Z</time>
      </trkpt>
      <trkpt lat="46.70275" lon="4.70485">
        <ele>222.6824951</ele>
        <time>2009-07-20T12:25:33Z</time>
      </trkpt>
      <trkpt lat="46.7035" lon="4.7045">
        <ele>223.163208</ele>
        <time>2009-07-20T12:25:48Z</time>
      </trkpt>
      <trkpt lat="46.7043" lon="4.70412">
        <ele>223.163208</ele>
        <time>2009-07-20T12:26:02Z</time>
      </trkpt>
      <trkpt lat="46.70524" lon="4.70366">
        <ele>224.6052246</ele>
        <time>2009-07-20T12:26:19Z</time>
      </trkpt>
      <trkpt lat="46.70615" lon="4.70321">
        <ele>225.5665283</ele>
        <time>2009-07-20T12:26:36Z</time>
      </trkpt>
      <trkpt lat="46.7072" lon="4.7027">
        <ele>227.0085449</ele>
        <time>2009-07-20T12:26:56Z</time>
      </trkpt>
      <trkpt lat="46.70787" lon="4.70237">
        <ele>227.9697266</ele>
        <time>2009-07-20T12:27:10Z</time>
      </trkpt>
      <trkpt lat="46.70834" lon="4.70213">
        <ele>229.4117432</ele>
        <time>2009-07-20T12:27:23Z</time>
      </trkpt>
      <trkpt lat="46.70845" lon="4.70208">
        <ele>229.4117432</ele>
        <time>2009-07-20T12:27:28Z</time>
      </trkpt>
      <trkpt lat="46.70849" lon="4.70204">
        <ele>229.892334</ele>
        <time>2009-07-20T12:27:50Z</time>
      </trkpt>
      <trkpt lat="46.70849" lon="4.70203">
        <ele>229.4117432</ele>
        <time>2009-07-20T12:28:58Z</time>
      </trkpt>
      <trkpt lat="46.70888" lon="4.70186">
        <ele>229.892334</ele>
        <time>2009-07-20T12:29:10Z</time>
      </trkpt>
      <trkpt lat="46.70947" lon="4.70166">
        <ele>229.892334</ele>
        <time>2009-07-20T12:29:24Z</time>
      </trkpt>
      <trkpt lat="46.71008" lon="4.70158">
        <ele>230.3730469</ele>
        <time>2009-07-20T12:29:39Z</time>
      </trkpt>
      <trkpt lat="46.71077" lon="4.70163">
        <ele>231.8149414</ele>
        <time>2009-07-20T12:29:56Z</time>
      </trkpt>
      <trkpt lat="46.71128" lon="4.70178">
        <ele>232.7764893</ele>
        <time>2009-07-20T12:30:09Z</time>
      </trkpt>
      <trkpt lat="46.71141" lon="4.70181">
        <ele>232.7764893</ele>
        <time>2009-07-20T12:30:12Z</time>
      </trkpt>
      <trkpt lat="46.71199" lon="4.70216">
        <ele>234.2183838</ele>
        <time>2009-07-20T12:30:28Z</time>
      </trkpt>
      <trkpt lat="46.71235" lon="4.70256">
        <ele>233.7376709</ele>
        <time>2009-07-20T12:30:41Z</time>
      </trkpt>
      <trkpt lat="46.7125" lon="4.70278">
        <ele>233.2570801</ele>
        <time>2009-07-20T12:30:47Z</time>
      </trkpt>
      <trkpt lat="46.71255" lon="4.70285">
        <ele>234.2183838</ele>
        <time>2009-07-20T12:30:54Z</time>
      </trkpt>
      <trkpt lat="46.7126" lon="4.70293">
        <ele>235.1796875</ele>
        <time>2009-07-20T12:31:00Z</time>
      </trkpt>
      <trkpt lat="46.71264" lon="4.70294">
        <ele>235.6602783</ele>
        <time>2009-07-20T12:31:04Z</time>
      </trkpt>
      <trkpt lat="46.71276" lon="4.70305">
        <ele>236.6217041</ele>
        <time>2009-07-20T12:31:12Z</time>
      </trkpt>
      <trkpt lat="46.71286" lon="4.70319">
        <ele>236.1409912</ele>
        <time>2009-07-20T12:31:19Z</time>
      </trkpt>
      <trkpt lat="46.71308" lon="4.7034">
        <ele>236.1409912</ele>
        <time>2009-07-20T12:31:32Z</time>
      </trkpt>
      <trkpt lat="46.7133" lon="4.70334">
        <ele>236.6217041</ele>
        <time>2009-07-20T12:31:43Z</time>
      </trkpt>
      <trkpt lat="46.7134" lon="4.70331">
        <ele>236.1409912</ele>
        <time>2009-07-20T12:31:49Z</time>
      </trkpt>
      <trkpt lat="46.71352" lon="4.70328">
        <ele>236.1409912</ele>
        <time>2009-07-20T12:31:55Z</time>
      </trkpt>
      <trkpt lat="46.71356" lon="4.70337">
        <ele>236.1409912</ele>
        <time>2009-07-20T12:31:59Z</time>
      </trkpt>
      <trkpt lat="46.7138" lon="4.70384">
        <ele>236.6217041</ele>
        <time>2009-07-20T12:32:12Z</time>
      </trkpt>
      <trkpt lat="46.71405" lon="4.70414">
        <ele>236.1409912</ele>
        <time>2009-07-20T12:32:24Z</time>
      </trkpt>
      <trkpt lat="46.71454" lon="4.70462">
        <ele>236.1409912</ele>
        <time>2009-07-20T12:32:40Z</time>
      </trkpt>
      <trkpt lat="46.71472" lon="4.7048">
        <ele>236.1409912</ele>
        <time>2009-07-20T12:32:45Z</time>
      </trkpt>
      <trkpt lat="46.71489" lon="4.70498">
        <ele>235.6602783</ele>
        <time>2009-07-20T12:32:50Z</time>
      </trkpt>
      <trkpt lat="46.7156" lon="4.70573">
        <ele>234.6990967</ele>
        <time>2009-07-20T12:33:07Z</time>
      </trkpt>
      <trkpt lat="46.71634" lon="4.70648">
        <ele>234.6990967</ele>
        <time>2009-07-20T12:33:22Z</time>
      </trkpt>
      <trkpt lat="46.71726" lon="4.70741">
        <ele>234.2183838</ele>
        <time>2009-07-20T12:33:39Z</time>
      </trkpt>
      <trkpt lat="46.71827" lon="4.70846">
        <ele>233.7376709</ele>
        <time>2009-07-20T12:33:57Z</time>
      </trkpt>
      <trkpt lat="46.71939" lon="4.70962">
        <ele>234.2183838</ele>
        <time>2009-07-20T12:34:18Z</time>
      </trkpt>
      <trkpt lat="46.72042" lon="4.71071">
        <ele>230.8537598</ele>
        <time>2009-07-20T12:34:37Z</time>
      </trkpt>
      <trkpt lat="46.72116" lon="4.71148">
        <ele>229.4117432</ele>
        <time>2009-07-20T12:34:49Z</time>
      </trkpt>
      <trkpt lat="46.72216" lon="4.71252">
        <ele>227.4891357</ele>
        <time>2009-07-20T12:35:04Z</time>
      </trkpt>
      <trkpt lat="46.72291" lon="4.71329">
        <ele>226.527832</ele>
        <time>2009-07-20T12:35:16Z</time>
      </trkpt>
      <trkpt lat="46.7237" lon="4.71416">
        <ele>224.6052246</ele>
        <time>2009-07-20T12:35:29Z</time>
      </trkpt>
      <trkpt lat="46.72443" lon="4.71491">
        <ele>223.6437988</ele>
        <time>2009-07-20T12:35:40Z</time>
      </trkpt>
      <trkpt lat="46.72527" lon="4.71575">
        <ele>222.2017822</ele>
        <time>2009-07-20T12:35:53Z</time>
      </trkpt>
      <trkpt lat="46.72601" lon="4.71635">
        <ele>221.2406006</ele>
        <time>2009-07-20T12:36:05Z</time>
      </trkpt>
      <trkpt lat="46.72677" lon="4.71678">
        <ele>220.2791748</ele>
        <time>2009-07-20T12:36:16Z</time>
      </trkpt>
      <trkpt lat="46.7278" lon="4.71744">
        <ele>219.798584</ele>
        <time>2009-07-20T12:36:31Z</time>
      </trkpt>
      <trkpt lat="46.72859" lon="4.71793">
        <ele>219.3179932</ele>
        <time>2009-07-20T12:36:44Z</time>
      </trkpt>
      <trkpt lat="46.72878" lon="4.71807">
        <ele>218.8372803</ele>
        <time>2009-07-20T12:36:47Z</time>
      </trkpt>
      <trkpt lat="46.7291" lon="4.71828">
        <ele>218.3565674</ele>
        <time>2009-07-20T12:36:52Z</time>
      </trkpt>
      <trkpt lat="46.72929" lon="4.71846">
        <ele>218.3565674</ele>
        <time>2009-07-20T12:36:55Z</time>
      </trkpt>
      <trkpt lat="46.73008" lon="4.71892">
        <ele>216.9146729</ele>
        <time>2009-07-20T12:37:06Z</time>
      </trkpt>
      <trkpt lat="46.73063" lon="4.71924">
        <ele>216.9146729</ele>
        <time>2009-07-20T12:37:14Z</time>
      </trkpt>
      <trkpt lat="46.73123" lon="4.71959">
        <ele>215.4726563</ele>
        <time>2009-07-20T12:37:22Z</time>
      </trkpt>
      <trkpt lat="46.73182" lon="4.72006">
        <ele>214.9919434</ele>
        <time>2009-07-20T12:37:30Z</time>
      </trkpt>
      <trkpt lat="46.73253" lon="4.7205">
        <ele>214.5112305</ele>
        <time>2009-07-20T12:37:40Z</time>
      </trkpt>
      <trkpt lat="46.73364" lon="4.72094">
        <ele>213.5500488</ele>
        <time>2009-07-20T12:37:53Z</time>
      </trkpt>
      <trkpt lat="46.73486" lon="4.72123">
        <ele>211.6274414</ele>
        <time>2009-07-20T12:38:08Z</time>
      </trkpt>
      <trkpt lat="46.73583" lon="4.7214">
        <ele>210.1854248</ele>
        <time>2009-07-20T12:38:20Z</time>
      </trkpt>
      <trkpt lat="46.73682" lon="4.72151">
        <ele>208.7434082</ele>
        <time>2009-07-20T12:38:32Z</time>
      </trkpt>
      <trkpt lat="46.73796" lon="4.72177">
        <ele>207.7821045</ele>
        <time>2009-07-20T12:38:46Z</time>
      </trkpt>
      <trkpt lat="46.73894" lon="4.72192">
        <ele>208.7434082</ele>
        <time>2009-07-20T12:39:01Z</time>
      </trkpt>
      <trkpt lat="46.73906" lon="4.72192">
        <ele>209.2241211</ele>
        <time>2009-07-20T12:39:04Z</time>
      </trkpt>
      <trkpt lat="46.73919" lon="4.72196">
        <ele>209.704834</ele>
        <time>2009-07-20T12:39:10Z</time>
      </trkpt>
      <trkpt lat="46.73946" lon="4.72203">
        <ele>209.2241211</ele>
        <time>2009-07-20T12:39:19Z</time>
      </trkpt>
      <trkpt lat="46.73962" lon="4.72205">
        <ele>209.2241211</ele>
        <time>2009-07-20T12:39:23Z</time>
      </trkpt>
      <trkpt lat="46.73981" lon="4.72209">
        <ele>209.704834</ele>
        <time>2009-07-20T12:39:28Z</time>
      </trkpt>
      <trkpt lat="46.74061" lon="4.72223">
        <ele>209.2241211</ele>
        <time>2009-07-20T12:39:42Z</time>
      </trkpt>
      <trkpt lat="46.74163" lon="4.72239">
        <ele>210.1854248</ele>
        <time>2009-07-20T12:39:58Z</time>
      </trkpt>
      <trkpt lat="46.74263" lon="4.72259">
        <ele>210.6660156</ele>
        <time>2009-07-20T12:40:13Z</time>
      </trkpt>
      <trkpt lat="46.74364" lon="4.72278">
        <ele>211.1467285</ele>
        <time>2009-07-20T12:40:27Z</time>
      </trkpt>
      <trkpt lat="46.74481" lon="4.72296">
        <ele>212.1080322</ele>
        <time>2009-07-20T12:40:43Z</time>
      </trkpt>
      <trkpt lat="46.74598" lon="4.72315">
        <ele>212.588623</ele>
        <time>2009-07-20T12:41:00Z</time>
      </trkpt>
      <trkpt lat="46.74702" lon="4.72336">
        <ele>214.0306396</ele>
        <time>2009-07-20T12:41:17Z</time>
      </trkpt>
      <trkpt lat="46.74797" lon="4.7235">
        <ele>214.0306396</ele>
        <time>2009-07-20T12:41:32Z</time>
      </trkpt>
      <trkpt lat="46.74886" lon="4.72371">
        <ele>213.5500488</ele>
        <time>2009-07-20T12:41:46Z</time>
      </trkpt>
      <trkpt lat="46.74952" lon="4.72402">
        <ele>213.5500488</ele>
        <time>2009-07-20T12:41:57Z</time>
      </trkpt>
      <trkpt lat="46.74968" lon="4.7241">
        <ele>213.0693359</ele>
        <time>2009-07-20T12:41:59Z</time>
      </trkpt>
      <trkpt lat="46.75057" lon="4.7247">
        <ele>213.5500488</ele>
        <time>2009-07-20T12:42:13Z</time>
      </trkpt>
      <trkpt lat="46.75148" lon="4.72526">
        <ele>213.5500488</ele>
        <time>2009-07-20T12:42:27Z</time>
      </trkpt>
      <trkpt lat="46.752" lon="4.72555">
        <ele>214.5112305</ele>
        <time>2009-07-20T12:42:35Z</time>
      </trkpt>
      <trkpt lat="46.75224" lon="4.7257">
        <ele>214.9919434</ele>
        <time>2009-07-20T12:42:40Z</time>
      </trkpt>
      <trkpt lat="46.75236" lon="4.7258">
        <ele>214.9919434</ele>
        <time>2009-07-20T12:42:47Z</time>
      </trkpt>
      <trkpt lat="46.75245" lon="4.72591">
        <ele>214.5112305</ele>
        <time>2009-07-20T12:42:52Z</time>
      </trkpt>
      <trkpt lat="46.75301" lon="4.72648">
        <ele>213.5500488</ele>
        <time>2009-07-20T12:43:05Z</time>
      </trkpt>
      <trkpt lat="46.75375" lon="4.72738">
        <ele>214.0306396</ele>
        <time>2009-07-20T12:43:22Z</time>
      </trkpt>
      <trkpt lat="46.75384" lon="4.72748">
        <ele>213.5500488</ele>
        <time>2009-07-20T12:43:24Z</time>
      </trkpt>
      <trkpt lat="46.75444" lon="4.72826">
        <ele>213.5500488</ele>
        <time>2009-07-20T12:43:36Z</time>
      </trkpt>
      <trkpt lat="46.75473" lon="4.72861">
        <ele>213.5500488</ele>
        <time>2009-07-20T12:43:42Z</time>
      </trkpt>
      <trkpt lat="46.75485" lon="4.72872">
        <ele>213.5500488</ele>
        <time>2009-07-20T12:43:44Z</time>
      </trkpt>
      <trkpt lat="46.75542" lon="4.7295">
        <ele>213.0693359</ele>
        <time>2009-07-20T12:43:56Z</time>
      </trkpt>
      <trkpt lat="46.75619" lon="4.73045">
        <ele>214.5112305</ele>
        <time>2009-07-20T12:44:11Z</time>
      </trkpt>
      <trkpt lat="46.75696" lon="4.73143">
        <ele>215.4726563</ele>
        <time>2009-07-20T12:44:27Z</time>
      </trkpt>
      <trkpt lat="46.75774" lon="4.73241">
        <ele>216.9146729</ele>
        <time>2009-07-20T12:44:44Z</time>
      </trkpt>
      <trkpt lat="46.75841" lon="4.73326">
        <ele>217.8759766</ele>
        <time>2009-07-20T12:44:59Z</time>
      </trkpt>
      <trkpt lat="46.75865" lon="4.73405">
        <ele>218.8372803</ele>
        <time>2009-07-20T12:45:09Z</time>
      </trkpt>
      <trkpt lat="46.75871" lon="4.73421">
        <ele>218.3565674</ele>
        <time>2009-07-20T12:45:11Z</time>
      </trkpt>
      <trkpt lat="46.7589" lon="4.7344">
        <ele>219.798584</ele>
        <time>2009-07-20T12:45:15Z</time>
      </trkpt>
      <trkpt lat="46.75931" lon="4.73452">
        <ele>220.2791748</ele>
        <time>2009-07-20T12:45:22Z</time>
      </trkpt>
      <trkpt lat="46.75953" lon="4.73472">
        <ele>219.798584</ele>
        <time>2009-07-20T12:45:26Z</time>
      </trkpt>
      <trkpt lat="46.76029" lon="4.73563">
        <ele>220.2791748</ele>
        <time>2009-07-20T12:45:41Z</time>
      </trkpt>
      <trkpt lat="46.76107" lon="4.73661">
        <ele>220.2791748</ele>
        <time>2009-07-20T12:45:57Z</time>
      </trkpt>
      <trkpt lat="46.76185" lon="4.73759">
        <ele>220.7598877</ele>
        <time>2009-07-20T12:46:13Z</time>
      </trkpt>
      <trkpt lat="46.76268" lon="4.7386">
        <ele>220.2791748</ele>
        <time>2009-07-20T12:46:28Z</time>
      </trkpt>
      <trkpt lat="46.76321" lon="4.73913">
        <ele>219.798584</ele>
        <time>2009-07-20T12:46:37Z</time>
      </trkpt>
      <trkpt lat="46.76371" lon="4.73959">
        <ele>219.3179932</ele>
        <time>2009-07-20T12:46:46Z</time>
      </trkpt>
      <trkpt lat="46.76402" lon="4.7398">
        <ele>218.8372803</ele>
        <time>2009-07-20T12:46:51Z</time>
      </trkpt>
      <trkpt lat="46.76527" lon="4.74057">
        <ele>216.9146729</ele>
        <time>2009-07-20T12:47:09Z</time>
      </trkpt>
      <trkpt lat="46.76558" lon="4.74072">
        <ele>217.8759766</ele>
        <time>2009-07-20T12:47:15Z</time>
      </trkpt>
      <trkpt lat="46.76561" lon="4.74075">
        <ele>217.8759766</ele>
        <time>2009-07-20T12:47:26Z</time>
      </trkpt>
      <trkpt lat="46.76572" lon="4.74081">
        <ele>217.3953857</ele>
        <time>2009-07-20T12:47:32Z</time>
      </trkpt>
      <trkpt lat="46.76615" lon="4.74107">
        <ele>216.43396</ele>
        <time>2009-07-20T12:47:44Z</time>
      </trkpt>
      <trkpt lat="46.76713" lon="4.7416">
        <ele>214.9919434</ele>
        <time>2009-07-20T12:48:02Z</time>
      </trkpt>
      <trkpt lat="46.768" lon="4.7421">
        <ele>213.0693359</ele>
        <time>2009-07-20T12:48:16Z</time>
      </trkpt>
      <trkpt lat="46.7692" lon="4.74277">
        <ele>210.1854248</ele>
        <time>2009-07-20T12:48:33Z</time>
      </trkpt>
      <trkpt lat="46.76994" lon="4.74319">
        <ele>210.6660156</ele>
        <time>2009-07-20T12:48:44Z</time>
      </trkpt>
      <trkpt lat="46.77098" lon="4.74377">
        <ele>209.2241211</ele>
        <time>2009-07-20T12:49:00Z</time>
      </trkpt>
      <trkpt lat="46.7722" lon="4.74443">
        <ele>208.2628174</ele>
        <time>2009-07-20T12:49:18Z</time>
      </trkpt>
      <trkpt lat="46.7732" lon="4.74502">
        <ele>207.7821045</ele>
        <time>2009-07-20T12:49:32Z</time>
      </trkpt>
      <trkpt lat="46.77433" lon="4.74564">
        <ele>207.3013916</ele>
        <time>2009-07-20T12:49:48Z</time>
      </trkpt>
      <trkpt lat="46.77577" lon="4.74647">
        <ele>206.8206787</ele>
        <time>2009-07-20T12:50:08Z</time>
      </trkpt>
      <trkpt lat="46.77663" lon="4.74696">
        <ele>206.3400879</ele>
        <time>2009-07-20T12:50:22Z</time>
      </trkpt>
      <trkpt lat="46.77755" lon="4.74746">
        <ele>206.3400879</ele>
        <time>2009-07-20T12:50:38Z</time>
      </trkpt>
      <trkpt lat="46.77758" lon="4.74748">
        <ele>206.8206787</ele>
        <time>2009-07-20T12:50:39Z</time>
      </trkpt>
      <trkpt lat="46.77766" lon="4.74754">
        <ele>206.8206787</ele>
        <time>2009-07-20T12:50:44Z</time>
      </trkpt>
      <trkpt lat="46.77773" lon="4.74756">
        <ele>206.8206787</ele>
        <time>2009-07-20T12:50:47Z</time>
      </trkpt>
      <trkpt lat="46.77809" lon="4.74779">
        <ele>206.3400879</ele>
        <time>2009-07-20T12:50:58Z</time>
      </trkpt>
      <trkpt lat="46.77851" lon="4.74803">
        <ele>205.8594971</ele>
        <time>2009-07-20T12:51:07Z</time>
      </trkpt>
      <trkpt lat="46.77893" lon="4.74826">
        <ele>206.3400879</ele>
        <time>2009-07-20T12:51:17Z</time>
      </trkpt>
      <trkpt lat="46.77958" lon="4.74864">
        <ele>206.3400879</ele>
        <time>2009-07-20T12:51:32Z</time>
      </trkpt>
      <trkpt lat="46.78025" lon="4.74901">
        <ele>205.8594971</ele>
        <time>2009-07-20T12:51:46Z</time>
      </trkpt>
      <trkpt lat="46.78069" lon="4.74927">
        <ele>205.3787842</ele>
        <time>2009-07-20T12:51:55Z</time>
      </trkpt>
      <trkpt lat="46.7809" lon="4.74939">
        <ele>206.3400879</ele>
        <time>2009-07-20T12:52:00Z</time>
      </trkpt>
      <trkpt lat="46.78102" lon="4.74922">
        <ele>206.8206787</ele>
        <time>2009-07-20T12:52:05Z</time>
      </trkpt>
      <trkpt lat="46.7811" lon="4.74895">
        <ele>206.3400879</ele>
        <time>2009-07-20T12:52:11Z</time>
      </trkpt>
      <trkpt lat="46.7814" lon="4.74911">
        <ele>207.3013916</ele>
        <time>2009-07-20T12:52:23Z</time>
      </trkpt>
      <trkpt lat="46.78144" lon="4.74931">
        <ele>207.3013916</ele>
        <time>2009-07-20T12:52:29Z</time>
      </trkpt>
      <trkpt lat="46.78147" lon="4.74962">
        <ele>206.8206787</ele>
        <time>2009-07-20T12:52:37Z</time>
      </trkpt>
      <trkpt lat="46.7815" lon="4.74979">
        <ele>206.8206787</ele>
        <time>2009-07-20T12:52:45Z</time>
      </trkpt>
      <trkpt lat="46.78156" lon="4.74985">
        <ele>206.3400879</ele>
        <time>2009-07-20T12:52:49Z</time>
      </trkpt>
      <trkpt lat="46.78197" lon="4.75033">
        <ele>206.3400879</ele>
        <time>2009-07-20T12:53:03Z</time>
      </trkpt>
      <trkpt lat="46.78231" lon="4.75085">
        <ele>205.8594971</ele>
        <time>2009-07-20T12:53:14Z</time>
      </trkpt>
      <trkpt lat="46.78258" lon="4.75143">
        <ele>206.3400879</ele>
        <time>2009-07-20T12:53:24Z</time>
      </trkpt>
      <trkpt lat="46.78282" lon="4.75241">
        <ele>205.8594971</ele>
        <time>2009-07-20T12:53:38Z</time>
      </trkpt>
      <trkpt lat="46.78297" lon="4.7537">
        <ele>205.3787842</ele>
        <time>2009-07-20T12:53:54Z</time>
      </trkpt>
      <trkpt lat="46.78314" lon="4.75517">
        <ele>203.9368896</ele>
        <time>2009-07-20T12:54:10Z</time>
      </trkpt>
      <trkpt lat="46.78326" lon="4.75621">
        <ele>203.9368896</ele>
        <time>2009-07-20T12:54:22Z</time>
      </trkpt>
      <trkpt lat="46.78329" lon="4.75639">
        <ele>203.9368896</ele>
        <time>2009-07-20T12:54:25Z</time>
      </trkpt>
      <trkpt lat="46.78333" lon="4.7567">
        <ele>203.4561768</ele>
        <time>2009-07-20T12:54:30Z</time>
      </trkpt>
      <trkpt lat="46.78346" lon="4.75799">
        <ele>202.0142822</ele>
        <time>2009-07-20T12:54:46Z</time>
      </trkpt>
      <trkpt lat="46.78362" lon="4.75944">
        <ele>201.0528564</ele>
        <time>2009-07-20T12:55:03Z</time>
      </trkpt>
      <trkpt lat="46.78383" lon="4.76108">
        <ele>200.0916748</ele>
        <time>2009-07-20T12:55:20Z</time>
      </trkpt>
      <trkpt lat="46.78397" lon="4.7625">
        <ele>197.6882324</ele>
        <time>2009-07-20T12:55:34Z</time>
      </trkpt>
      <trkpt lat="46.78416" lon="4.7641">
        <ele>197.2075195</ele>
        <time>2009-07-20T12:55:49Z</time>
      </trkpt>
      <trkpt lat="46.78432" lon="4.76533">
        <ele>198.1689453</ele>
        <time>2009-07-20T12:56:02Z</time>
      </trkpt>
      <trkpt lat="46.78433" lon="4.76556">
        <ele>198.6495361</ele>
        <time>2009-07-20T12:56:06Z</time>
      </trkpt>
      <trkpt lat="46.7844" lon="4.76617">
        <ele>198.1689453</ele>
        <time>2009-07-20T12:56:19Z</time>
      </trkpt>
      <trkpt lat="46.7844" lon="4.76623">
        <ele>198.1689453</ele>
        <time>2009-07-20T12:56:20Z</time>
      </trkpt>
      <trkpt lat="46.78453" lon="4.76741">
        <ele>197.6882324</ele>
        <time>2009-07-20T12:56:36Z</time>
      </trkpt>
      <trkpt lat="46.78468" lon="4.76888">
        <ele>196.7269287</ele>
        <time>2009-07-20T12:56:53Z</time>
      </trkpt>
      <trkpt lat="46.78487" lon="4.77041">
        <ele>195.765625</ele>
        <time>2009-07-20T12:57:09Z</time>
      </trkpt>
      <trkpt lat="46.78499" lon="4.77186">
        <ele>193.8430176</ele>
        <time>2009-07-20T12:57:23Z</time>
      </trkpt>
      <trkpt lat="46.78495" lon="4.77239">
        <ele>193.8430176</ele>
        <time>2009-07-20T12:57:28Z</time>
      </trkpt>
      <trkpt lat="46.78492" lon="4.77304">
        <ele>191.9202881</ele>
        <time>2009-07-20T12:57:34Z</time>
      </trkpt>
      <trkpt lat="46.78488" lon="4.77348">
        <ele>191.4395752</ele>
        <time>2009-07-20T12:57:38Z</time>
      </trkpt>
      <trkpt lat="46.78476" lon="4.77419">
        <ele>190.9589844</ele>
        <time>2009-07-20T12:57:45Z</time>
      </trkpt>
      <trkpt lat="46.78471" lon="4.77459">
        <ele>190.4783936</ele>
        <time>2009-07-20T12:57:49Z</time>
      </trkpt>
      <trkpt lat="46.78467" lon="4.77513">
        <ele>189.5169678</ele>
        <time>2009-07-20T12:57:53Z</time>
      </trkpt>
      <trkpt lat="46.7846" lon="4.77575">
        <ele>189.5169678</ele>
        <time>2009-07-20T12:57:58Z</time>
      </trkpt>
      <trkpt lat="46.78451" lon="4.77662">
        <ele>188.5557861</ele>
        <time>2009-07-20T12:58:05Z</time>
      </trkpt>
      <trkpt lat="46.78439" lon="4.77744">
        <ele>187.1137695</ele>
        <time>2009-07-20T12:58:12Z</time>
      </trkpt>
      <trkpt lat="46.78412" lon="4.77959">
        <ele>184.7105713</ele>
        <time>2009-07-20T12:58:30Z</time>
      </trkpt>
      <trkpt lat="46.78396" lon="4.78089">
        <ele>185.1911621</ele>
        <time>2009-07-20T12:58:43Z</time>
      </trkpt>
      <trkpt lat="46.78395" lon="4.78093">
        <ele>185.1911621</ele>
        <time>2009-07-20T12:58:44Z</time>
      </trkpt>
      <trkpt lat="46.78392" lon="4.78108">
        <ele>185.1911621</ele>
        <time>2009-07-20T12:58:50Z</time>
      </trkpt>
      <trkpt lat="46.78386" lon="4.78161">
        <ele>184.7105713</ele>
        <time>2009-07-20T12:59:02Z</time>
      </trkpt>
      <trkpt lat="46.78373" lon="4.78255">
        <ele>184.7105713</ele>
        <time>2009-07-20T12:59:16Z</time>
      </trkpt>
      <trkpt lat="46.78363" lon="4.78331">
        <ele>185.6717529</ele>
        <time>2009-07-20T12:59:26Z</time>
      </trkpt>
      <trkpt lat="46.78348" lon="4.78445">
        <ele>187.1137695</ele>
        <time>2009-07-20T12:59:41Z</time>
      </trkpt>
      <trkpt lat="46.78342" lon="4.78497">
        <ele>187.5943604</ele>
        <time>2009-07-20T12:59:48Z</time>
      </trkpt>
      <trkpt lat="46.78331" lon="4.78575">
        <ele>188.5557861</ele>
        <time>2009-07-20T12:59:58Z</time>
      </trkpt>
      <trkpt lat="46.78325" lon="4.78636">
        <ele>189.036377</ele>
        <time>2009-07-20T13:00:06Z</time>
      </trkpt>
      <trkpt lat="46.7832" lon="4.78666">
        <ele>189.5169678</ele>
        <time>2009-07-20T13:00:10Z</time>
      </trkpt>
      <trkpt lat="46.78313" lon="4.78702">
        <ele>189.5169678</ele>
        <time>2009-07-20T13:00:15Z</time>
      </trkpt>
      <trkpt lat="46.78301" lon="4.78804">
        <ele>190.9589844</ele>
        <time>2009-07-20T13:00:28Z</time>
      </trkpt>
      <trkpt lat="46.78298" lon="4.78818">
        <ele>191.4395752</ele>
        <time>2009-07-20T13:00:30Z</time>
      </trkpt>
      <trkpt lat="46.78291" lon="4.7885">
        <ele>191.9202881</ele>
        <time>2009-07-20T13:00:35Z</time>
      </trkpt>
      <trkpt lat="46.78284" lon="4.78878">
        <ele>191.9202881</ele>
        <time>2009-07-20T13:00:39Z</time>
      </trkpt>
      <trkpt lat="46.78279" lon="4.78892">
        <ele>192.401123</ele>
        <time>2009-07-20T13:00:41Z</time>
      </trkpt>
      <trkpt lat="46.78265" lon="4.78975">
        <ele>193.3623047</ele>
        <time>2009-07-20T13:00:53Z</time>
      </trkpt>
      <trkpt lat="46.78259" lon="4.79002">
        <ele>193.8430176</ele>
        <time>2009-07-20T13:00:57Z</time>
      </trkpt>
      <trkpt lat="46.78256" lon="4.79024">
        <ele>193.8430176</ele>
        <time>2009-07-20T13:01:00Z</time>
      </trkpt>
      <trkpt lat="46.78253" lon="4.7907">
        <ele>194.3237305</ele>
        <time>2009-07-20T13:01:05Z</time>
      </trkpt>
      <trkpt lat="46.7825" lon="4.79092">
        <ele>194.8043213</ele>
        <time>2009-07-20T13:01:08Z</time>
      </trkpt>
      <trkpt lat="46.78249" lon="4.79108">
        <ele>194.8043213</ele>
        <time>2009-07-20T13:01:10Z</time>
      </trkpt>
      <trkpt lat="46.78245" lon="4.79122">
        <ele>195.2849121</ele>
        <time>2009-07-20T13:01:12Z</time>
      </trkpt>
      <trkpt lat="46.78244" lon="4.79136">
        <ele>195.2849121</ele>
        <time>2009-07-20T13:01:14Z</time>
      </trkpt>
      <trkpt lat="46.78242" lon="4.79171">
        <ele>195.2849121</ele>
        <time>2009-07-20T13:01:18Z</time>
      </trkpt>
      <trkpt lat="46.78235" lon="4.79268">
        <ele>195.765625</ele>
        <time>2009-07-20T13:01:28Z</time>
      </trkpt>
      <trkpt lat="46.78219" lon="4.79375">
        <ele>195.765625</ele>
        <time>2009-07-20T13:01:40Z</time>
      </trkpt>
      <trkpt lat="46.78198" lon="4.79508">
        <ele>196.2463379</ele>
        <time>2009-07-20T13:01:54Z</time>
      </trkpt>
      <trkpt lat="46.78166" lon="4.79696">
        <ele>196.7269287</ele>
        <time>2009-07-20T13:02:14Z</time>
      </trkpt>
      <trkpt lat="46.7816" lon="4.79738">
        <ele>197.6882324</ele>
        <time>2009-07-20T13:02:19Z</time>
      </trkpt>
      <trkpt lat="46.78157" lon="4.79766">
        <ele>198.1689453</ele>
        <time>2009-07-20T13:02:26Z</time>
      </trkpt>
      <trkpt lat="46.78145" lon="4.79828">
        <ele>198.1689453</ele>
        <time>2009-07-20T13:02:37Z</time>
      </trkpt>
      <trkpt lat="46.7812" lon="4.79975">
        <ele>198.1689453</ele>
        <time>2009-07-20T13:02:55Z</time>
      </trkpt>
      <trkpt lat="46.78095" lon="4.80127">
        <ele>198.6495361</ele>
        <time>2009-07-20T13:03:13Z</time>
      </trkpt>
      <trkpt lat="46.78085" lon="4.80178">
        <ele>198.1689453</ele>
        <time>2009-07-20T13:03:19Z</time>
      </trkpt>
      <trkpt lat="46.78066" lon="4.80295">
        <ele>199.130127</ele>
        <time>2009-07-20T13:03:32Z</time>
      </trkpt>
      <trkpt lat="46.78045" lon="4.80433">
        <ele>200.0916748</ele>
        <time>2009-07-20T13:03:48Z</time>
      </trkpt>
      <trkpt lat="46.78037" lon="4.80489">
        <ele>201.0528564</ele>
        <time>2009-07-20T13:03:57Z</time>
      </trkpt>
      <trkpt lat="46.78032" lon="4.80508">
        <ele>201.0528564</ele>
        <time>2009-07-20T13:04:09Z</time>
      </trkpt>
      <trkpt lat="46.78025" lon="4.80553">
        <ele>200.5722656</ele>
        <time>2009-07-20T13:04:20Z</time>
      </trkpt>
      <trkpt lat="46.78007" lon="4.80665">
        <ele>200.0916748</ele>
        <time>2009-07-20T13:04:34Z</time>
      </trkpt>
      <trkpt lat="46.77979" lon="4.80821">
        <ele>198.6495361</ele>
        <time>2009-07-20T13:04:50Z</time>
      </trkpt>
      <trkpt lat="46.7796" lon="4.80936">
        <ele>197.6882324</ele>
        <time>2009-07-20T13:05:01Z</time>
      </trkpt>
      <trkpt lat="46.77937" lon="4.81085">
        <ele>196.2463379</ele>
        <time>2009-07-20T13:05:14Z</time>
      </trkpt>
      <trkpt lat="46.77918" lon="4.81208">
        <ele>194.3237305</ele>
        <time>2009-07-20T13:05:24Z</time>
      </trkpt>
      <trkpt lat="46.7791" lon="4.81259">
        <ele>193.3623047</ele>
        <time>2009-07-20T13:05:28Z</time>
      </trkpt>
      <trkpt lat="46.77898" lon="4.81296">
        <ele>192.8817139</ele>
        <time>2009-07-20T13:05:31Z</time>
      </trkpt>
      <trkpt lat="46.77893" lon="4.81333">
        <ele>191.9202881</ele>
        <time>2009-07-20T13:05:34Z</time>
      </trkpt>
      <trkpt lat="46.77884" lon="4.81398">
        <ele>190.9589844</ele>
        <time>2009-07-20T13:05:39Z</time>
      </trkpt>
      <trkpt lat="46.77874" lon="4.81453">
        <ele>190.4783936</ele>
        <time>2009-07-20T13:05:43Z</time>
      </trkpt>
      <trkpt lat="46.77862" lon="4.81522">
        <ele>189.9976807</ele>
        <time>2009-07-20T13:05:48Z</time>
      </trkpt>
      <trkpt lat="46.77842" lon="4.81679">
        <ele>187.1137695</ele>
        <time>2009-07-20T13:05:59Z</time>
      </trkpt>
      <trkpt lat="46.778" lon="4.81924">
        <ele>185.6717529</ele>
        <time>2009-07-20T13:06:17Z</time>
      </trkpt>
      <trkpt lat="46.77786" lon="4.81999">
        <ele>184.7105713</ele>
        <time>2009-07-20T13:06:23Z</time>
      </trkpt>
      <trkpt lat="46.77779" lon="4.8204">
        <ele>185.1911621</ele>
        <time>2009-07-20T13:06:27Z</time>
      </trkpt>
      <trkpt lat="46.77771" lon="4.82095">
        <ele>185.6717529</ele>
        <time>2009-07-20T13:06:38Z</time>
      </trkpt>
      <trkpt lat="46.77764" lon="4.82137">
        <ele>184.7105713</ele>
        <time>2009-07-20T13:06:48Z</time>
      </trkpt>
      <trkpt lat="46.77755" lon="4.82194">
        <ele>183.7490234</ele>
        <time>2009-07-20T13:06:56Z</time>
      </trkpt>
      <trkpt lat="46.77751" lon="4.82218">
        <ele>183.7490234</ele>
        <time>2009-07-20T13:06:59Z</time>
      </trkpt>
      <trkpt lat="46.77724" lon="4.82374">
        <ele>181.3458252</ele>
        <time>2009-07-20T13:07:14Z</time>
      </trkpt>
      <trkpt lat="46.77703" lon="4.82511">
        <ele>178.4619141</ele>
        <time>2009-07-20T13:07:25Z</time>
      </trkpt>
      <trkpt lat="46.77673" lon="4.82688">
        <ele>176.0585938</ele>
        <time>2009-07-20T13:07:37Z</time>
      </trkpt>
      <trkpt lat="46.77642" lon="4.82887">
        <ele>174.6165771</ele>
        <time>2009-07-20T13:07:51Z</time>
      </trkpt>
      <trkpt lat="46.77632" lon="4.82946">
        <ele>176.0585938</ele>
        <time>2009-07-20T13:07:59Z</time>
      </trkpt>
      <trkpt lat="46.7763" lon="4.82957">
        <ele>176.0585938</ele>
        <time>2009-07-20T13:08:03Z</time>
      </trkpt>
      <trkpt lat="46.77616" lon="4.8297">
        <ele>175.5778809</ele>
        <time>2009-07-20T13:08:10Z</time>
      </trkpt>
      <trkpt lat="46.7757" lon="4.82994">
        <ele>174.6165771</ele>
        <time>2009-07-20T13:08:22Z</time>
      </trkpt>
      <trkpt lat="46.77558" lon="4.83003">
        <ele>174.1358643</ele>
        <time>2009-07-20T13:08:25Z</time>
      </trkpt>
      <trkpt lat="46.77527" lon="4.83028">
        <ele>174.1358643</ele>
        <time>2009-07-20T13:08:33Z</time>
      </trkpt>
      <trkpt lat="46.77478" lon="4.83088">
        <ele>174.1358643</ele>
        <time>2009-07-20T13:08:47Z</time>
      </trkpt>
      <trkpt lat="46.77444" lon="4.83149">
        <ele>173.6552734</ele>
        <time>2009-07-20T13:08:58Z</time>
      </trkpt>
      <trkpt lat="46.77434" lon="4.83171">
        <ele>173.6552734</ele>
        <time>2009-07-20T13:09:02Z</time>
      </trkpt>
      <trkpt lat="46.77424" lon="4.83204">
        <ele>174.1358643</ele>
        <time>2009-07-20T13:09:08Z</time>
      </trkpt>
      <trkpt lat="46.77417" lon="4.83233">
        <ele>173.1746826</ele>
        <time>2009-07-20T13:09:13Z</time>
      </trkpt>
      <trkpt lat="46.77411" lon="4.83258">
        <ele>173.6552734</ele>
        <time>2009-07-20T13:09:17Z</time>
      </trkpt>
      <trkpt lat="46.77378" lon="4.83305">
        <ele>173.6552734</ele>
        <time>2009-07-20T13:09:30Z</time>
      </trkpt>
      <trkpt lat="46.77358" lon="4.83318">
        <ele>174.6165771</ele>
        <time>2009-07-20T13:09:37Z</time>
      </trkpt>
      <trkpt lat="46.77355" lon="4.83367">
        <ele>174.6165771</ele>
        <time>2009-07-20T13:09:46Z</time>
      </trkpt>
      <trkpt lat="46.7736" lon="4.83387">
        <ele>174.6165771</ele>
        <time>2009-07-20T13:09:49Z</time>
      </trkpt>
      <trkpt lat="46.77411" lon="4.83491">
        <ele>173.6552734</ele>
        <time>2009-07-20T13:10:05Z</time>
      </trkpt>
      <trkpt lat="46.77455" lon="4.83582">
        <ele>175.09729</ele>
        <time>2009-07-20T13:10:20Z</time>
      </trkpt>
      <trkpt lat="46.77478" lon="4.83639">
        <ele>176.0585938</ele>
        <time>2009-07-20T13:10:32Z</time>
      </trkpt>
      <trkpt lat="46.77486" lon="4.83669">
        <ele>175.5778809</ele>
        <time>2009-07-20T13:10:45Z</time>
      </trkpt>
      <trkpt lat="46.77484" lon="4.83693">
        <ele>176.0585938</ele>
        <time>2009-07-20T13:10:55Z</time>
      </trkpt>
      <trkpt lat="46.77492" lon="4.83715">
        <ele>175.5778809</ele>
        <time>2009-07-20T13:11:04Z</time>
      </trkpt>
      <trkpt lat="46.77513" lon="4.83751">
        <ele>175.09729</ele>
        <time>2009-07-20T13:11:18Z</time>
      </trkpt>
      <trkpt lat="46.7753" lon="4.83806">
        <ele>174.1358643</ele>
        <time>2009-07-20T13:11:30Z</time>
      </trkpt>
      <trkpt lat="46.77533" lon="4.83814">
        <ele>174.6165771</ele>
        <time>2009-07-20T13:11:32Z</time>
      </trkpt>
      <trkpt lat="46.77566" lon="4.83805">
        <ele>175.09729</ele>
        <time>2009-07-20T13:11:46Z</time>
      </trkpt>
      <trkpt lat="46.77616" lon="4.83804">
        <ele>175.09729</ele>
        <time>2009-07-20T13:12:00Z</time>
      </trkpt>
      <trkpt lat="46.77632" lon="4.83802">
        <ele>174.1358643</ele>
        <time>2009-07-20T13:12:04Z</time>
      </trkpt>
      <trkpt lat="46.77644" lon="4.83798">
        <ele>175.5778809</ele>
        <time>2009-07-20T13:12:07Z</time>
      </trkpt>
      <trkpt lat="46.77682" lon="4.83767">
        <ele>175.5778809</ele>
        <time>2009-07-20T13:12:21Z</time>
      </trkpt>
      <trkpt lat="46.77685" lon="4.83763">
        <ele>175.09729</ele>
        <time>2009-07-20T13:12:23Z</time>
      </trkpt>
      <trkpt lat="46.77679" lon="4.83757">
        <ele>175.09729</ele>
        <time>2009-07-20T13:12:29Z</time>
      </trkpt>
      <trkpt lat="46.77633" lon="4.83796">
        <ele>174.6165771</ele>
        <time>2009-07-20T13:12:45Z</time>
      </trkpt>
      <trkpt lat="46.77574" lon="4.83796">
        <ele>174.6165771</ele>
        <time>2009-07-20T13:13:00Z</time>
      </trkpt>
      <trkpt lat="46.77563" lon="4.83801">
        <ele>174.6165771</ele>
        <time>2009-07-20T13:13:10Z</time>
      </trkpt>
      <trkpt lat="46.77544" lon="4.83803">
        <ele>174.1358643</ele>
        <time>2009-07-20T13:13:47Z</time>
      </trkpt>
      <trkpt lat="46.77542" lon="4.83802">
        <ele>174.1358643</ele>
        <time>2009-07-20T13:14:00Z</time>
      </trkpt>
      <trkpt lat="46.77542" lon="4.83802">
        <ele>174.1358643</ele>
        <time>2009-07-20T13:15:26Z</time>
      </trkpt>
      <trkpt lat="46.77549" lon="4.8381">
        <ele>174.1358643</ele>
        <time>2009-07-20T13:15:33Z</time>
      </trkpt>
      <trkpt lat="46.77589" lon="4.83801">
        <ele>174.6165771</ele>
        <time>2009-07-20T13:15:47Z</time>
      </trkpt>
      <trkpt lat="46.77651" lon="4.83795">
        <ele>175.09729</ele>
        <time>2009-07-20T13:16:03Z</time>
      </trkpt>
      <trkpt lat="46.77668" lon="4.8378">
        <ele>175.09729</ele>
        <time>2009-07-20T13:16:08Z</time>
      </trkpt>
      <trkpt lat="46.77685" lon="4.83736">
        <ele>175.09729</ele>
        <time>2009-07-20T13:16:16Z</time>
      </trkpt>
      <trkpt lat="46.77685" lon="4.83667">
        <ele>174.1358643</ele>
        <time>2009-07-20T13:16:26Z</time>
      </trkpt>
      <trkpt lat="46.77703" lon="4.83639">
        <ele>174.6165771</ele>
        <time>2009-07-20T13:16:32Z</time>
      </trkpt>
      <trkpt lat="46.77789" lon="4.83638">
        <ele>174.6165771</ele>
        <time>2009-07-20T13:16:48Z</time>
      </trkpt>
      <trkpt lat="46.77794" lon="4.83638">
        <ele>174.6165771</ele>
        <time>2009-07-20T13:16:49Z</time>
      </trkpt>
      <trkpt lat="46.77811" lon="4.83647">
        <ele>176.0585938</ele>
        <time>2009-07-20T13:16:53Z</time>
      </trkpt>
      <trkpt lat="46.77857" lon="4.83682">
        <ele>178.942627</ele>
        <time>2009-07-20T13:17:08Z</time>
      </trkpt>
      <trkpt lat="46.7789" lon="4.83702">
        <ele>181.3458252</ele>
        <time>2009-07-20T13:17:20Z</time>
      </trkpt>
      <trkpt lat="46.77925" lon="4.83737">
        <ele>183.7490234</ele>
        <time>2009-07-20T13:17:34Z</time>
      </trkpt>
      <trkpt lat="46.77964" lon="4.8378">
        <ele>185.1911621</ele>
        <time>2009-07-20T13:17:49Z</time>
      </trkpt>
      <trkpt lat="46.77999" lon="4.83828">
        <ele>186.1524658</ele>
        <time>2009-07-20T13:18:03Z</time>
      </trkpt>
      <trkpt lat="46.78031" lon="4.83878">
        <ele>186.1524658</ele>
        <time>2009-07-20T13:18:18Z</time>
      </trkpt>
      <trkpt lat="46.78069" lon="4.83937">
        <ele>185.6717529</ele>
        <time>2009-07-20T13:18:33Z</time>
      </trkpt>
      <trkpt lat="46.78108" lon="4.84007">
        <ele>185.6717529</ele>
        <time>2009-07-20T13:18:48Z</time>
      </trkpt>
      <trkpt lat="46.78121" lon="4.84028">
        <ele>185.6717529</ele>
        <time>2009-07-20T13:18:52Z</time>
      </trkpt>
      <trkpt lat="46.78145" lon="4.84067">
        <ele>185.6717529</ele>
        <time>2009-07-20T13:19:00Z</time>
      </trkpt>
      <trkpt lat="46.78154" lon="4.84078">
        <ele>185.6717529</ele>
        <time>2009-07-20T13:19:03Z</time>
      </trkpt>
      <trkpt lat="46.7817" lon="4.84086">
        <ele>185.6717529</ele>
        <time>2009-07-20T13:19:07Z</time>
      </trkpt>
      <trkpt lat="46.7819" lon="4.84093">
        <ele>185.1911621</ele>
        <time>2009-07-20T13:19:12Z</time>
      </trkpt>
      <trkpt lat="46.78208" lon="4.84113">
        <ele>184.7105713</ele>
        <time>2009-07-20T13:19:18Z</time>
      </trkpt>
      <trkpt lat="46.78228" lon="4.84101">
        <ele>185.1911621</ele>
        <time>2009-07-20T13:19:24Z</time>
      </trkpt>
      <trkpt lat="46.78271" lon="4.84048">
        <ele>184.7105713</ele>
        <time>2009-07-20T13:19:38Z</time>
      </trkpt>
      <trkpt lat="46.78278" lon="4.84039">
        <ele>185.1911621</ele>
        <time>2009-07-20T13:19:40Z</time>
      </trkpt>
      <trkpt lat="46.78329" lon="4.83967">
        <ele>184.7105713</ele>
        <time>2009-07-20T13:19:56Z</time>
      </trkpt>
      <trkpt lat="46.78337" lon="4.83953">
        <ele>185.1911621</ele>
        <time>2009-07-20T13:19:59Z</time>
      </trkpt>
      <trkpt lat="46.78356" lon="4.83918">
        <ele>185.6717529</ele>
        <time>2009-07-20T13:20:06Z</time>
      </trkpt>
      <trkpt lat="46.78378" lon="4.83908">
        <ele>186.1524658</ele>
        <time>2009-07-20T13:20:12Z</time>
      </trkpt>
      <trkpt lat="46.78413" lon="4.83923">
        <ele>185.1911621</ele>
        <time>2009-07-20T13:20:20Z</time>
      </trkpt>
      <trkpt lat="46.78431" lon="4.83954">
        <ele>186.1524658</ele>
        <time>2009-07-20T13:20:27Z</time>
      </trkpt>
      <trkpt lat="46.78433" lon="4.8396">
        <ele>186.1524658</ele>
        <time>2009-07-20T13:20:28Z</time>
      </trkpt>
      <trkpt lat="46.7845" lon="4.84036">
        <ele>185.1911621</ele>
        <time>2009-07-20T13:20:41Z</time>
      </trkpt>
      <trkpt lat="46.78463" lon="4.84101">
        <ele>185.1911621</ele>
        <time>2009-07-20T13:20:50Z</time>
      </trkpt>
      <trkpt lat="46.78464" lon="4.84113">
        <ele>188.0750732</ele>
        <time>2009-07-20T13:20:52Z</time>
      </trkpt>
      <trkpt lat="46.78465" lon="4.84125">
        <ele>185.6717529</ele>
        <time>2009-07-20T13:20:54Z</time>
      </trkpt>
      <trkpt lat="46.7847" lon="4.84148">
        <ele>185.6717529</ele>
        <time>2009-07-20T13:20:58Z</time>
      </trkpt>
      <trkpt lat="46.78479" lon="4.84186">
        <ele>185.6717529</ele>
        <time>2009-07-20T13:21:04Z</time>
      </trkpt>
      <trkpt lat="46.78502" lon="4.84272">
        <ele>184.7105713</ele>
        <time>2009-07-20T13:21:20Z</time>
      </trkpt>
      <trkpt lat="46.78501" lon="4.84284">
        <ele>185.6717529</ele>
        <time>2009-07-20T13:21:31Z</time>
      </trkpt>
      <trkpt lat="46.78498" lon="4.84312">
        <ele>185.1911621</ele>
        <time>2009-07-20T13:21:48Z</time>
      </trkpt>
      <trkpt lat="46.78482" lon="4.84379">
        <ele>183.7490234</ele>
        <time>2009-07-20T13:22:01Z</time>
      </trkpt>
      <trkpt lat="46.78451" lon="4.8449">
        <ele>181.3458252</ele>
        <time>2009-07-20T13:22:18Z</time>
      </trkpt>
      <trkpt lat="46.78429" lon="4.8455">
        <ele>179.4232178</ele>
        <time>2009-07-20T13:22:26Z</time>
      </trkpt>
      <trkpt lat="46.7841" lon="4.84583">
        <ele>178.942627</ele>
        <time>2009-07-20T13:22:31Z</time>
      </trkpt>
      <trkpt lat="46.784" lon="4.84597">
        <ele>178.4619141</ele>
        <time>2009-07-20T13:22:34Z</time>
      </trkpt>
      <trkpt lat="46.78391" lon="4.84612">
        <ele>178.4619141</ele>
        <time>2009-07-20T13:22:37Z</time>
      </trkpt>
      <trkpt lat="46.78374" lon="4.84641">
        <ele>177.5006104</ele>
        <time>2009-07-20T13:22:44Z</time>
      </trkpt>
      <trkpt lat="46.78301" lon="4.84681">
        <ele>176.5393066</ele>
        <time>2009-07-20T13:22:59Z</time>
      </trkpt>
      <trkpt lat="46.78288" lon="4.84719">
        <ele>177.0200195</ele>
        <time>2009-07-20T13:23:06Z</time>
      </trkpt>
      <trkpt lat="46.78291" lon="4.84726">
        <ele>177.0200195</ele>
        <time>2009-07-20T13:23:07Z</time>
      </trkpt>
      <trkpt lat="46.78312" lon="4.84781">
        <ele>176.5393066</ele>
        <time>2009-07-20T13:23:16Z</time>
      </trkpt>
      <trkpt lat="46.78342" lon="4.84898">
        <ele>176.0585938</ele>
        <time>2009-07-20T13:23:31Z</time>
      </trkpt>
      <trkpt lat="46.78358" lon="4.84953">
        <ele>176.5393066</ele>
        <time>2009-07-20T13:23:41Z</time>
      </trkpt>
      <trkpt lat="46.78362" lon="4.84961">
        <ele>176.5393066</ele>
        <time>2009-07-20T13:24:15Z</time>
      </trkpt>
      <trkpt lat="46.78361" lon="4.84965">
        <ele>176.5393066</ele>
        <time>2009-07-20T13:24:46Z</time>
      </trkpt>
      <trkpt lat="46.78369" lon="4.8501">
        <ele>176.0585938</ele>
        <time>2009-07-20T13:24:55Z</time>
      </trkpt>
      <trkpt lat="46.78384" lon="4.8505">
        <ele>175.5778809</ele>
        <time>2009-07-20T13:25:01Z</time>
      </trkpt>
      <trkpt lat="46.7839" lon="4.85095">
        <ele>175.5778809</ele>
        <time>2009-07-20T13:25:07Z</time>
      </trkpt>
      <trkpt lat="46.78405" lon="4.85143">
        <ele>176.0585938</ele>
        <time>2009-07-20T13:25:19Z</time>
      </trkpt>
      <trkpt lat="46.78406" lon="4.85179">
        <ele>176.0585938</ele>
        <time>2009-07-20T13:25:31Z</time>
      </trkpt>
      <trkpt lat="46.78414" lon="4.85202">
        <ele>176.0585938</ele>
        <time>2009-07-20T13:25:44Z</time>
      </trkpt>
      <trkpt lat="46.78426" lon="4.85237">
        <ele>175.5778809</ele>
        <time>2009-07-20T13:26:10Z</time>
      </trkpt>
      <trkpt lat="46.78408" lon="4.85288">
        <ele>174.1358643</ele>
        <time>2009-07-20T13:26:21Z</time>
      </trkpt>
      <trkpt lat="46.78412" lon="4.85331">
        <ele>174.1358643</ele>
        <time>2009-07-20T13:26:27Z</time>
      </trkpt>
      <trkpt lat="46.78442" lon="4.85408">
        <ele>176.0585938</ele>
        <time>2009-07-20T13:26:42Z</time>
      </trkpt>
      <trkpt lat="46.78444" lon="4.85412">
        <ele>176.0585938</ele>
        <time>2009-07-20T13:26:43Z</time>
      </trkpt>
      <trkpt lat="46.78466" lon="4.85473">
        <ele>176.0585938</ele>
        <time>2009-07-20T13:26:57Z</time>
      </trkpt>
      <trkpt lat="46.78486" lon="4.85538">
        <ele>176.0585938</ele>
        <time>2009-07-20T13:27:11Z</time>
      </trkpt>
      <trkpt lat="46.78515" lon="4.85603">
        <ele>176.0585938</ele>
        <time>2009-07-20T13:27:26Z</time>
      </trkpt>
      <trkpt lat="46.78525" lon="4.85617">
        <ele>175.5778809</ele>
        <time>2009-07-20T13:27:42Z</time>
      </trkpt>
      <trkpt lat="46.78531" lon="4.85649">
        <ele>174.6165771</ele>
        <time>2009-07-20T13:28:09Z</time>
      </trkpt>
      <trkpt lat="46.78541" lon="4.85703">
        <ele>175.5778809</ele>
        <time>2009-07-20T13:28:19Z</time>
      </trkpt>
      <trkpt lat="46.78548" lon="4.8573">
        <ele>174.6165771</ele>
        <time>2009-07-20T13:28:24Z</time>
      </trkpt>
      <trkpt lat="46.78556" lon="4.85758">
        <ele>174.1358643</ele>
        <time>2009-07-20T13:28:28Z</time>
      </trkpt>
      <trkpt lat="46.7856" lon="4.85771">
        <ele>174.1358643</ele>
        <time>2009-07-20T13:28:30Z</time>
      </trkpt>
      <trkpt lat="46.78567" lon="4.85814">
        <ele>174.1358643</ele>
        <time>2009-07-20T13:28:38Z</time>
      </trkpt>
      <trkpt lat="46.78564" lon="4.85817">
        <ele>173.6552734</ele>
        <time>2009-07-20T13:28:39Z</time>
      </trkpt>
      <trkpt lat="46.78517" lon="4.85871">
        <ele>173.1746826</ele>
        <time>2009-07-20T13:28:54Z</time>
      </trkpt>
      <trkpt lat="46.78469" lon="4.85928">
        <ele>174.1358643</ele>
        <time>2009-07-20T13:29:10Z</time>
      </trkpt>
      <trkpt lat="46.78427" lon="4.85977">
        <ele>173.6552734</ele>
        <time>2009-07-20T13:29:25Z</time>
      </trkpt>
      <trkpt lat="46.78381" lon="4.86031">
        <ele>174.6165771</ele>
        <time>2009-07-20T13:29:42Z</time>
      </trkpt>
      <trkpt lat="46.78368" lon="4.86045">
        <ele>175.09729</ele>
        <time>2009-07-20T13:29:47Z</time>
      </trkpt>
      <trkpt lat="46.78367" lon="4.86063">
        <ele>175.5778809</ele>
        <time>2009-07-20T13:29:51Z</time>
      </trkpt>
      <trkpt lat="46.78382" lon="4.86131">
        <ele>175.5778809</ele>
        <time>2009-07-20T13:30:05Z</time>
      </trkpt>
      <trkpt lat="46.78397" lon="4.86191">
        <ele>176.0585938</ele>
        <time>2009-07-20T13:30:19Z</time>
      </trkpt>
      <trkpt lat="46.78409" lon="4.86246">
        <ele>176.5393066</ele>
        <time>2009-07-20T13:30:32Z</time>
      </trkpt>
      <trkpt lat="46.784" lon="4.8629">
        <ele>176.5393066</ele>
        <time>2009-07-20T13:30:45Z</time>
      </trkpt>
      <trkpt lat="46.78392" lon="4.86336">
        <ele>176.0585938</ele>
        <time>2009-07-20T13:30:59Z</time>
      </trkpt>
      <trkpt lat="46.78388" lon="4.86368">
        <ele>176.5393066</ele>
        <time>2009-07-20T13:31:07Z</time>
      </trkpt>
      <trkpt lat="46.78389" lon="4.86389">
        <ele>176.0585938</ele>
        <time>2009-07-20T13:31:13Z</time>
      </trkpt>
      <trkpt lat="46.78384" lon="4.86398">
        <ele>176.0585938</ele>
        <time>2009-07-20T13:31:16Z</time>
      </trkpt>
      <trkpt lat="46.78391" lon="4.86409">
        <ele>176.0585938</ele>
        <time>2009-07-20T13:31:24Z</time>
      </trkpt>
      <trkpt lat="46.78399" lon="4.86388">
        <ele>176.0585938</ele>
        <time>2009-07-20T13:31:31Z</time>
      </trkpt>
      <trkpt lat="46.78408" lon="4.86393">
        <ele>176.0585938</ele>
        <time>2009-07-20T13:31:38Z</time>
      </trkpt>
      <trkpt lat="46.78408" lon="4.86417">
        <ele>175.5778809</ele>
        <time>2009-07-20T13:31:49Z</time>
      </trkpt>
      <trkpt lat="46.78408" lon="4.86427">
        <ele>175.5778809</ele>
        <time>2009-07-20T13:31:51Z</time>
      </trkpt>
      <trkpt lat="46.78425" lon="4.86432">
        <ele>175.09729</ele>
        <time>2009-07-20T13:31:56Z</time>
      </trkpt>
      <trkpt lat="46.78451" lon="4.8641">
        <ele>174.6165771</ele>
        <time>2009-07-20T13:32:04Z</time>
      </trkpt>
      <trkpt lat="46.7847" lon="4.86377">
        <ele>174.1358643</ele>
        <time>2009-07-20T13:32:11Z</time>
      </trkpt>
      <trkpt lat="46.78524" lon="4.86335">
        <ele>174.6165771</ele>
        <time>2009-07-20T13:32:26Z</time>
      </trkpt>
      <trkpt lat="46.78558" lon="4.86325">
        <ele>174.6165771</ele>
        <time>2009-07-20T13:32:34Z</time>
      </trkpt>
      <trkpt lat="46.78619" lon="4.86344">
        <ele>175.09729</ele>
        <time>2009-07-20T13:32:47Z</time>
      </trkpt>
      <trkpt lat="46.78701" lon="4.86421">
        <ele>175.09729</ele>
        <time>2009-07-20T13:33:07Z</time>
      </trkpt>
      <trkpt lat="46.78776" lon="4.86493">
        <ele>174.6165771</ele>
        <time>2009-07-20T13:33:25Z</time>
      </trkpt>
      <trkpt lat="46.78792" lon="4.86511">
        <ele>175.09729</ele>
        <time>2009-07-20T13:33:34Z</time>
      </trkpt>
      <trkpt lat="46.78798" lon="4.86522">
        <ele>175.09729</ele>
        <time>2009-07-20T13:33:42Z</time>
      </trkpt>
      <trkpt lat="46.78799" lon="4.86543">
        <ele>174.6165771</ele>
        <time>2009-07-20T13:33:45Z</time>
      </trkpt>
      <trkpt lat="46.78821" lon="4.86589">
        <ele>173.6552734</ele>
        <time>2009-07-20T13:33:52Z</time>
      </trkpt>
      <trkpt lat="46.78858" lon="4.86581">
        <ele>174.1358643</ele>
        <time>2009-07-20T13:34:00Z</time>
      </trkpt>
      <trkpt lat="46.78875" lon="4.86591">
        <ele>174.1358643</ele>
        <time>2009-07-20T13:34:04Z</time>
      </trkpt>
      <trkpt lat="46.78916" lon="4.86632">
        <ele>173.6552734</ele>
        <time>2009-07-20T13:34:15Z</time>
      </trkpt>
      <trkpt lat="46.78992" lon="4.86705">
        <ele>173.6552734</ele>
        <time>2009-07-20T13:34:34Z</time>
      </trkpt>
      <trkpt lat="46.79074" lon="4.86769">
        <ele>173.6552734</ele>
        <time>2009-07-20T13:34:53Z</time>
      </trkpt>
      <trkpt lat="46.79146" lon="4.86794">
        <ele>173.1746826</ele>
        <time>2009-07-20T13:35:10Z</time>
      </trkpt>
      <trkpt lat="46.79195" lon="4.86799">
        <ele>173.6552734</ele>
        <time>2009-07-20T13:35:25Z</time>
      </trkpt>
      <trkpt lat="46.79223" lon="4.86804">
        <ele>173.1746826</ele>
        <time>2009-07-20T13:35:35Z</time>
      </trkpt>
      <trkpt lat="46.79243" lon="4.86828">
        <ele>173.6552734</ele>
        <time>2009-07-20T13:35:45Z</time>
      </trkpt>
      <trkpt lat="46.79241" lon="4.86834">
        <ele>173.6552734</ele>
        <time>2009-07-20T13:35:48Z</time>
      </trkpt>
      <trkpt lat="46.79231" lon="4.86833">
        <ele>173.6552734</ele>
        <time>2009-07-20T13:36:03Z</time>
      </trkpt>
      <trkpt lat="46.79229" lon="4.86836">
        <ele>173.6552734</ele>
        <time>2009-07-20T13:36:29Z</time>
      </trkpt>
      <trkpt lat="46.79212" lon="4.86839">
        <ele>173.6552734</ele>
        <time>2009-07-20T13:37:23Z</time>
      </trkpt>
      <trkpt lat="46.79188" lon="4.86848">
        <ele>173.1746826</ele>
        <time>2009-07-20T13:37:35Z</time>
      </trkpt>
      <trkpt lat="46.7916" lon="4.86853">
        <ele>172.6939697</ele>
        <time>2009-07-20T13:37:48Z</time>
      </trkpt>
      <trkpt lat="46.79147" lon="4.86898">
        <ele>170.7713623</ele>
        <time>2009-07-20T13:38:00Z</time>
      </trkpt>
      <trkpt lat="46.79128" lon="4.86918">
        <ele>170.7713623</ele>
        <time>2009-07-20T13:38:12Z</time>
      </trkpt>
      <trkpt lat="46.79104" lon="4.86909">
        <ele>170.7713623</ele>
        <time>2009-07-20T13:38:23Z</time>
      </trkpt>
      <trkpt lat="46.79077" lon="4.86883">
        <ele>171.2520752</ele>
        <time>2009-07-20T13:38:38Z</time>
      </trkpt>
      <trkpt lat="46.7905" lon="4.86853">
        <ele>171.732666</ele>
        <time>2009-07-20T13:38:52Z</time>
      </trkpt>
      <trkpt lat="46.79013" lon="4.86842">
        <ele>171.2520752</ele>
        <time>2009-07-20T13:39:07Z</time>
      </trkpt>
      <trkpt lat="46.78983" lon="4.86845">
        <ele>171.732666</ele>
        <time>2009-07-20T13:39:20Z</time>
      </trkpt>
      <trkpt lat="46.78959" lon="4.86869">
        <ele>171.732666</ele>
        <time>2009-07-20T13:39:31Z</time>
      </trkpt>
      <trkpt lat="46.78952" lon="4.86916">
        <ele>171.732666</ele>
        <time>2009-07-20T13:39:44Z</time>
      </trkpt>
      <trkpt lat="46.78966" lon="4.86959">
        <ele>171.732666</ele>
        <time>2009-07-20T13:39:58Z</time>
      </trkpt>
      <trkpt lat="46.78988" lon="4.87006">
        <ele>171.732666</ele>
        <time>2009-07-20T13:40:14Z</time>
      </trkpt>
      <trkpt lat="46.7902" lon="4.87046">
        <ele>171.732666</ele>
        <time>2009-07-20T13:40:31Z</time>
      </trkpt>
      <trkpt lat="46.79049" lon="4.8708">
        <ele>171.732666</ele>
        <time>2009-07-20T13:40:46Z</time>
      </trkpt>
      <trkpt lat="46.79072" lon="4.87112">
        <ele>171.732666</ele>
        <time>2009-07-20T13:40:59Z</time>
      </trkpt>
      <trkpt lat="46.79096" lon="4.87165">
        <ele>171.732666</ele>
        <time>2009-07-20T13:41:15Z</time>
      </trkpt>
      <trkpt lat="46.79125" lon="4.8722">
        <ele>171.732666</ele>
        <time>2009-07-20T13:41:32Z</time>
      </trkpt>
      <trkpt lat="46.79144" lon="4.87257">
        <ele>171.732666</ele>
        <time>2009-07-20T13:41:45Z</time>
      </trkpt>
      <trkpt lat="46.79157" lon="4.87299">
        <ele>171.732666</ele>
        <time>2009-07-20T13:41:58Z</time>
      </trkpt>
      <trkpt lat="46.79187" lon="4.87346">
        <ele>171.732666</ele>
        <time>2009-07-20T13:42:14Z</time>
      </trkpt>
      <trkpt lat="46.7921" lon="4.87366">
        <ele>171.732666</ele>
        <time>2009-07-20T13:42:25Z</time>
      </trkpt>
      <trkpt lat="46.7925" lon="4.8739">
        <ele>171.2520752</ele>
        <time>2009-07-20T13:42:39Z</time>
      </trkpt>
      <trkpt lat="46.7929" lon="4.87404">
        <ele>171.732666</ele>
        <time>2009-07-20T13:42:53Z</time>
      </trkpt>
      <trkpt lat="46.79329" lon="4.8741">
        <ele>171.2520752</ele>
        <time>2009-07-20T13:43:07Z</time>
      </trkpt>
      <trkpt lat="46.79371" lon="4.87416">
        <ele>171.2520752</ele>
        <time>2009-07-20T13:43:23Z</time>
      </trkpt>
      <trkpt lat="46.79405" lon="4.87414">
        <ele>171.732666</ele>
        <time>2009-07-20T13:43:35Z</time>
      </trkpt>
      <trkpt lat="46.79445" lon="4.87403">
        <ele>171.732666</ele>
        <time>2009-07-20T13:43:51Z</time>
      </trkpt>
      <trkpt lat="46.7948" lon="4.87397">
        <ele>171.732666</ele>
        <time>2009-07-20T13:44:05Z</time>
      </trkpt>
      <trkpt lat="46.7951" lon="4.87403">
        <ele>171.2520752</ele>
        <time>2009-07-20T13:44:17Z</time>
      </trkpt>
      <trkpt lat="46.79538" lon="4.874">
        <ele>171.2520752</ele>
        <time>2009-07-20T13:44:29Z</time>
      </trkpt>
      <trkpt lat="46.79581" lon="4.87393">
        <ele>171.2520752</ele>
        <time>2009-07-20T13:44:43Z</time>
      </trkpt>
      <trkpt lat="46.79625" lon="4.87388">
        <ele>171.732666</ele>
        <time>2009-07-20T13:45:00Z</time>
      </trkpt>
      <trkpt lat="46.79624" lon="4.87391">
        <ele>168.8487549</ele>
        <time>2009-07-20T13:45:08Z</time>
      </trkpt>
      <trkpt lat="46.79624" lon="4.87391">
        <ele>171.732666</ele>
        <time>2009-07-20T13:45:09Z</time>
      </trkpt>
      <trkpt lat="46.79632" lon="4.87393">
        <ele>171.732666</ele>
        <time>2009-07-20T13:45:24Z</time>
      </trkpt>
      <trkpt lat="46.79631" lon="4.87394">
        <ele>171.732666</ele>
        <time>2009-07-20T13:48:08Z</time>
      </trkpt>
      <trkpt lat="46.79637" lon="4.87382">
        <ele>172.2132568</ele>
        <time>2009-07-20T13:48:20Z</time>
      </trkpt>
      <trkpt lat="46.79657" lon="4.87368">
        <ele>172.2132568</ele>
        <time>2009-07-20T13:48:35Z</time>
      </trkpt>
      <trkpt lat="46.79694" lon="4.87363">
        <ele>171.732666</ele>
        <time>2009-07-20T13:48:49Z</time>
      </trkpt>
      <trkpt lat="46.79722" lon="4.87361">
        <ele>172.2132568</ele>
        <time>2009-07-20T13:49:03Z</time>
      </trkpt>
      <trkpt lat="46.79755" lon="4.87332">
        <ele>171.732666</ele>
        <time>2009-07-20T13:49:16Z</time>
      </trkpt>
      <trkpt lat="46.79788" lon="4.87283">
        <ele>172.2132568</ele>
        <time>2009-07-20T13:49:32Z</time>
      </trkpt>
      <trkpt lat="46.79815" lon="4.87229">
        <ele>171.732666</ele>
        <time>2009-07-20T13:49:48Z</time>
      </trkpt>
      <trkpt lat="46.79845" lon="4.87193">
        <ele>172.6939697</ele>
        <time>2009-07-20T13:50:02Z</time>
      </trkpt>
      <trkpt lat="46.79872" lon="4.87145">
        <ele>172.2132568</ele>
        <time>2009-07-20T13:50:16Z</time>
      </trkpt>
      <trkpt lat="46.79891" lon="4.87102">
        <ele>172.2132568</ele>
        <time>2009-07-20T13:50:28Z</time>
      </trkpt>
      <trkpt lat="46.79927" lon="4.87036">
        <ele>172.2132568</ele>
        <time>2009-07-20T13:50:45Z</time>
      </trkpt>
      <trkpt lat="46.79971" lon="4.86979">
        <ele>172.2132568</ele>
        <time>2009-07-20T13:51:01Z</time>
      </trkpt>
      <trkpt lat="46.80018" lon="4.86919">
        <ele>172.2132568</ele>
        <time>2009-07-20T13:51:19Z</time>
      </trkpt>
      <trkpt lat="46.80024" lon="4.86878">
        <ele>171.732666</ele>
        <time>2009-07-20T13:51:28Z</time>
      </trkpt>
      <trkpt lat="46.7998" lon="4.86868">
        <ele>171.732666</ele>
        <time>2009-07-20T13:51:42Z</time>
      </trkpt>
      <trkpt lat="46.79949" lon="4.8686">
        <ele>172.2132568</ele>
        <time>2009-07-20T13:51:55Z</time>
      </trkpt>
      <trkpt lat="46.79913" lon="4.86862">
        <ele>172.2132568</ele>
        <time>2009-07-20T13:52:10Z</time>
      </trkpt>
      <trkpt lat="46.79881" lon="4.86868">
        <ele>172.2132568</ele>
        <time>2009-07-20T13:52:25Z</time>
      </trkpt>
      <trkpt lat="46.79851" lon="4.86866">
        <ele>173.6552734</ele>
        <time>2009-07-20T13:52:37Z</time>
      </trkpt>
      <trkpt lat="46.7982" lon="4.86867">
        <ele>174.6165771</ele>
        <time>2009-07-20T13:52:49Z</time>
      </trkpt>
      <trkpt lat="46.79794" lon="4.86877">
        <ele>174.6165771</ele>
        <time>2009-07-20T13:53:01Z</time>
      </trkpt>
      <trkpt lat="46.79787" lon="4.86883">
        <ele>174.6165771</ele>
        <time>2009-07-20T13:53:06Z</time>
      </trkpt>
      <trkpt lat="46.79771" lon="4.86878">
        <ele>175.09729</ele>
        <time>2009-07-20T13:53:17Z</time>
      </trkpt>
      <trkpt lat="46.79768" lon="4.86878">
        <ele>175.09729</ele>
        <time>2009-07-20T13:54:13Z</time>
      </trkpt>
      <trkpt lat="46.79737" lon="4.86877">
        <ele>174.1358643</ele>
        <time>2009-07-20T13:54:29Z</time>
      </trkpt>
      <trkpt lat="46.79701" lon="4.86871">
        <ele>175.09729</ele>
        <time>2009-07-20T13:54:43Z</time>
      </trkpt>
      <trkpt lat="46.79701" lon="4.86868">
        <ele>175.5778809</ele>
        <time>2009-07-20T13:54:45Z</time>
      </trkpt>
      <trkpt lat="46.79704" lon="4.86863">
        <ele>175.09729</ele>
        <time>2009-07-20T13:54:54Z</time>
      </trkpt>
      <trkpt lat="46.79699" lon="4.86844">
        <ele>173.6552734</ele>
        <time>2009-07-20T13:54:59Z</time>
      </trkpt>
      <trkpt lat="46.79696" lon="4.8684">
        <ele>174.1358643</ele>
        <time>2009-07-20T13:55:00Z</time>
      </trkpt>
      <trkpt lat="46.79653" lon="4.86833">
        <ele>174.6165771</ele>
        <time>2009-07-20T13:55:14Z</time>
      </trkpt>
      <trkpt lat="46.79614" lon="4.86833">
        <ele>174.6165771</ele>
        <time>2009-07-20T13:55:27Z</time>
      </trkpt>
      <trkpt lat="46.79567" lon="4.86829">
        <ele>175.09729</ele>
        <time>2009-07-20T13:55:40Z</time>
      </trkpt>
      <trkpt lat="46.79492" lon="4.86827">
        <ele>175.09729</ele>
        <time>2009-07-20T13:55:59Z</time>
      </trkpt>
      <trkpt lat="46.79422" lon="4.86795">
        <ele>175.09729</ele>
        <time>2009-07-20T13:56:16Z</time>
      </trkpt>
      <trkpt lat="46.7935" lon="4.86756">
        <ele>174.1358643</ele>
        <time>2009-07-20T13:56:33Z</time>
      </trkpt>
      <trkpt lat="46.79277" lon="4.86747">
        <ele>175.09729</ele>
        <time>2009-07-20T13:56:49Z</time>
      </trkpt>
      <trkpt lat="46.7918" lon="4.86742">
        <ele>174.6165771</ele>
        <time>2009-07-20T13:57:09Z</time>
      </trkpt>
      <trkpt lat="46.79107" lon="4.86738">
        <ele>175.09729</ele>
        <time>2009-07-20T13:57:24Z</time>
      </trkpt>
      <trkpt lat="46.79049" lon="4.8672">
        <ele>174.6165771</ele>
        <time>2009-07-20T13:57:37Z</time>
      </trkpt>
      <trkpt lat="46.78973" lon="4.86662">
        <ele>175.09729</ele>
        <time>2009-07-20T13:57:54Z</time>
      </trkpt>
      <trkpt lat="46.78914" lon="4.86602">
        <ele>173.6552734</ele>
        <time>2009-07-20T13:58:09Z</time>
      </trkpt>
      <trkpt lat="46.78861" lon="4.86535">
        <ele>175.5778809</ele>
        <time>2009-07-20T13:58:26Z</time>
      </trkpt>
      <trkpt lat="46.78861" lon="4.86531">
        <ele>176.0585938</ele>
        <time>2009-07-20T13:58:27Z</time>
      </trkpt>
      <trkpt lat="46.78831" lon="4.86487">
        <ele>177.0200195</ele>
        <time>2009-07-20T13:58:37Z</time>
      </trkpt>
      <trkpt lat="46.78797" lon="4.86486">
        <ele>176.0585938</ele>
        <time>2009-07-20T13:58:44Z</time>
      </trkpt>
      <trkpt lat="46.78733" lon="4.86435">
        <ele>175.5778809</ele>
        <time>2009-07-20T13:58:59Z</time>
      </trkpt>
      <trkpt lat="46.78665" lon="4.8637">
        <ele>176.5393066</ele>
        <time>2009-07-20T13:59:17Z</time>
      </trkpt>
      <trkpt lat="46.78599" lon="4.86319">
        <ele>175.5778809</ele>
        <time>2009-07-20T13:59:33Z</time>
      </trkpt>
      <trkpt lat="46.7859" lon="4.86317">
        <ele>176.0585938</ele>
        <time>2009-07-20T13:59:35Z</time>
      </trkpt>
      <trkpt lat="46.78531" lon="4.86319">
        <ele>176.0585938</ele>
        <time>2009-07-20T13:59:51Z</time>
      </trkpt>
      <trkpt lat="46.78524" lon="4.86324">
        <ele>176.5393066</ele>
        <time>2009-07-20T13:59:54Z</time>
      </trkpt>
      <trkpt lat="46.78503" lon="4.86308">
        <ele>175.5778809</ele>
        <time>2009-07-20T14:00:04Z</time>
      </trkpt>
      <trkpt lat="46.78472" lon="4.86278">
        <ele>176.5393066</ele>
        <time>2009-07-20T14:00:18Z</time>
      </trkpt>
      <trkpt lat="46.78469" lon="4.86271">
        <ele>176.5393066</ele>
        <time>2009-07-20T14:00:20Z</time>
      </trkpt>
      <trkpt lat="46.7847" lon="4.86256">
        <ele>175.5778809</ele>
        <time>2009-07-20T14:00:24Z</time>
      </trkpt>
      <trkpt lat="46.78469" lon="4.86245">
        <ele>176.5393066</ele>
        <time>2009-07-20T14:00:27Z</time>
      </trkpt>
      <trkpt lat="46.78461" lon="4.862">
        <ele>177.0200195</ele>
        <time>2009-07-20T14:00:39Z</time>
      </trkpt>
      <trkpt lat="46.78461" lon="4.86159">
        <ele>176.5393066</ele>
        <time>2009-07-20T14:00:53Z</time>
      </trkpt>
      <trkpt lat="46.78451" lon="4.86119">
        <ele>176.5393066</ele>
        <time>2009-07-20T14:01:07Z</time>
      </trkpt>
      <trkpt lat="46.78441" lon="4.86079">
        <ele>175.5778809</ele>
        <time>2009-07-20T14:01:21Z</time>
      </trkpt>
      <trkpt lat="46.78467" lon="4.86062">
        <ele>175.09729</ele>
        <time>2009-07-20T14:01:31Z</time>
      </trkpt>
      <trkpt lat="46.78501" lon="4.86047">
        <ele>175.09729</ele>
        <time>2009-07-20T14:01:43Z</time>
      </trkpt>
      <trkpt lat="46.78525" lon="4.86046">
        <ele>175.5778809</ele>
        <time>2009-07-20T14:01:57Z</time>
      </trkpt>
      <trkpt lat="46.78545" lon="4.86049">
        <ele>175.09729</ele>
        <time>2009-07-20T14:02:10Z</time>
      </trkpt>
      <trkpt lat="46.78566" lon="4.86023">
        <ele>175.09729</ele>
        <time>2009-07-20T14:02:27Z</time>
      </trkpt>
      <trkpt lat="46.78566" lon="4.86007">
        <ele>175.5778809</ele>
        <time>2009-07-20T14:02:33Z</time>
      </trkpt>
      <trkpt lat="46.78563" lon="4.85999">
        <ele>175.09729</ele>
        <time>2009-07-20T14:02:37Z</time>
      </trkpt>
      <trkpt lat="46.7856" lon="4.8599">
        <ele>175.5778809</ele>
        <time>2009-07-20T14:02:54Z</time>
      </trkpt>
      <trkpt lat="46.78552" lon="4.85979">
        <ele>175.5778809</ele>
        <time>2009-07-20T14:02:59Z</time>
      </trkpt>
      <trkpt lat="46.78547" lon="4.85981">
        <ele>175.5778809</ele>
        <time>2009-07-20T14:03:03Z</time>
      </trkpt>
      <trkpt lat="46.78539" lon="4.85984">
        <ele>175.5778809</ele>
        <time>2009-07-20T14:03:16Z</time>
      </trkpt>
      <trkpt lat="46.78526" lon="4.86001">
        <ele>175.5778809</ele>
        <time>2009-07-20T14:03:45Z</time>
      </trkpt>
      <trkpt lat="46.78524" lon="4.86006">
        <ele>175.5778809</ele>
        <time>2009-07-20T14:03:47Z</time>
      </trkpt>
      <trkpt lat="46.78524" lon="4.86011">
        <ele>175.5778809</ele>
        <time>2009-07-20T14:03:50Z</time>
      </trkpt>
      <trkpt lat="46.78498" lon="4.86023">
        <ele>175.09729</ele>
        <time>2009-07-20T14:04:01Z</time>
      </trkpt>
      <trkpt lat="46.78463" lon="4.86024">
        <ele>175.09729</ele>
        <time>2009-07-20T14:04:14Z</time>
      </trkpt>
      <trkpt lat="46.78433" lon="4.86039">
        <ele>176.0585938</ele>
        <time>2009-07-20T14:04:25Z</time>
      </trkpt>
      <trkpt lat="46.78417" lon="4.8603">
        <ele>177.0200195</ele>
        <time>2009-07-20T14:04:36Z</time>
      </trkpt>
      <trkpt lat="46.78408" lon="4.86027">
        <ele>177.0200195</ele>
        <time>2009-07-20T14:04:41Z</time>
      </trkpt>
      <trkpt lat="46.78399" lon="4.8603">
        <ele>177.0200195</ele>
        <time>2009-07-20T14:04:46Z</time>
      </trkpt>
      <trkpt lat="46.78375" lon="4.86038">
        <ele>177.5006104</ele>
        <time>2009-07-20T14:04:59Z</time>
      </trkpt>
      <trkpt lat="46.78341" lon="4.86033">
        <ele>177.9812012</ele>
        <time>2009-07-20T14:05:13Z</time>
      </trkpt>
      <trkpt lat="46.78338" lon="4.86017">
        <ele>177.5006104</ele>
        <time>2009-07-20T14:05:18Z</time>
      </trkpt>
      <trkpt lat="46.78341" lon="4.85977">
        <ele>177.5006104</ele>
        <time>2009-07-20T14:05:31Z</time>
      </trkpt>
      <trkpt lat="46.7833" lon="4.85965">
        <ele>178.4619141</ele>
        <time>2009-07-20T14:05:40Z</time>
      </trkpt>
      <trkpt lat="46.78329" lon="4.85967">
        <ele>177.9812012</ele>
        <time>2009-07-20T14:05:43Z</time>
      </trkpt>
      <trkpt lat="46.78323" lon="4.85957">
        <ele>178.4619141</ele>
        <time>2009-07-20T14:05:54Z</time>
      </trkpt>
      <trkpt lat="46.7832" lon="4.85924">
        <ele>177.9812012</ele>
        <time>2009-07-20T14:06:05Z</time>
      </trkpt>
      <trkpt lat="46.78318" lon="4.85922">
        <ele>177.9812012</ele>
        <time>2009-07-20T14:06:07Z</time>
      </trkpt>
      <trkpt lat="46.78315" lon="4.85917">
        <ele>177.9812012</ele>
        <time>2009-07-20T14:06:18Z</time>
      </trkpt>
      <trkpt lat="46.78305" lon="4.85912">
        <ele>177.5006104</ele>
        <time>2009-07-20T14:06:23Z</time>
      </trkpt>
      <trkpt lat="46.78286" lon="4.859">
        <ele>178.4619141</ele>
        <time>2009-07-20T14:06:35Z</time>
      </trkpt>
      <trkpt lat="46.7827" lon="4.85882">
        <ele>178.942627</ele>
        <time>2009-07-20T14:06:46Z</time>
      </trkpt>
      <trkpt lat="46.78254" lon="4.8587">
        <ele>179.9038086</ele>
        <time>2009-07-20T14:06:56Z</time>
      </trkpt>
      <trkpt lat="46.78249" lon="4.85849">
        <ele>180.3845215</ele>
        <time>2009-07-20T14:07:04Z</time>
      </trkpt>
      <trkpt lat="46.78248" lon="4.85844">
        <ele>180.3845215</ele>
        <time>2009-07-20T14:07:08Z</time>
      </trkpt>
      <trkpt lat="46.78269" lon="4.85808">
        <ele>179.9038086</ele>
        <time>2009-07-20T14:07:23Z</time>
      </trkpt>
      <trkpt lat="46.78271" lon="4.85797">
        <ele>179.9038086</ele>
        <time>2009-07-20T14:07:25Z</time>
      </trkpt>
      <trkpt lat="46.78302" lon="4.85757">
        <ele>179.4232178</ele>
        <time>2009-07-20T14:07:39Z</time>
      </trkpt>
      <trkpt lat="46.78308" lon="4.85761">
        <ele>179.4232178</ele>
        <time>2009-07-20T14:07:45Z</time>
      </trkpt>
      <trkpt lat="46.7831" lon="4.85775">
        <ele>179.4232178</ele>
        <time>2009-07-20T14:07:50Z</time>
      </trkpt>
      <trkpt lat="46.78335" lon="4.85763">
        <ele>178.942627</ele>
        <time>2009-07-20T14:07:57Z</time>
      </trkpt>
      <trkpt lat="46.78343" lon="4.85766">
        <ele>178.4619141</ele>
        <time>2009-07-20T14:08:01Z</time>
      </trkpt>
      <trkpt lat="46.78346" lon="4.85768">
        <ele>178.4619141</ele>
        <time>2009-07-20T14:08:03Z</time>
      </trkpt>
      <trkpt lat="46.7836" lon="4.85762">
        <ele>178.4619141</ele>
        <time>2009-07-20T14:08:07Z</time>
      </trkpt>
      <trkpt lat="46.78384" lon="4.85718">
        <ele>177.5006104</ele>
        <time>2009-07-20T14:08:20Z</time>
      </trkpt>
      <trkpt lat="46.78389" lon="4.85698">
        <ele>177.9812012</ele>
        <time>2009-07-20T14:08:25Z</time>
      </trkpt>
      <trkpt lat="46.78405" lon="4.85677">
        <ele>178.4619141</ele>
        <time>2009-07-20T14:08:33Z</time>
      </trkpt>
      <trkpt lat="46.78407" lon="4.85668">
        <ele>178.4619141</ele>
        <time>2009-07-20T14:08:37Z</time>
      </trkpt>
      <trkpt lat="46.78409" lon="4.85616">
        <ele>178.4619141</ele>
        <time>2009-07-20T14:08:50Z</time>
      </trkpt>
      <trkpt lat="46.78407" lon="4.85614">
        <ele>178.4619141</ele>
        <time>2009-07-20T14:08:51Z</time>
      </trkpt>
      <trkpt lat="46.78413" lon="4.85603">
        <ele>177.5006104</ele>
        <time>2009-07-20T14:09:07Z</time>
      </trkpt>
    </trkseg>
  </trk>
</gpx>